<?xml version="1.0" encoding="UTF-8" standalone="no" ?>
<gpx xmlns="http://www.topografix.com/GPX/1/1" xmlns:xsi="http://www.w3.org/2001/XMLSchema-instance" xsi:schemaLocation="http://www.topografix.com/GPX/1/1 http://www.topografix.com/GPX/1/1/gpx.xsd" version="1.1" creator="VisuGPX - https://www.visugpx.com">
  <metadata>
    <name>2025 03 30 legette du grand mont</name>
    <desc><![CDATA[2025 03 30 legette du grand mont
sortie GEMSA]]></desc>
  </metadata>
  <trk>
    <name><![CDATA[2025 03 30 legette du grand mont]]></name>
    <desc><![CDATA[comment ...]]></desc>
    <extensions>
      <line xmlns="http://www.topografix.com/GPX/gpx_style/0/2">
        <color>0000FF</color>
        <width>4</width>
      </line>
    </extensions>
    <trkseg>
      <trkpt lat="45.66408" lon="6.54868">
        <ele>1303</ele>
        <time>2025-03-30T05:57:43Z</time>
      </trkpt>
      <trkpt lat="45.66408" lon="6.54868">
        <ele>1303</ele>
        <time>2025-03-30T05:57:45Z</time>
      </trkpt>
      <trkpt lat="45.6641" lon="6.54866">
        <ele>1301</ele>
        <time>2025-03-30T05:58:15Z</time>
      </trkpt>
      <trkpt lat="45.66407" lon="6.54863">
        <ele>1301</ele>
        <time>2025-03-30T05:58:19Z</time>
      </trkpt>
      <trkpt lat="45.66405" lon="6.54861">
        <ele>1300</ele>
        <time>2025-03-30T05:58:21Z</time>
      </trkpt>
      <trkpt lat="45.66403" lon="6.5486">
        <ele>1299</ele>
        <time>2025-03-30T05:58:25Z</time>
      </trkpt>
      <trkpt lat="45.66403" lon="6.54856">
        <ele>1298</ele>
        <time>2025-03-30T05:59:03Z</time>
      </trkpt>
      <trkpt lat="45.66408" lon="6.54845">
        <ele>1297</ele>
        <time>2025-03-30T05:59:05Z</time>
      </trkpt>
      <trkpt lat="45.6642" lon="6.54839">
        <ele>1296</ele>
        <time>2025-03-30T05:59:07Z</time>
      </trkpt>
      <trkpt lat="45.66431" lon="6.54826">
        <ele>1294</ele>
        <time>2025-03-30T05:59:09Z</time>
      </trkpt>
      <trkpt lat="45.66442" lon="6.54804">
        <ele>1292</ele>
        <time>2025-03-30T05:59:11Z</time>
      </trkpt>
      <trkpt lat="45.6646" lon="6.54785">
        <ele>1290</ele>
        <time>2025-03-30T05:59:13Z</time>
      </trkpt>
      <trkpt lat="45.66481" lon="6.54775">
        <ele>1290</ele>
        <time>2025-03-30T05:59:15Z</time>
      </trkpt>
      <trkpt lat="45.6651" lon="6.54754">
        <ele>1287</ele>
        <time>2025-03-30T05:59:18Z</time>
      </trkpt>
      <trkpt lat="45.66526" lon="6.54738">
        <ele>1284</ele>
        <time>2025-03-30T05:59:20Z</time>
      </trkpt>
      <trkpt lat="45.6654" lon="6.54724">
        <ele>1279</ele>
        <time>2025-03-30T05:59:22Z</time>
      </trkpt>
      <trkpt lat="45.66559" lon="6.54707">
        <ele>1273</ele>
        <time>2025-03-30T05:59:24Z</time>
      </trkpt>
      <trkpt lat="45.66581" lon="6.54673">
        <ele>1266</ele>
        <time>2025-03-30T05:59:27Z</time>
      </trkpt>
      <trkpt lat="45.66597" lon="6.54649">
        <ele>1260</ele>
        <time>2025-03-30T05:59:29Z</time>
      </trkpt>
      <trkpt lat="45.6661" lon="6.54618">
        <ele>1255</ele>
        <time>2025-03-30T05:59:31Z</time>
      </trkpt>
      <trkpt lat="45.66625" lon="6.54572">
        <ele>1251</ele>
        <time>2025-03-30T05:59:34Z</time>
      </trkpt>
      <trkpt lat="45.66649" lon="6.5456">
        <ele>1247</ele>
        <time>2025-03-30T05:59:36Z</time>
      </trkpt>
      <trkpt lat="45.66671" lon="6.54545">
        <ele>1244</ele>
        <time>2025-03-30T05:59:38Z</time>
      </trkpt>
      <trkpt lat="45.66694" lon="6.54529">
        <ele>1242</ele>
        <time>2025-03-30T05:59:40Z</time>
      </trkpt>
      <trkpt lat="45.66846" lon="6.54399">
        <ele>1231</ele>
        <time>2025-03-30T06:00:02Z</time>
      </trkpt>
      <trkpt lat="45.66887" lon="6.54379">
        <ele>1229</ele>
        <time>2025-03-30T06:00:09Z</time>
      </trkpt>
      <trkpt lat="45.66898" lon="6.54371">
        <ele>1228</ele>
        <time>2025-03-30T06:00:11Z</time>
      </trkpt>
      <trkpt lat="45.66931" lon="6.54361">
        <ele>1225</ele>
        <time>2025-03-30T06:00:16Z</time>
      </trkpt>
      <trkpt lat="45.66943" lon="6.54362">
        <ele>1223</ele>
        <time>2025-03-30T06:00:18Z</time>
      </trkpt>
      <trkpt lat="45.66966" lon="6.54354">
        <ele>1221</ele>
        <time>2025-03-30T06:00:22Z</time>
      </trkpt>
      <trkpt lat="45.66979" lon="6.54351">
        <ele>1220</ele>
        <time>2025-03-30T06:00:24Z</time>
      </trkpt>
      <trkpt lat="45.67007" lon="6.54358">
        <ele>1219</ele>
        <time>2025-03-30T06:00:28Z</time>
      </trkpt>
      <trkpt lat="45.67034" lon="6.54351">
        <ele>1218</ele>
        <time>2025-03-30T06:00:32Z</time>
      </trkpt>
      <trkpt lat="45.67067" lon="6.5431">
        <ele>1214</ele>
        <time>2025-03-30T06:00:38Z</time>
      </trkpt>
      <trkpt lat="45.67088" lon="6.54295">
        <ele>1215</ele>
        <time>2025-03-30T06:00:42Z</time>
      </trkpt>
      <trkpt lat="45.67096" lon="6.54285">
        <ele>1214</ele>
        <time>2025-03-30T06:00:44Z</time>
      </trkpt>
      <trkpt lat="45.67112" lon="6.54247">
        <ele>1214</ele>
        <time>2025-03-30T06:00:50Z</time>
      </trkpt>
      <trkpt lat="45.67116" lon="6.54233">
        <ele>1214</ele>
        <time>2025-03-30T06:00:52Z</time>
      </trkpt>
      <trkpt lat="45.67119" lon="6.54174">
        <ele>1212</ele>
        <time>2025-03-30T06:01:00Z</time>
      </trkpt>
      <trkpt lat="45.67116" lon="6.5415">
        <ele>1211</ele>
        <time>2025-03-30T06:01:04Z</time>
      </trkpt>
      <trkpt lat="45.67111" lon="6.54142">
        <ele>1211</ele>
        <time>2025-03-30T06:01:06Z</time>
      </trkpt>
      <trkpt lat="45.67108" lon="6.54133">
        <ele>1210</ele>
        <time>2025-03-30T06:01:08Z</time>
      </trkpt>
      <trkpt lat="45.67108" lon="6.54122">
        <ele>1210</ele>
        <time>2025-03-30T06:01:10Z</time>
      </trkpt>
      <trkpt lat="45.67116" lon="6.54105">
        <ele>1210</ele>
        <time>2025-03-30T06:01:14Z</time>
      </trkpt>
      <trkpt lat="45.67125" lon="6.54094">
        <ele>1211</ele>
        <time>2025-03-30T06:01:18Z</time>
      </trkpt>
      <trkpt lat="45.67128" lon="6.54089">
        <ele>1210</ele>
        <time>2025-03-30T06:01:20Z</time>
      </trkpt>
      <trkpt lat="45.67129" lon="6.54088">
        <ele>1210</ele>
        <time>2025-03-30T06:01:23Z</time>
      </trkpt>
      <trkpt lat="45.67129" lon="6.54088">
        <ele>1210</ele>
        <time>2025-03-30T06:04:20Z</time>
      </trkpt>
      <trkpt lat="45.67128" lon="6.54086">
        <ele>1209</ele>
        <time>2025-03-30T06:06:24Z</time>
      </trkpt>
      <trkpt lat="45.67128" lon="6.54083">
        <ele>1207</ele>
        <time>2025-03-30T06:09:15Z</time>
      </trkpt>
      <trkpt lat="45.67127" lon="6.5408">
        <ele>1207</ele>
        <time>2025-03-30T06:09:30Z</time>
      </trkpt>
      <trkpt lat="45.67127" lon="6.54077">
        <ele>1207</ele>
        <time>2025-03-30T06:09:32Z</time>
      </trkpt>
      <trkpt lat="45.67128" lon="6.54072">
        <ele>1208</ele>
        <time>2025-03-30T06:10:39Z</time>
      </trkpt>
      <trkpt lat="45.67129" lon="6.54067">
        <ele>1208</ele>
        <time>2025-03-30T06:11:24Z</time>
      </trkpt>
      <trkpt lat="45.67129" lon="6.54039">
        <ele>1212</ele>
        <time>2025-03-30T06:11:46Z</time>
      </trkpt>
      <trkpt lat="45.67132" lon="6.54012">
        <ele>1214</ele>
        <time>2025-03-30T06:12:09Z</time>
      </trkpt>
      <trkpt lat="45.67131" lon="6.54009">
        <ele>1216</ele>
        <time>2025-03-30T06:12:13Z</time>
      </trkpt>
      <trkpt lat="45.67126" lon="6.54005">
        <ele>1216</ele>
        <time>2025-03-30T06:12:21Z</time>
      </trkpt>
      <trkpt lat="45.67124" lon="6.54001">
        <ele>1216</ele>
        <time>2025-03-30T06:12:25Z</time>
      </trkpt>
      <trkpt lat="45.67122" lon="6.53998">
        <ele>1217</ele>
        <time>2025-03-30T06:12:29Z</time>
      </trkpt>
      <trkpt lat="45.67121" lon="6.53994">
        <ele>1217</ele>
        <time>2025-03-30T06:12:33Z</time>
      </trkpt>
      <trkpt lat="45.6712" lon="6.5398">
        <ele>1219</ele>
        <time>2025-03-30T06:12:47Z</time>
      </trkpt>
      <trkpt lat="45.6712" lon="6.53976">
        <ele>1220</ele>
        <time>2025-03-30T06:12:51Z</time>
      </trkpt>
      <trkpt lat="45.67116" lon="6.53969">
        <ele>1221</ele>
        <time>2025-03-30T06:12:59Z</time>
      </trkpt>
      <trkpt lat="45.67113" lon="6.53963">
        <ele>1222</ele>
        <time>2025-03-30T06:13:06Z</time>
      </trkpt>
      <trkpt lat="45.67109" lon="6.53956">
        <ele>1221</ele>
        <time>2025-03-30T06:13:15Z</time>
      </trkpt>
      <trkpt lat="45.67108" lon="6.53952">
        <ele>1221</ele>
        <time>2025-03-30T06:13:19Z</time>
      </trkpt>
      <trkpt lat="45.67107" lon="6.53947">
        <ele>1223</ele>
        <time>2025-03-30T06:13:24Z</time>
      </trkpt>
      <trkpt lat="45.67107" lon="6.53933">
        <ele>1225</ele>
        <time>2025-03-30T06:13:37Z</time>
      </trkpt>
      <trkpt lat="45.67105" lon="6.53924">
        <ele>1227</ele>
        <time>2025-03-30T06:13:45Z</time>
      </trkpt>
      <trkpt lat="45.67104" lon="6.5392">
        <ele>1228</ele>
        <time>2025-03-30T06:13:49Z</time>
      </trkpt>
      <trkpt lat="45.67104" lon="6.53918">
        <ele>1228</ele>
        <time>2025-03-30T06:13:51Z</time>
      </trkpt>
      <trkpt lat="45.671" lon="6.53904">
        <ele>1230</ele>
        <time>2025-03-30T06:14:02Z</time>
      </trkpt>
      <trkpt lat="45.67099" lon="6.53902">
        <ele>1231</ele>
        <time>2025-03-30T06:14:04Z</time>
      </trkpt>
      <trkpt lat="45.67099" lon="6.53897">
        <ele>1231</ele>
        <time>2025-03-30T06:14:08Z</time>
      </trkpt>
      <trkpt lat="45.67098" lon="6.53894">
        <ele>1231</ele>
        <time>2025-03-30T06:14:11Z</time>
      </trkpt>
      <trkpt lat="45.67098" lon="6.53891">
        <ele>1231</ele>
        <time>2025-03-30T06:14:13Z</time>
      </trkpt>
      <trkpt lat="45.67096" lon="6.53885">
        <ele>1231</ele>
        <time>2025-03-30T06:14:18Z</time>
      </trkpt>
      <trkpt lat="45.67095" lon="6.53877">
        <ele>1231</ele>
        <time>2025-03-30T06:14:24Z</time>
      </trkpt>
      <trkpt lat="45.67087" lon="6.53839">
        <ele>1234</ele>
        <time>2025-03-30T06:14:56Z</time>
      </trkpt>
      <trkpt lat="45.67079" lon="6.53806">
        <ele>1237</ele>
        <time>2025-03-30T06:15:27Z</time>
      </trkpt>
      <trkpt lat="45.67067" lon="6.53783">
        <ele>1240</ele>
        <time>2025-03-30T06:15:52Z</time>
      </trkpt>
      <trkpt lat="45.67065" lon="6.5378">
        <ele>1241</ele>
        <time>2025-03-30T06:15:56Z</time>
      </trkpt>
      <trkpt lat="45.6706" lon="6.53769">
        <ele>1243</ele>
        <time>2025-03-30T06:16:08Z</time>
      </trkpt>
      <trkpt lat="45.67049" lon="6.5375">
        <ele>1246</ele>
        <time>2025-03-30T06:16:32Z</time>
      </trkpt>
      <trkpt lat="45.67047" lon="6.53744">
        <ele>1246</ele>
        <time>2025-03-30T06:16:37Z</time>
      </trkpt>
      <trkpt lat="45.67047" lon="6.53741">
        <ele>1247</ele>
        <time>2025-03-30T06:16:41Z</time>
      </trkpt>
      <trkpt lat="45.67044" lon="6.53713">
        <ele>1251</ele>
        <time>2025-03-30T06:17:07Z</time>
      </trkpt>
      <trkpt lat="45.67038" lon="6.53698">
        <ele>1252</ele>
        <time>2025-03-30T06:17:23Z</time>
      </trkpt>
      <trkpt lat="45.67037" lon="6.53694">
        <ele>1252</ele>
        <time>2025-03-30T06:17:27Z</time>
      </trkpt>
      <trkpt lat="45.67035" lon="6.53686">
        <ele>1255</ele>
        <time>2025-03-30T06:17:35Z</time>
      </trkpt>
      <trkpt lat="45.6703" lon="6.53653">
        <ele>1261</ele>
        <time>2025-03-30T06:18:05Z</time>
      </trkpt>
      <trkpt lat="45.6703" lon="6.53649">
        <ele>1261</ele>
        <time>2025-03-30T06:18:08Z</time>
      </trkpt>
      <trkpt lat="45.67029" lon="6.53646">
        <ele>1261</ele>
        <time>2025-03-30T06:18:12Z</time>
      </trkpt>
      <trkpt lat="45.6703" lon="6.53609">
        <ele>1265</ele>
        <time>2025-03-30T06:18:42Z</time>
      </trkpt>
      <trkpt lat="45.67028" lon="6.53601">
        <ele>1267</ele>
        <time>2025-03-30T06:18:49Z</time>
      </trkpt>
      <trkpt lat="45.67027" lon="6.53599">
        <ele>1267</ele>
        <time>2025-03-30T06:18:51Z</time>
      </trkpt>
      <trkpt lat="45.67025" lon="6.53597">
        <ele>1267</ele>
        <time>2025-03-30T06:18:54Z</time>
      </trkpt>
      <trkpt lat="45.67022" lon="6.53595">
        <ele>1267</ele>
        <time>2025-03-30T06:18:58Z</time>
      </trkpt>
      <trkpt lat="45.6702" lon="6.53593">
        <ele>1267</ele>
        <time>2025-03-30T06:19:02Z</time>
      </trkpt>
      <trkpt lat="45.6702" lon="6.53588">
        <ele>1267</ele>
        <time>2025-03-30T06:19:06Z</time>
      </trkpt>
      <trkpt lat="45.67017" lon="6.53579">
        <ele>1269</ele>
        <time>2025-03-30T06:19:14Z</time>
      </trkpt>
      <trkpt lat="45.67015" lon="6.53577">
        <ele>1269</ele>
        <time>2025-03-30T06:19:18Z</time>
      </trkpt>
      <trkpt lat="45.67012" lon="6.53576">
        <ele>1269</ele>
        <time>2025-03-30T06:19:23Z</time>
      </trkpt>
      <trkpt lat="45.67009" lon="6.53574">
        <ele>1269</ele>
        <time>2025-03-30T06:19:27Z</time>
      </trkpt>
      <trkpt lat="45.67008" lon="6.53559">
        <ele>1272</ele>
        <time>2025-03-30T06:19:41Z</time>
      </trkpt>
      <trkpt lat="45.67007" lon="6.53556">
        <ele>1272</ele>
        <time>2025-03-30T06:19:45Z</time>
      </trkpt>
      <trkpt lat="45.67004" lon="6.53552">
        <ele>1273</ele>
        <time>2025-03-30T06:19:49Z</time>
      </trkpt>
      <trkpt lat="45.66996" lon="6.53547">
        <ele>1274</ele>
        <time>2025-03-30T06:20:01Z</time>
      </trkpt>
      <trkpt lat="45.66994" lon="6.53545">
        <ele>1275</ele>
        <time>2025-03-30T06:20:05Z</time>
      </trkpt>
      <trkpt lat="45.66987" lon="6.53528">
        <ele>1276</ele>
        <time>2025-03-30T06:20:21Z</time>
      </trkpt>
      <trkpt lat="45.66986" lon="6.53524">
        <ele>1277</ele>
        <time>2025-03-30T06:20:26Z</time>
      </trkpt>
      <trkpt lat="45.66982" lon="6.53523">
        <ele>1277</ele>
        <time>2025-03-30T06:20:30Z</time>
      </trkpt>
      <trkpt lat="45.66977" lon="6.53527">
        <ele>1277</ele>
        <time>2025-03-30T06:20:36Z</time>
      </trkpt>
      <trkpt lat="45.66961" lon="6.5355">
        <ele>1275</ele>
        <time>2025-03-30T06:21:07Z</time>
      </trkpt>
      <trkpt lat="45.66957" lon="6.53555">
        <ele>1275</ele>
        <time>2025-03-30T06:21:12Z</time>
      </trkpt>
      <trkpt lat="45.66953" lon="6.53578">
        <ele>1278</ele>
        <time>2025-03-30T06:21:28Z</time>
      </trkpt>
      <trkpt lat="45.66954" lon="6.53593">
        <ele>1278</ele>
        <time>2025-03-30T06:21:41Z</time>
      </trkpt>
      <trkpt lat="45.66952" lon="6.53597">
        <ele>1279</ele>
        <time>2025-03-30T06:21:45Z</time>
      </trkpt>
      <trkpt lat="45.66954" lon="6.53604">
        <ele>1279</ele>
        <time>2025-03-30T06:21:50Z</time>
      </trkpt>
      <trkpt lat="45.66955" lon="6.53609">
        <ele>1279</ele>
        <time>2025-03-30T06:21:54Z</time>
      </trkpt>
      <trkpt lat="45.66954" lon="6.53636">
        <ele>1281</ele>
        <time>2025-03-30T06:22:15Z</time>
      </trkpt>
      <trkpt lat="45.66953" lon="6.53643">
        <ele>1281</ele>
        <time>2025-03-30T06:22:21Z</time>
      </trkpt>
      <trkpt lat="45.6695" lon="6.53656">
        <ele>1283</ele>
        <time>2025-03-30T06:22:32Z</time>
      </trkpt>
      <trkpt lat="45.66947" lon="6.53699">
        <ele>1287</ele>
        <time>2025-03-30T06:23:06Z</time>
      </trkpt>
      <trkpt lat="45.6695" lon="6.53709">
        <ele>1288</ele>
        <time>2025-03-30T06:23:13Z</time>
      </trkpt>
      <trkpt lat="45.66951" lon="6.53714">
        <ele>1288</ele>
        <time>2025-03-30T06:23:17Z</time>
      </trkpt>
      <trkpt lat="45.6695" lon="6.5372">
        <ele>1288</ele>
        <time>2025-03-30T06:23:22Z</time>
      </trkpt>
      <trkpt lat="45.66951" lon="6.53725">
        <ele>1289</ele>
        <time>2025-03-30T06:23:26Z</time>
      </trkpt>
      <trkpt lat="45.66952" lon="6.53731">
        <ele>1290</ele>
        <time>2025-03-30T06:23:31Z</time>
      </trkpt>
      <trkpt lat="45.66956" lon="6.53744">
        <ele>1291</ele>
        <time>2025-03-30T06:23:41Z</time>
      </trkpt>
      <trkpt lat="45.66959" lon="6.53755">
        <ele>1292</ele>
        <time>2025-03-30T06:23:49Z</time>
      </trkpt>
      <trkpt lat="45.66959" lon="6.53764">
        <ele>1294</ele>
        <time>2025-03-30T06:23:57Z</time>
      </trkpt>
      <trkpt lat="45.66958" lon="6.53769">
        <ele>1294</ele>
        <time>2025-03-30T06:24:01Z</time>
      </trkpt>
      <trkpt lat="45.6695" lon="6.5378">
        <ele>1293</ele>
        <time>2025-03-30T06:24:13Z</time>
      </trkpt>
      <trkpt lat="45.66934" lon="6.53791">
        <ele>1294</ele>
        <time>2025-03-30T06:24:30Z</time>
      </trkpt>
      <trkpt lat="45.66931" lon="6.53793">
        <ele>1294</ele>
        <time>2025-03-30T06:24:34Z</time>
      </trkpt>
      <trkpt lat="45.66927" lon="6.53798">
        <ele>1294</ele>
        <time>2025-03-30T06:24:38Z</time>
      </trkpt>
      <trkpt lat="45.66924" lon="6.53801">
        <ele>1294</ele>
        <time>2025-03-30T06:24:42Z</time>
      </trkpt>
      <trkpt lat="45.66919" lon="6.53804">
        <ele>1293</ele>
        <time>2025-03-30T06:24:47Z</time>
      </trkpt>
      <trkpt lat="45.66914" lon="6.53807">
        <ele>1292</ele>
        <time>2025-03-30T06:24:54Z</time>
      </trkpt>
      <trkpt lat="45.66902" lon="6.53822">
        <ele>1289</ele>
        <time>2025-03-30T06:25:07Z</time>
      </trkpt>
      <trkpt lat="45.66896" lon="6.53837">
        <ele>1290</ele>
        <time>2025-03-30T06:25:19Z</time>
      </trkpt>
      <trkpt lat="45.66895" lon="6.53843">
        <ele>1289</ele>
        <time>2025-03-30T06:25:23Z</time>
      </trkpt>
      <trkpt lat="45.66893" lon="6.53847">
        <ele>1290</ele>
        <time>2025-03-30T06:25:27Z</time>
      </trkpt>
      <trkpt lat="45.66893" lon="6.53853">
        <ele>1290</ele>
        <time>2025-03-30T06:25:32Z</time>
      </trkpt>
      <trkpt lat="45.66896" lon="6.53873">
        <ele>1291</ele>
        <time>2025-03-30T06:25:43Z</time>
      </trkpt>
      <trkpt lat="45.66896" lon="6.53886">
        <ele>1292</ele>
        <time>2025-03-30T06:25:51Z</time>
      </trkpt>
      <trkpt lat="45.66895" lon="6.53891">
        <ele>1294</ele>
        <time>2025-03-30T06:25:55Z</time>
      </trkpt>
      <trkpt lat="45.66896" lon="6.53897">
        <ele>1294</ele>
        <time>2025-03-30T06:25:59Z</time>
      </trkpt>
      <trkpt lat="45.66898" lon="6.53902">
        <ele>1295</ele>
        <time>2025-03-30T06:26:03Z</time>
      </trkpt>
      <trkpt lat="45.66901" lon="6.53908">
        <ele>1295</ele>
        <time>2025-03-30T06:26:08Z</time>
      </trkpt>
      <trkpt lat="45.66905" lon="6.53917">
        <ele>1299</ele>
        <time>2025-03-30T06:26:17Z</time>
      </trkpt>
      <trkpt lat="45.66905" lon="6.53922">
        <ele>1300</ele>
        <time>2025-03-30T06:26:21Z</time>
      </trkpt>
      <trkpt lat="45.66905" lon="6.53927">
        <ele>1300</ele>
        <time>2025-03-30T06:26:26Z</time>
      </trkpt>
      <trkpt lat="45.66904" lon="6.53932">
        <ele>1300</ele>
        <time>2025-03-30T06:26:30Z</time>
      </trkpt>
      <trkpt lat="45.66909" lon="6.53948">
        <ele>1303</ele>
        <time>2025-03-30T06:26:46Z</time>
      </trkpt>
      <trkpt lat="45.66908" lon="6.53958">
        <ele>1304</ele>
        <time>2025-03-30T06:26:55Z</time>
      </trkpt>
      <trkpt lat="45.66907" lon="6.53962">
        <ele>1304</ele>
        <time>2025-03-30T06:26:59Z</time>
      </trkpt>
      <trkpt lat="45.66905" lon="6.53965">
        <ele>1305</ele>
        <time>2025-03-30T06:27:02Z</time>
      </trkpt>
      <trkpt lat="45.66903" lon="6.5397">
        <ele>1307</ele>
        <time>2025-03-30T06:27:08Z</time>
      </trkpt>
      <trkpt lat="45.66901" lon="6.53973">
        <ele>1307</ele>
        <time>2025-03-30T06:27:13Z</time>
      </trkpt>
      <trkpt lat="45.669" lon="6.53979">
        <ele>1308</ele>
        <time>2025-03-30T06:27:19Z</time>
      </trkpt>
      <trkpt lat="45.66898" lon="6.53982">
        <ele>1308</ele>
        <time>2025-03-30T06:27:25Z</time>
      </trkpt>
      <trkpt lat="45.66895" lon="6.53984">
        <ele>1309</ele>
        <time>2025-03-30T06:27:29Z</time>
      </trkpt>
      <trkpt lat="45.66892" lon="6.53987">
        <ele>1309</ele>
        <time>2025-03-30T06:27:35Z</time>
      </trkpt>
      <trkpt lat="45.66887" lon="6.5399">
        <ele>1310</ele>
        <time>2025-03-30T06:27:44Z</time>
      </trkpt>
      <trkpt lat="45.66884" lon="6.53993">
        <ele>1311</ele>
        <time>2025-03-30T06:27:49Z</time>
      </trkpt>
      <trkpt lat="45.66874" lon="6.53999">
        <ele>1314</ele>
        <time>2025-03-30T06:28:02Z</time>
      </trkpt>
      <trkpt lat="45.66851" lon="6.54028">
        <ele>1315</ele>
        <time>2025-03-30T06:28:34Z</time>
      </trkpt>
      <trkpt lat="45.66848" lon="6.5403">
        <ele>1316</ele>
        <time>2025-03-30T06:28:40Z</time>
      </trkpt>
      <trkpt lat="45.66846" lon="6.54026">
        <ele>1317</ele>
        <time>2025-03-30T06:28:45Z</time>
      </trkpt>
      <trkpt lat="45.66846" lon="6.5402">
        <ele>1317</ele>
        <time>2025-03-30T06:28:51Z</time>
      </trkpt>
      <trkpt lat="45.66845" lon="6.54016">
        <ele>1317</ele>
        <time>2025-03-30T06:28:55Z</time>
      </trkpt>
      <trkpt lat="45.66843" lon="6.54011">
        <ele>1319</ele>
        <time>2025-03-30T06:29:01Z</time>
      </trkpt>
      <trkpt lat="45.66838" lon="6.54012">
        <ele>1320</ele>
        <time>2025-03-30T06:29:07Z</time>
      </trkpt>
      <trkpt lat="45.66828" lon="6.54023">
        <ele>1321</ele>
        <time>2025-03-30T06:29:20Z</time>
      </trkpt>
      <trkpt lat="45.66826" lon="6.54029">
        <ele>1321</ele>
        <time>2025-03-30T06:29:26Z</time>
      </trkpt>
      <trkpt lat="45.66824" lon="6.54035">
        <ele>1321</ele>
        <time>2025-03-30T06:29:32Z</time>
      </trkpt>
      <trkpt lat="45.66822" lon="6.54042">
        <ele>1322</ele>
        <time>2025-03-30T06:29:39Z</time>
      </trkpt>
      <trkpt lat="45.66821" lon="6.54048">
        <ele>1324</ele>
        <time>2025-03-30T06:29:45Z</time>
      </trkpt>
      <trkpt lat="45.66819" lon="6.54051">
        <ele>1324</ele>
        <time>2025-03-30T06:29:49Z</time>
      </trkpt>
      <trkpt lat="45.66816" lon="6.54048">
        <ele>1324</ele>
        <time>2025-03-30T06:29:58Z</time>
      </trkpt>
      <trkpt lat="45.66816" lon="6.54045">
        <ele>1324</ele>
        <time>2025-03-30T06:30:02Z</time>
      </trkpt>
      <trkpt lat="45.66813" lon="6.54041">
        <ele>1325</ele>
        <time>2025-03-30T06:30:09Z</time>
      </trkpt>
      <trkpt lat="45.66811" lon="6.54037">
        <ele>1325</ele>
        <time>2025-03-30T06:30:14Z</time>
      </trkpt>
      <trkpt lat="45.66809" lon="6.54032">
        <ele>1327</ele>
        <time>2025-03-30T06:30:20Z</time>
      </trkpt>
      <trkpt lat="45.66807" lon="6.54029">
        <ele>1328</ele>
        <time>2025-03-30T06:30:26Z</time>
      </trkpt>
      <trkpt lat="45.66806" lon="6.54026">
        <ele>1330</ele>
        <time>2025-03-30T06:30:30Z</time>
      </trkpt>
      <trkpt lat="45.66804" lon="6.54022">
        <ele>1331</ele>
        <time>2025-03-30T06:30:34Z</time>
      </trkpt>
      <trkpt lat="45.66802" lon="6.5402">
        <ele>1332</ele>
        <time>2025-03-30T06:30:40Z</time>
      </trkpt>
      <trkpt lat="45.66791" lon="6.54039">
        <ele>1332</ele>
        <time>2025-03-30T06:30:56Z</time>
      </trkpt>
      <trkpt lat="45.66788" lon="6.54042">
        <ele>1332</ele>
        <time>2025-03-30T06:31:01Z</time>
      </trkpt>
      <trkpt lat="45.66783" lon="6.54043">
        <ele>1334</ele>
        <time>2025-03-30T06:31:09Z</time>
      </trkpt>
      <trkpt lat="45.66781" lon="6.54043">
        <ele>1335</ele>
        <time>2025-03-30T06:31:13Z</time>
      </trkpt>
      <trkpt lat="45.66779" lon="6.54041">
        <ele>1335</ele>
        <time>2025-03-30T06:31:17Z</time>
      </trkpt>
      <trkpt lat="45.66776" lon="6.54044">
        <ele>1337</ele>
        <time>2025-03-30T06:31:23Z</time>
      </trkpt>
      <trkpt lat="45.66775" lon="6.54048">
        <ele>1338</ele>
        <time>2025-03-30T06:31:27Z</time>
      </trkpt>
      <trkpt lat="45.66773" lon="6.54059">
        <ele>1338</ele>
        <time>2025-03-30T06:31:37Z</time>
      </trkpt>
      <trkpt lat="45.66772" lon="6.54063">
        <ele>1339</ele>
        <time>2025-03-30T06:31:41Z</time>
      </trkpt>
      <trkpt lat="45.66771" lon="6.54069">
        <ele>1340</ele>
        <time>2025-03-30T06:31:46Z</time>
      </trkpt>
      <trkpt lat="45.66774" lon="6.54082">
        <ele>1344</ele>
        <time>2025-03-30T06:32:00Z</time>
      </trkpt>
      <trkpt lat="45.66774" lon="6.54091">
        <ele>1345</ele>
        <time>2025-03-30T06:32:08Z</time>
      </trkpt>
      <trkpt lat="45.66772" lon="6.54095">
        <ele>1345</ele>
        <time>2025-03-30T06:32:15Z</time>
      </trkpt>
      <trkpt lat="45.66766" lon="6.54099">
        <ele>1347</ele>
        <time>2025-03-30T06:32:28Z</time>
      </trkpt>
      <trkpt lat="45.66762" lon="6.54109">
        <ele>1349</ele>
        <time>2025-03-30T06:32:39Z</time>
      </trkpt>
      <trkpt lat="45.66754" lon="6.54114">
        <ele>1349</ele>
        <time>2025-03-30T06:32:55Z</time>
      </trkpt>
      <trkpt lat="45.66751" lon="6.54117">
        <ele>1349</ele>
        <time>2025-03-30T06:33:02Z</time>
      </trkpt>
      <trkpt lat="45.66748" lon="6.54127">
        <ele>1352</ele>
        <time>2025-03-30T06:33:11Z</time>
      </trkpt>
      <trkpt lat="45.66744" lon="6.5413">
        <ele>1353</ele>
        <time>2025-03-30T06:33:18Z</time>
      </trkpt>
      <trkpt lat="45.66742" lon="6.54133">
        <ele>1356</ele>
        <time>2025-03-30T06:33:24Z</time>
      </trkpt>
      <trkpt lat="45.66742" lon="6.54137">
        <ele>1357</ele>
        <time>2025-03-30T06:33:28Z</time>
      </trkpt>
      <trkpt lat="45.66743" lon="6.54144">
        <ele>1358</ele>
        <time>2025-03-30T06:33:36Z</time>
      </trkpt>
      <trkpt lat="45.66742" lon="6.54149">
        <ele>1358</ele>
        <time>2025-03-30T06:33:42Z</time>
      </trkpt>
      <trkpt lat="45.6674" lon="6.54154">
        <ele>1359</ele>
        <time>2025-03-30T06:33:47Z</time>
      </trkpt>
      <trkpt lat="45.66742" lon="6.54158">
        <ele>1360</ele>
        <time>2025-03-30T06:33:51Z</time>
      </trkpt>
      <trkpt lat="45.66743" lon="6.54162">
        <ele>1361</ele>
        <time>2025-03-30T06:33:56Z</time>
      </trkpt>
      <trkpt lat="45.66742" lon="6.54166">
        <ele>1362</ele>
        <time>2025-03-30T06:34:00Z</time>
      </trkpt>
      <trkpt lat="45.6674" lon="6.54173">
        <ele>1365</ele>
        <time>2025-03-30T06:34:09Z</time>
      </trkpt>
      <trkpt lat="45.66738" lon="6.54181">
        <ele>1366</ele>
        <time>2025-03-30T06:34:17Z</time>
      </trkpt>
      <trkpt lat="45.66736" lon="6.54183">
        <ele>1367</ele>
        <time>2025-03-30T06:34:21Z</time>
      </trkpt>
      <trkpt lat="45.66735" lon="6.54186">
        <ele>1367</ele>
        <time>2025-03-30T06:34:27Z</time>
      </trkpt>
      <trkpt lat="45.66731" lon="6.54188">
        <ele>1369</ele>
        <time>2025-03-30T06:34:34Z</time>
      </trkpt>
      <trkpt lat="45.66721" lon="6.54189">
        <ele>1370</ele>
        <time>2025-03-30T06:34:50Z</time>
      </trkpt>
      <trkpt lat="45.66709" lon="6.54184">
        <ele>1372</ele>
        <time>2025-03-30T06:35:08Z</time>
      </trkpt>
      <trkpt lat="45.667" lon="6.54175">
        <ele>1374</ele>
        <time>2025-03-30T06:35:24Z</time>
      </trkpt>
      <trkpt lat="45.66697" lon="6.54172">
        <ele>1375</ele>
        <time>2025-03-30T06:35:29Z</time>
      </trkpt>
      <trkpt lat="45.66695" lon="6.54169">
        <ele>1377</ele>
        <time>2025-03-30T06:35:33Z</time>
      </trkpt>
      <trkpt lat="45.66681" lon="6.54146">
        <ele>1382</ele>
        <time>2025-03-30T06:36:02Z</time>
      </trkpt>
      <trkpt lat="45.66679" lon="6.54144">
        <ele>1384</ele>
        <time>2025-03-30T06:36:05Z</time>
      </trkpt>
      <trkpt lat="45.66672" lon="6.54132">
        <ele>1386</ele>
        <time>2025-03-30T06:36:20Z</time>
      </trkpt>
      <trkpt lat="45.66669" lon="6.5413">
        <ele>1388</ele>
        <time>2025-03-30T06:36:25Z</time>
      </trkpt>
      <trkpt lat="45.66661" lon="6.54126">
        <ele>1389</ele>
        <time>2025-03-30T06:36:37Z</time>
      </trkpt>
      <trkpt lat="45.66657" lon="6.5412">
        <ele>1388</ele>
        <time>2025-03-30T06:36:43Z</time>
      </trkpt>
      <trkpt lat="45.66654" lon="6.54117">
        <ele>1390</ele>
        <time>2025-03-30T06:36:52Z</time>
      </trkpt>
      <trkpt lat="45.66648" lon="6.5411">
        <ele>1391</ele>
        <time>2025-03-30T06:37:02Z</time>
      </trkpt>
      <trkpt lat="45.66646" lon="6.54105">
        <ele>1392</ele>
        <time>2025-03-30T06:37:13Z</time>
      </trkpt>
      <trkpt lat="45.66638" lon="6.54097">
        <ele>1393</ele>
        <time>2025-03-30T06:37:23Z</time>
      </trkpt>
      <trkpt lat="45.66635" lon="6.54091">
        <ele>1393</ele>
        <time>2025-03-30T06:37:29Z</time>
      </trkpt>
      <trkpt lat="45.66632" lon="6.54088">
        <ele>1395</ele>
        <time>2025-03-30T06:37:33Z</time>
      </trkpt>
      <trkpt lat="45.66626" lon="6.54078">
        <ele>1396</ele>
        <time>2025-03-30T06:37:45Z</time>
      </trkpt>
      <trkpt lat="45.66624" lon="6.54072">
        <ele>1396</ele>
        <time>2025-03-30T06:37:49Z</time>
      </trkpt>
      <trkpt lat="45.66622" lon="6.54068">
        <ele>1396</ele>
        <time>2025-03-30T06:37:54Z</time>
      </trkpt>
      <trkpt lat="45.66621" lon="6.54062">
        <ele>1397</ele>
        <time>2025-03-30T06:38:00Z</time>
      </trkpt>
      <trkpt lat="45.6662" lon="6.54057">
        <ele>1398</ele>
        <time>2025-03-30T06:38:06Z</time>
      </trkpt>
      <trkpt lat="45.66619" lon="6.54052">
        <ele>1399</ele>
        <time>2025-03-30T06:38:12Z</time>
      </trkpt>
      <trkpt lat="45.66617" lon="6.54046">
        <ele>1399</ele>
        <time>2025-03-30T06:38:18Z</time>
      </trkpt>
      <trkpt lat="45.66615" lon="6.54041">
        <ele>1400</ele>
        <time>2025-03-30T06:38:25Z</time>
      </trkpt>
      <trkpt lat="45.66615" lon="6.54034">
        <ele>1401</ele>
        <time>2025-03-30T06:38:32Z</time>
      </trkpt>
      <trkpt lat="45.66612" lon="6.5403">
        <ele>1402</ele>
        <time>2025-03-30T06:38:41Z</time>
      </trkpt>
      <trkpt lat="45.66612" lon="6.54026">
        <ele>1403</ele>
        <time>2025-03-30T06:38:45Z</time>
      </trkpt>
      <trkpt lat="45.66611" lon="6.54021">
        <ele>1404</ele>
        <time>2025-03-30T06:38:49Z</time>
      </trkpt>
      <trkpt lat="45.66607" lon="6.54014">
        <ele>1405</ele>
        <time>2025-03-30T06:38:55Z</time>
      </trkpt>
      <trkpt lat="45.66605" lon="6.5401">
        <ele>1405</ele>
        <time>2025-03-30T06:38:59Z</time>
      </trkpt>
      <trkpt lat="45.66601" lon="6.54003">
        <ele>1406</ele>
        <time>2025-03-30T06:39:07Z</time>
      </trkpt>
      <trkpt lat="45.666" lon="6.54">
        <ele>1407</ele>
        <time>2025-03-30T06:39:10Z</time>
      </trkpt>
      <trkpt lat="45.66596" lon="6.53996">
        <ele>1407</ele>
        <time>2025-03-30T06:39:17Z</time>
      </trkpt>
      <trkpt lat="45.66593" lon="6.53988">
        <ele>1408</ele>
        <time>2025-03-30T06:39:26Z</time>
      </trkpt>
      <trkpt lat="45.66593" lon="6.53984">
        <ele>1409</ele>
        <time>2025-03-30T06:39:30Z</time>
      </trkpt>
      <trkpt lat="45.66593" lon="6.53981">
        <ele>1411</ele>
        <time>2025-03-30T06:39:34Z</time>
      </trkpt>
      <trkpt lat="45.66596" lon="6.53979">
        <ele>1412</ele>
        <time>2025-03-30T06:39:38Z</time>
      </trkpt>
      <trkpt lat="45.66598" lon="6.53979">
        <ele>1413</ele>
        <time>2025-03-30T06:39:42Z</time>
      </trkpt>
      <trkpt lat="45.66615" lon="6.53987">
        <ele>1416</ele>
        <time>2025-03-30T06:40:12Z</time>
      </trkpt>
      <trkpt lat="45.66624" lon="6.53993">
        <ele>1420</ele>
        <time>2025-03-30T06:40:26Z</time>
      </trkpt>
      <trkpt lat="45.6663" lon="6.53993">
        <ele>1421</ele>
        <time>2025-03-30T06:40:34Z</time>
      </trkpt>
      <trkpt lat="45.66634" lon="6.53991">
        <ele>1421</ele>
        <time>2025-03-30T06:40:38Z</time>
      </trkpt>
      <trkpt lat="45.66637" lon="6.5399">
        <ele>1422</ele>
        <time>2025-03-30T06:40:42Z</time>
      </trkpt>
      <trkpt lat="45.66653" lon="6.53967">
        <ele>1429</ele>
        <time>2025-03-30T06:41:15Z</time>
      </trkpt>
      <trkpt lat="45.66662" lon="6.53939">
        <ele>1435</ele>
        <time>2025-03-30T06:41:46Z</time>
      </trkpt>
      <trkpt lat="45.66664" lon="6.53922">
        <ele>1437</ele>
        <time>2025-03-30T06:42:04Z</time>
      </trkpt>
      <trkpt lat="45.66665" lon="6.53918">
        <ele>1439</ele>
        <time>2025-03-30T06:42:08Z</time>
      </trkpt>
      <trkpt lat="45.66666" lon="6.53907">
        <ele>1439</ele>
        <time>2025-03-30T06:42:18Z</time>
      </trkpt>
      <trkpt lat="45.66663" lon="6.53899">
        <ele>1441</ele>
        <time>2025-03-30T06:42:27Z</time>
      </trkpt>
      <trkpt lat="45.66663" lon="6.53896">
        <ele>1441</ele>
        <time>2025-03-30T06:42:30Z</time>
      </trkpt>
      <trkpt lat="45.66663" lon="6.53892">
        <ele>1441</ele>
        <time>2025-03-30T06:42:34Z</time>
      </trkpt>
      <trkpt lat="45.66663" lon="6.53888">
        <ele>1442</ele>
        <time>2025-03-30T06:42:38Z</time>
      </trkpt>
      <trkpt lat="45.66666" lon="6.53857">
        <ele>1444</ele>
        <time>2025-03-30T06:43:08Z</time>
      </trkpt>
      <trkpt lat="45.66664" lon="6.53854">
        <ele>1444</ele>
        <time>2025-03-30T06:43:12Z</time>
      </trkpt>
      <trkpt lat="45.66661" lon="6.53852">
        <ele>1443</ele>
        <time>2025-03-30T06:43:17Z</time>
      </trkpt>
      <trkpt lat="45.66655" lon="6.53854">
        <ele>1443</ele>
        <time>2025-03-30T06:43:25Z</time>
      </trkpt>
      <trkpt lat="45.66651" lon="6.53855">
        <ele>1443</ele>
        <time>2025-03-30T06:43:31Z</time>
      </trkpt>
      <trkpt lat="45.66645" lon="6.53856">
        <ele>1444</ele>
        <time>2025-03-30T06:43:39Z</time>
      </trkpt>
      <trkpt lat="45.6664" lon="6.53861">
        <ele>1445</ele>
        <time>2025-03-30T06:43:48Z</time>
      </trkpt>
      <trkpt lat="45.66636" lon="6.53868">
        <ele>1446</ele>
        <time>2025-03-30T06:43:57Z</time>
      </trkpt>
      <trkpt lat="45.66626" lon="6.53868">
        <ele>1448</ele>
        <time>2025-03-30T06:44:14Z</time>
      </trkpt>
      <trkpt lat="45.66627" lon="6.53859">
        <ele>1453</ele>
        <time>2025-03-30T06:44:24Z</time>
      </trkpt>
      <trkpt lat="45.66629" lon="6.53853">
        <ele>1456</ele>
        <time>2025-03-30T06:44:31Z</time>
      </trkpt>
      <trkpt lat="45.66626" lon="6.53852">
        <ele>1457</ele>
        <time>2025-03-30T06:44:37Z</time>
      </trkpt>
      <trkpt lat="45.66623" lon="6.53851">
        <ele>1458</ele>
        <time>2025-03-30T06:44:42Z</time>
      </trkpt>
      <trkpt lat="45.6662" lon="6.53851">
        <ele>1459</ele>
        <time>2025-03-30T06:44:47Z</time>
      </trkpt>
      <trkpt lat="45.66621" lon="6.53847">
        <ele>1459</ele>
        <time>2025-03-30T06:44:52Z</time>
      </trkpt>
      <trkpt lat="45.66624" lon="6.5384">
        <ele>1463</ele>
        <time>2025-03-30T06:45:00Z</time>
      </trkpt>
      <trkpt lat="45.66625" lon="6.53835">
        <ele>1464</ele>
        <time>2025-03-30T06:45:06Z</time>
      </trkpt>
      <trkpt lat="45.66624" lon="6.53831">
        <ele>1465</ele>
        <time>2025-03-30T06:45:12Z</time>
      </trkpt>
      <trkpt lat="45.66612" lon="6.53826">
        <ele>1464</ele>
        <time>2025-03-30T06:45:33Z</time>
      </trkpt>
      <trkpt lat="45.66611" lon="6.53822">
        <ele>1465</ele>
        <time>2025-03-30T06:45:37Z</time>
      </trkpt>
      <trkpt lat="45.66611" lon="6.53818">
        <ele>1466</ele>
        <time>2025-03-30T06:45:41Z</time>
      </trkpt>
      <trkpt lat="45.66612" lon="6.53813">
        <ele>1467</ele>
        <time>2025-03-30T06:45:45Z</time>
      </trkpt>
      <trkpt lat="45.66616" lon="6.53793">
        <ele>1472</ele>
        <time>2025-03-30T06:46:05Z</time>
      </trkpt>
      <trkpt lat="45.66613" lon="6.53791">
        <ele>1473</ele>
        <time>2025-03-30T06:46:11Z</time>
      </trkpt>
      <trkpt lat="45.66607" lon="6.53791">
        <ele>1474</ele>
        <time>2025-03-30T06:46:19Z</time>
      </trkpt>
      <trkpt lat="45.66603" lon="6.53796">
        <ele>1474</ele>
        <time>2025-03-30T06:46:26Z</time>
      </trkpt>
      <trkpt lat="45.66601" lon="6.53797">
        <ele>1473</ele>
        <time>2025-03-30T06:46:30Z</time>
      </trkpt>
      <trkpt lat="45.66587" lon="6.53806">
        <ele>1470</ele>
        <time>2025-03-30T06:46:55Z</time>
      </trkpt>
      <trkpt lat="45.66585" lon="6.53803">
        <ele>1470</ele>
        <time>2025-03-30T06:47:00Z</time>
      </trkpt>
      <trkpt lat="45.66583" lon="6.53791">
        <ele>1472</ele>
        <time>2025-03-30T06:47:13Z</time>
      </trkpt>
      <trkpt lat="45.66576" lon="6.53795">
        <ele>1474</ele>
        <time>2025-03-30T06:47:25Z</time>
      </trkpt>
      <trkpt lat="45.66574" lon="6.53797">
        <ele>1475</ele>
        <time>2025-03-30T06:47:29Z</time>
      </trkpt>
      <trkpt lat="45.66572" lon="6.53797">
        <ele>1475</ele>
        <time>2025-03-30T06:47:33Z</time>
      </trkpt>
      <trkpt lat="45.66569" lon="6.53784">
        <ele>1478</ele>
        <time>2025-03-30T06:47:46Z</time>
      </trkpt>
      <trkpt lat="45.66566" lon="6.53774">
        <ele>1480</ele>
        <time>2025-03-30T06:47:57Z</time>
      </trkpt>
      <trkpt lat="45.66566" lon="6.5377">
        <ele>1479</ele>
        <time>2025-03-30T06:48:01Z</time>
      </trkpt>
      <trkpt lat="45.66565" lon="6.53767">
        <ele>1480</ele>
        <time>2025-03-30T06:48:05Z</time>
      </trkpt>
      <trkpt lat="45.66564" lon="6.53759">
        <ele>1483</ele>
        <time>2025-03-30T06:48:13Z</time>
      </trkpt>
      <trkpt lat="45.66561" lon="6.53759">
        <ele>1484</ele>
        <time>2025-03-30T06:48:19Z</time>
      </trkpt>
      <trkpt lat="45.66558" lon="6.53762">
        <ele>1484</ele>
        <time>2025-03-30T06:48:24Z</time>
      </trkpt>
      <trkpt lat="45.66551" lon="6.53772">
        <ele>1487</ele>
        <time>2025-03-30T06:48:39Z</time>
      </trkpt>
      <trkpt lat="45.66549" lon="6.53775">
        <ele>1488</ele>
        <time>2025-03-30T06:48:44Z</time>
      </trkpt>
      <trkpt lat="45.66546" lon="6.53773">
        <ele>1489</ele>
        <time>2025-03-30T06:48:50Z</time>
      </trkpt>
      <trkpt lat="45.66545" lon="6.53766">
        <ele>1491</ele>
        <time>2025-03-30T06:48:58Z</time>
      </trkpt>
      <trkpt lat="45.66544" lon="6.53763">
        <ele>1491</ele>
        <time>2025-03-30T06:49:02Z</time>
      </trkpt>
      <trkpt lat="45.66544" lon="6.53749">
        <ele>1496</ele>
        <time>2025-03-30T06:49:15Z</time>
      </trkpt>
      <trkpt lat="45.66545" lon="6.53746">
        <ele>1497</ele>
        <time>2025-03-30T06:49:18Z</time>
      </trkpt>
      <trkpt lat="45.66542" lon="6.53746">
        <ele>1497</ele>
        <time>2025-03-30T06:49:22Z</time>
      </trkpt>
      <trkpt lat="45.66536" lon="6.53751">
        <ele>1498</ele>
        <time>2025-03-30T06:49:31Z</time>
      </trkpt>
      <trkpt lat="45.66532" lon="6.53753">
        <ele>1498</ele>
        <time>2025-03-30T06:49:39Z</time>
      </trkpt>
      <trkpt lat="45.66529" lon="6.53753">
        <ele>1497</ele>
        <time>2025-03-30T06:49:45Z</time>
      </trkpt>
      <trkpt lat="45.66528" lon="6.53748">
        <ele>1498</ele>
        <time>2025-03-30T06:49:49Z</time>
      </trkpt>
      <trkpt lat="45.66528" lon="6.53741">
        <ele>1500</ele>
        <time>2025-03-30T06:49:56Z</time>
      </trkpt>
      <trkpt lat="45.66539" lon="6.53713">
        <ele>1509</ele>
        <time>2025-03-30T06:50:31Z</time>
      </trkpt>
      <trkpt lat="45.66543" lon="6.53703">
        <ele>1512</ele>
        <time>2025-03-30T06:50:45Z</time>
      </trkpt>
      <trkpt lat="45.66547" lon="6.53693">
        <ele>1514</ele>
        <time>2025-03-30T06:51:00Z</time>
      </trkpt>
      <trkpt lat="45.66551" lon="6.53685">
        <ele>1515</ele>
        <time>2025-03-30T06:51:11Z</time>
      </trkpt>
      <trkpt lat="45.66553" lon="6.53681">
        <ele>1516</ele>
        <time>2025-03-30T06:51:17Z</time>
      </trkpt>
      <trkpt lat="45.66544" lon="6.53679">
        <ele>1514</ele>
        <time>2025-03-30T06:51:48Z</time>
      </trkpt>
      <trkpt lat="45.6654" lon="6.53679">
        <ele>1515</ele>
        <time>2025-03-30T06:51:53Z</time>
      </trkpt>
      <trkpt lat="45.66537" lon="6.53679">
        <ele>1515</ele>
        <time>2025-03-30T06:51:59Z</time>
      </trkpt>
      <trkpt lat="45.66535" lon="6.53677">
        <ele>1515</ele>
        <time>2025-03-30T06:52:05Z</time>
      </trkpt>
      <trkpt lat="45.66535" lon="6.53672">
        <ele>1517</ele>
        <time>2025-03-30T06:52:09Z</time>
      </trkpt>
      <trkpt lat="45.66534" lon="6.53667">
        <ele>1518</ele>
        <time>2025-03-30T06:52:13Z</time>
      </trkpt>
      <trkpt lat="45.66531" lon="6.53666">
        <ele>1519</ele>
        <time>2025-03-30T06:52:18Z</time>
      </trkpt>
      <trkpt lat="45.66526" lon="6.53668">
        <ele>1519</ele>
        <time>2025-03-30T06:52:25Z</time>
      </trkpt>
      <trkpt lat="45.66523" lon="6.53667">
        <ele>1518</ele>
        <time>2025-03-30T06:52:31Z</time>
      </trkpt>
      <trkpt lat="45.6652" lon="6.53668">
        <ele>1519</ele>
        <time>2025-03-30T06:52:36Z</time>
      </trkpt>
      <trkpt lat="45.66516" lon="6.5367">
        <ele>1519</ele>
        <time>2025-03-30T06:52:42Z</time>
      </trkpt>
      <trkpt lat="45.66508" lon="6.53672">
        <ele>1519</ele>
        <time>2025-03-30T06:52:56Z</time>
      </trkpt>
      <trkpt lat="45.66506" lon="6.53671">
        <ele>1521</ele>
        <time>2025-03-30T06:53:04Z</time>
      </trkpt>
      <trkpt lat="45.66505" lon="6.53667">
        <ele>1523</ele>
        <time>2025-03-30T06:53:08Z</time>
      </trkpt>
      <trkpt lat="45.66506" lon="6.53663">
        <ele>1525</ele>
        <time>2025-03-30T06:53:12Z</time>
      </trkpt>
      <trkpt lat="45.66507" lon="6.53658">
        <ele>1527</ele>
        <time>2025-03-30T06:53:17Z</time>
      </trkpt>
      <trkpt lat="45.66508" lon="6.53654">
        <ele>1528</ele>
        <time>2025-03-30T06:53:21Z</time>
      </trkpt>
      <trkpt lat="45.66509" lon="6.53648">
        <ele>1532</ele>
        <time>2025-03-30T06:53:30Z</time>
      </trkpt>
      <trkpt lat="45.66511" lon="6.5364">
        <ele>1535</ele>
        <time>2025-03-30T06:53:40Z</time>
      </trkpt>
      <trkpt lat="45.66509" lon="6.53639">
        <ele>1536</ele>
        <time>2025-03-30T06:53:45Z</time>
      </trkpt>
      <trkpt lat="45.66489" lon="6.53646">
        <ele>1536</ele>
        <time>2025-03-30T06:54:18Z</time>
      </trkpt>
      <trkpt lat="45.66484" lon="6.5365">
        <ele>1536</ele>
        <time>2025-03-30T06:54:26Z</time>
      </trkpt>
      <trkpt lat="45.6648" lon="6.53655">
        <ele>1537</ele>
        <time>2025-03-30T06:54:34Z</time>
      </trkpt>
      <trkpt lat="45.66477" lon="6.53659">
        <ele>1537</ele>
        <time>2025-03-30T06:54:39Z</time>
      </trkpt>
      <trkpt lat="45.66475" lon="6.53659">
        <ele>1538</ele>
        <time>2025-03-30T06:54:43Z</time>
      </trkpt>
      <trkpt lat="45.66472" lon="6.53651">
        <ele>1540</ele>
        <time>2025-03-30T06:54:55Z</time>
      </trkpt>
      <trkpt lat="45.66467" lon="6.53649">
        <ele>1541</ele>
        <time>2025-03-30T06:55:03Z</time>
      </trkpt>
      <trkpt lat="45.66464" lon="6.5365">
        <ele>1541</ele>
        <time>2025-03-30T06:55:07Z</time>
      </trkpt>
      <trkpt lat="45.66464" lon="6.53646">
        <ele>1544</ele>
        <time>2025-03-30T06:57:26Z</time>
      </trkpt>
      <trkpt lat="45.66465" lon="6.53637">
        <ele>1547</ele>
        <time>2025-03-30T06:57:37Z</time>
      </trkpt>
      <trkpt lat="45.66463" lon="6.53635">
        <ele>1549</ele>
        <time>2025-03-30T06:57:51Z</time>
      </trkpt>
      <trkpt lat="45.6646" lon="6.53633">
        <ele>1549</ele>
        <time>2025-03-30T06:58:29Z</time>
      </trkpt>
      <trkpt lat="45.66443" lon="6.53626">
        <ele>1550</ele>
        <time>2025-03-30T06:58:57Z</time>
      </trkpt>
      <trkpt lat="45.66439" lon="6.53623">
        <ele>1550</ele>
        <time>2025-03-30T06:59:06Z</time>
      </trkpt>
      <trkpt lat="45.66436" lon="6.53623">
        <ele>1550</ele>
        <time>2025-03-30T06:59:10Z</time>
      </trkpt>
      <trkpt lat="45.66432" lon="6.53623">
        <ele>1551</ele>
        <time>2025-03-30T06:59:17Z</time>
      </trkpt>
      <trkpt lat="45.66431" lon="6.53618">
        <ele>1554</ele>
        <time>2025-03-30T06:59:33Z</time>
      </trkpt>
      <trkpt lat="45.66432" lon="6.53611">
        <ele>1558</ele>
        <time>2025-03-30T06:59:41Z</time>
      </trkpt>
      <trkpt lat="45.66435" lon="6.53608">
        <ele>1561</ele>
        <time>2025-03-30T06:59:47Z</time>
      </trkpt>
      <trkpt lat="45.66437" lon="6.53603">
        <ele>1562</ele>
        <time>2025-03-30T06:59:53Z</time>
      </trkpt>
      <trkpt lat="45.66436" lon="6.536">
        <ele>1564</ele>
        <time>2025-03-30T06:59:58Z</time>
      </trkpt>
      <trkpt lat="45.66426" lon="6.53601">
        <ele>1562</ele>
        <time>2025-03-30T07:00:12Z</time>
      </trkpt>
      <trkpt lat="45.66416" lon="6.53595">
        <ele>1563</ele>
        <time>2025-03-30T07:00:30Z</time>
      </trkpt>
      <trkpt lat="45.66414" lon="6.53593">
        <ele>1564</ele>
        <time>2025-03-30T07:00:36Z</time>
      </trkpt>
      <trkpt lat="45.66408" lon="6.5359">
        <ele>1565</ele>
        <time>2025-03-30T07:00:47Z</time>
      </trkpt>
      <trkpt lat="45.66406" lon="6.53588">
        <ele>1565</ele>
        <time>2025-03-30T07:00:57Z</time>
      </trkpt>
      <trkpt lat="45.66411" lon="6.53584">
        <ele>1566</ele>
        <time>2025-03-30T07:01:07Z</time>
      </trkpt>
      <trkpt lat="45.66413" lon="6.53583">
        <ele>1568</ele>
        <time>2025-03-30T07:01:11Z</time>
      </trkpt>
      <trkpt lat="45.66415" lon="6.5358">
        <ele>1571</ele>
        <time>2025-03-30T07:01:17Z</time>
      </trkpt>
      <trkpt lat="45.66414" lon="6.53576">
        <ele>1572</ele>
        <time>2025-03-30T07:01:26Z</time>
      </trkpt>
      <trkpt lat="45.66411" lon="6.53576">
        <ele>1572</ele>
        <time>2025-03-30T07:01:32Z</time>
      </trkpt>
      <trkpt lat="45.66409" lon="6.53573">
        <ele>1573</ele>
        <time>2025-03-30T07:01:39Z</time>
      </trkpt>
      <trkpt lat="45.66406" lon="6.5357">
        <ele>1574</ele>
        <time>2025-03-30T07:01:48Z</time>
      </trkpt>
      <trkpt lat="45.66396" lon="6.53568">
        <ele>1576</ele>
        <time>2025-03-30T07:02:06Z</time>
      </trkpt>
      <trkpt lat="45.66385" lon="6.53572">
        <ele>1579</ele>
        <time>2025-03-30T07:02:22Z</time>
      </trkpt>
      <trkpt lat="45.66381" lon="6.53573">
        <ele>1581</ele>
        <time>2025-03-30T07:02:29Z</time>
      </trkpt>
      <trkpt lat="45.66378" lon="6.53574">
        <ele>1582</ele>
        <time>2025-03-30T07:02:35Z</time>
      </trkpt>
      <trkpt lat="45.66375" lon="6.53576">
        <ele>1583</ele>
        <time>2025-03-30T07:02:39Z</time>
      </trkpt>
      <trkpt lat="45.66372" lon="6.53578">
        <ele>1584</ele>
        <time>2025-03-30T07:02:45Z</time>
      </trkpt>
      <trkpt lat="45.6637" lon="6.53579">
        <ele>1585</ele>
        <time>2025-03-30T07:02:55Z</time>
      </trkpt>
      <trkpt lat="45.66367" lon="6.5358">
        <ele>1586</ele>
        <time>2025-03-30T07:03:00Z</time>
      </trkpt>
      <trkpt lat="45.66367" lon="6.53576">
        <ele>1588</ele>
        <time>2025-03-30T07:03:11Z</time>
      </trkpt>
      <trkpt lat="45.66367" lon="6.53571">
        <ele>1589</ele>
        <time>2025-03-30T07:03:16Z</time>
      </trkpt>
      <trkpt lat="45.66366" lon="6.53568">
        <ele>1590</ele>
        <time>2025-03-30T07:03:20Z</time>
      </trkpt>
      <trkpt lat="45.66361" lon="6.53561">
        <ele>1591</ele>
        <time>2025-03-30T07:03:30Z</time>
      </trkpt>
      <trkpt lat="45.66359" lon="6.53556">
        <ele>1591</ele>
        <time>2025-03-30T07:03:36Z</time>
      </trkpt>
      <trkpt lat="45.66357" lon="6.53553">
        <ele>1592</ele>
        <time>2025-03-30T07:03:42Z</time>
      </trkpt>
      <trkpt lat="45.66357" lon="6.5355">
        <ele>1593</ele>
        <time>2025-03-30T07:03:47Z</time>
      </trkpt>
      <trkpt lat="45.66357" lon="6.53545">
        <ele>1594</ele>
        <time>2025-03-30T07:03:52Z</time>
      </trkpt>
      <trkpt lat="45.66356" lon="6.53542">
        <ele>1595</ele>
        <time>2025-03-30T07:03:58Z</time>
      </trkpt>
      <trkpt lat="45.6635" lon="6.53554">
        <ele>1594</ele>
        <time>2025-03-30T07:04:11Z</time>
      </trkpt>
      <trkpt lat="45.66349" lon="6.53558">
        <ele>1593</ele>
        <time>2025-03-30T07:04:17Z</time>
      </trkpt>
      <trkpt lat="45.66343" lon="6.53566">
        <ele>1594</ele>
        <time>2025-03-30T07:04:30Z</time>
      </trkpt>
      <trkpt lat="45.66336" lon="6.53576">
        <ele>1596</ele>
        <time>2025-03-30T07:04:48Z</time>
      </trkpt>
      <trkpt lat="45.66331" lon="6.53584">
        <ele>1598</ele>
        <time>2025-03-30T07:05:03Z</time>
      </trkpt>
      <trkpt lat="45.66328" lon="6.53586">
        <ele>1598</ele>
        <time>2025-03-30T07:05:13Z</time>
      </trkpt>
      <trkpt lat="45.66327" lon="6.53561">
        <ele>1607</ele>
        <time>2025-03-30T07:05:40Z</time>
      </trkpt>
      <trkpt lat="45.66327" lon="6.53558">
        <ele>1608</ele>
        <time>2025-03-30T07:05:44Z</time>
      </trkpt>
      <trkpt lat="45.66326" lon="6.53554">
        <ele>1609</ele>
        <time>2025-03-30T07:05:50Z</time>
      </trkpt>
      <trkpt lat="45.66327" lon="6.53538">
        <ele>1615</ele>
        <time>2025-03-30T07:06:09Z</time>
      </trkpt>
      <trkpt lat="45.66327" lon="6.53535">
        <ele>1615</ele>
        <time>2025-03-30T07:06:14Z</time>
      </trkpt>
      <trkpt lat="45.66327" lon="6.53533">
        <ele>1615</ele>
        <time>2025-03-30T07:06:16Z</time>
      </trkpt>
      <trkpt lat="45.66311" lon="6.53548">
        <ele>1614</ele>
        <time>2025-03-30T07:06:49Z</time>
      </trkpt>
      <trkpt lat="45.66312" lon="6.5353">
        <ele>1620</ele>
        <time>2025-03-30T07:07:19Z</time>
      </trkpt>
      <trkpt lat="45.66311" lon="6.53526">
        <ele>1621</ele>
        <time>2025-03-30T07:07:23Z</time>
      </trkpt>
      <trkpt lat="45.66312" lon="6.53522">
        <ele>1622</ele>
        <time>2025-03-30T07:07:27Z</time>
      </trkpt>
      <trkpt lat="45.66313" lon="6.53514">
        <ele>1623</ele>
        <time>2025-03-30T07:07:35Z</time>
      </trkpt>
      <trkpt lat="45.66312" lon="6.5351">
        <ele>1624</ele>
        <time>2025-03-30T07:07:40Z</time>
      </trkpt>
      <trkpt lat="45.66311" lon="6.53505">
        <ele>1624</ele>
        <time>2025-03-30T07:07:45Z</time>
      </trkpt>
      <trkpt lat="45.66307" lon="6.53507">
        <ele>1624</ele>
        <time>2025-03-30T07:07:51Z</time>
      </trkpt>
      <trkpt lat="45.66301" lon="6.53516">
        <ele>1624</ele>
        <time>2025-03-30T07:08:02Z</time>
      </trkpt>
      <trkpt lat="45.66299" lon="6.5352">
        <ele>1625</ele>
        <time>2025-03-30T07:08:08Z</time>
      </trkpt>
      <trkpt lat="45.66298" lon="6.53523">
        <ele>1626</ele>
        <time>2025-03-30T07:08:12Z</time>
      </trkpt>
      <trkpt lat="45.66293" lon="6.53536">
        <ele>1629</ele>
        <time>2025-03-30T07:08:28Z</time>
      </trkpt>
      <trkpt lat="45.66292" lon="6.5354">
        <ele>1630</ele>
        <time>2025-03-30T07:08:33Z</time>
      </trkpt>
      <trkpt lat="45.6629" lon="6.53524">
        <ele>1633</ele>
        <time>2025-03-30T07:09:04Z</time>
      </trkpt>
      <trkpt lat="45.66289" lon="6.53515">
        <ele>1635</ele>
        <time>2025-03-30T07:09:15Z</time>
      </trkpt>
      <trkpt lat="45.66289" lon="6.53508">
        <ele>1637</ele>
        <time>2025-03-30T07:09:22Z</time>
      </trkpt>
      <trkpt lat="45.66286" lon="6.53497">
        <ele>1638</ele>
        <time>2025-03-30T07:09:35Z</time>
      </trkpt>
      <trkpt lat="45.66284" lon="6.5348">
        <ele>1641</ele>
        <time>2025-03-30T07:09:54Z</time>
      </trkpt>
      <trkpt lat="45.66283" lon="6.53476">
        <ele>1642</ele>
        <time>2025-03-30T07:09:58Z</time>
      </trkpt>
      <trkpt lat="45.66282" lon="6.53467">
        <ele>1644</ele>
        <time>2025-03-30T07:10:09Z</time>
      </trkpt>
      <trkpt lat="45.66281" lon="6.53463">
        <ele>1644</ele>
        <time>2025-03-30T07:10:16Z</time>
      </trkpt>
      <trkpt lat="45.66279" lon="6.53461">
        <ele>1645</ele>
        <time>2025-03-30T07:10:20Z</time>
      </trkpt>
      <trkpt lat="45.66277" lon="6.53465">
        <ele>1645</ele>
        <time>2025-03-30T07:10:50Z</time>
      </trkpt>
      <trkpt lat="45.66275" lon="6.53467">
        <ele>1646</ele>
        <time>2025-03-30T07:10:54Z</time>
      </trkpt>
      <trkpt lat="45.66273" lon="6.5347">
        <ele>1648</ele>
        <time>2025-03-30T07:11:51Z</time>
      </trkpt>
      <trkpt lat="45.66271" lon="6.53471">
        <ele>1648</ele>
        <time>2025-03-30T07:11:55Z</time>
      </trkpt>
      <trkpt lat="45.66264" lon="6.53491">
        <ele>1651</ele>
        <time>2025-03-30T07:12:15Z</time>
      </trkpt>
      <trkpt lat="45.66263" lon="6.53496">
        <ele>1651</ele>
        <time>2025-03-30T07:12:19Z</time>
      </trkpt>
      <trkpt lat="45.66255" lon="6.53521">
        <ele>1656</ele>
        <time>2025-03-30T07:12:49Z</time>
      </trkpt>
      <trkpt lat="45.66244" lon="6.53543">
        <ele>1658</ele>
        <time>2025-03-30T07:13:20Z</time>
      </trkpt>
      <trkpt lat="45.66241" lon="6.53541">
        <ele>1659</ele>
        <time>2025-03-30T07:13:30Z</time>
      </trkpt>
      <trkpt lat="45.66239" lon="6.53545">
        <ele>1660</ele>
        <time>2025-03-30T07:13:36Z</time>
      </trkpt>
      <trkpt lat="45.66237" lon="6.53548">
        <ele>1661</ele>
        <time>2025-03-30T07:13:40Z</time>
      </trkpt>
      <trkpt lat="45.66235" lon="6.53551">
        <ele>1662</ele>
        <time>2025-03-30T07:13:44Z</time>
      </trkpt>
      <trkpt lat="45.66233" lon="6.53557">
        <ele>1664</ele>
        <time>2025-03-30T07:13:52Z</time>
      </trkpt>
      <trkpt lat="45.66233" lon="6.53555">
        <ele>1664</ele>
        <time>2025-03-30T07:13:58Z</time>
      </trkpt>
      <trkpt lat="45.6623" lon="6.53557">
        <ele>1665</ele>
        <time>2025-03-30T07:14:09Z</time>
      </trkpt>
      <trkpt lat="45.66227" lon="6.53565">
        <ele>1667</ele>
        <time>2025-03-30T07:14:20Z</time>
      </trkpt>
      <trkpt lat="45.66225" lon="6.53561">
        <ele>1669</ele>
        <time>2025-03-30T07:15:18Z</time>
      </trkpt>
      <trkpt lat="45.66209" lon="6.53552">
        <ele>1672</ele>
        <time>2025-03-30T07:15:35Z</time>
      </trkpt>
      <trkpt lat="45.66206" lon="6.53548">
        <ele>1672</ele>
        <time>2025-03-30T07:15:39Z</time>
      </trkpt>
      <trkpt lat="45.66206" lon="6.53543">
        <ele>1672</ele>
        <time>2025-03-30T07:15:43Z</time>
      </trkpt>
      <trkpt lat="45.66207" lon="6.53531">
        <ele>1673</ele>
        <time>2025-03-30T07:15:51Z</time>
      </trkpt>
      <trkpt lat="45.66208" lon="6.53526">
        <ele>1674</ele>
        <time>2025-03-30T07:15:55Z</time>
      </trkpt>
      <trkpt lat="45.66209" lon="6.53521">
        <ele>1674</ele>
        <time>2025-03-30T07:15:59Z</time>
      </trkpt>
      <trkpt lat="45.66208" lon="6.5351">
        <ele>1677</ele>
        <time>2025-03-30T07:16:08Z</time>
      </trkpt>
      <trkpt lat="45.66206" lon="6.53505">
        <ele>1677</ele>
        <time>2025-03-30T07:16:12Z</time>
      </trkpt>
      <trkpt lat="45.66205" lon="6.535">
        <ele>1677</ele>
        <time>2025-03-30T07:16:17Z</time>
      </trkpt>
      <trkpt lat="45.66202" lon="6.53495">
        <ele>1678</ele>
        <time>2025-03-30T07:16:22Z</time>
      </trkpt>
      <trkpt lat="45.66197" lon="6.53492">
        <ele>1678</ele>
        <time>2025-03-30T07:16:26Z</time>
      </trkpt>
      <trkpt lat="45.66192" lon="6.53484">
        <ele>1677</ele>
        <time>2025-03-30T07:16:34Z</time>
      </trkpt>
      <trkpt lat="45.66177" lon="6.53472">
        <ele>1676</ele>
        <time>2025-03-30T07:17:00Z</time>
      </trkpt>
      <trkpt lat="45.66173" lon="6.53469">
        <ele>1676</ele>
        <time>2025-03-30T07:17:06Z</time>
      </trkpt>
      <trkpt lat="45.66167" lon="6.53465">
        <ele>1676</ele>
        <time>2025-03-30T07:17:13Z</time>
      </trkpt>
      <trkpt lat="45.66162" lon="6.53464">
        <ele>1678</ele>
        <time>2025-03-30T07:17:19Z</time>
      </trkpt>
      <trkpt lat="45.66158" lon="6.53462">
        <ele>1678</ele>
        <time>2025-03-30T07:17:25Z</time>
      </trkpt>
      <trkpt lat="45.66152" lon="6.53459">
        <ele>1680</ele>
        <time>2025-03-30T07:17:37Z</time>
      </trkpt>
      <trkpt lat="45.66148" lon="6.5346">
        <ele>1682</ele>
        <time>2025-03-30T07:17:48Z</time>
      </trkpt>
      <trkpt lat="45.66142" lon="6.53459">
        <ele>1685</ele>
        <time>2025-03-30T07:17:59Z</time>
      </trkpt>
      <trkpt lat="45.66138" lon="6.53462">
        <ele>1685</ele>
        <time>2025-03-30T07:18:11Z</time>
      </trkpt>
      <trkpt lat="45.66133" lon="6.53463">
        <ele>1687</ele>
        <time>2025-03-30T07:18:21Z</time>
      </trkpt>
      <trkpt lat="45.66128" lon="6.53461">
        <ele>1688</ele>
        <time>2025-03-30T07:18:26Z</time>
      </trkpt>
      <trkpt lat="45.66125" lon="6.53458">
        <ele>1689</ele>
        <time>2025-03-30T07:18:31Z</time>
      </trkpt>
      <trkpt lat="45.6612" lon="6.53454">
        <ele>1690</ele>
        <time>2025-03-30T07:18:37Z</time>
      </trkpt>
      <trkpt lat="45.66116" lon="6.5345">
        <ele>1692</ele>
        <time>2025-03-30T07:18:46Z</time>
      </trkpt>
      <trkpt lat="45.66103" lon="6.53444">
        <ele>1696</ele>
        <time>2025-03-30T07:19:12Z</time>
      </trkpt>
      <trkpt lat="45.66077" lon="6.53421">
        <ele>1700</ele>
        <time>2025-03-30T07:19:43Z</time>
      </trkpt>
      <trkpt lat="45.66073" lon="6.53418">
        <ele>1700</ele>
        <time>2025-03-30T07:19:49Z</time>
      </trkpt>
      <trkpt lat="45.66063" lon="6.53414">
        <ele>1699</ele>
        <time>2025-03-30T07:20:03Z</time>
      </trkpt>
      <trkpt lat="45.66057" lon="6.5341">
        <ele>1699</ele>
        <time>2025-03-30T07:20:12Z</time>
      </trkpt>
      <trkpt lat="45.66051" lon="6.5341">
        <ele>1700</ele>
        <time>2025-03-30T07:20:20Z</time>
      </trkpt>
      <trkpt lat="45.66049" lon="6.53405">
        <ele>1701</ele>
        <time>2025-03-30T07:20:26Z</time>
      </trkpt>
      <trkpt lat="45.66044" lon="6.53395">
        <ele>1703</ele>
        <time>2025-03-30T07:20:38Z</time>
      </trkpt>
      <trkpt lat="45.66039" lon="6.53393">
        <ele>1705</ele>
        <time>2025-03-30T07:20:45Z</time>
      </trkpt>
      <trkpt lat="45.66035" lon="6.53392">
        <ele>1706</ele>
        <time>2025-03-30T07:20:50Z</time>
      </trkpt>
      <trkpt lat="45.66031" lon="6.5339">
        <ele>1708</ele>
        <time>2025-03-30T07:20:57Z</time>
      </trkpt>
      <trkpt lat="45.66029" lon="6.53384">
        <ele>1709</ele>
        <time>2025-03-30T07:21:03Z</time>
      </trkpt>
      <trkpt lat="45.66025" lon="6.53381">
        <ele>1710</ele>
        <time>2025-03-30T07:21:09Z</time>
      </trkpt>
      <trkpt lat="45.66021" lon="6.53377">
        <ele>1711</ele>
        <time>2025-03-30T07:21:17Z</time>
      </trkpt>
      <trkpt lat="45.66017" lon="6.53375">
        <ele>1713</ele>
        <time>2025-03-30T07:21:23Z</time>
      </trkpt>
      <trkpt lat="45.66012" lon="6.53375">
        <ele>1713</ele>
        <time>2025-03-30T07:21:28Z</time>
      </trkpt>
      <trkpt lat="45.66008" lon="6.53373">
        <ele>1716</ele>
        <time>2025-03-30T07:21:37Z</time>
      </trkpt>
      <trkpt lat="45.66003" lon="6.53372">
        <ele>1717</ele>
        <time>2025-03-30T07:21:44Z</time>
      </trkpt>
      <trkpt lat="45.65995" lon="6.53364">
        <ele>1719</ele>
        <time>2025-03-30T07:21:58Z</time>
      </trkpt>
      <trkpt lat="45.65992" lon="6.53359">
        <ele>1720</ele>
        <time>2025-03-30T07:22:06Z</time>
      </trkpt>
      <trkpt lat="45.65988" lon="6.53356">
        <ele>1720</ele>
        <time>2025-03-30T07:22:13Z</time>
      </trkpt>
      <trkpt lat="45.65985" lon="6.53352">
        <ele>1722</ele>
        <time>2025-03-30T07:22:19Z</time>
      </trkpt>
      <trkpt lat="45.65982" lon="6.53346">
        <ele>1723</ele>
        <time>2025-03-30T07:22:24Z</time>
      </trkpt>
      <trkpt lat="45.65979" lon="6.53342">
        <ele>1723</ele>
        <time>2025-03-30T07:22:29Z</time>
      </trkpt>
      <trkpt lat="45.65975" lon="6.53338">
        <ele>1724</ele>
        <time>2025-03-30T07:22:35Z</time>
      </trkpt>
      <trkpt lat="45.65972" lon="6.53336">
        <ele>1724</ele>
        <time>2025-03-30T07:22:41Z</time>
      </trkpt>
      <trkpt lat="45.6597" lon="6.5333">
        <ele>1724</ele>
        <time>2025-03-30T07:22:49Z</time>
      </trkpt>
      <trkpt lat="45.65966" lon="6.53328">
        <ele>1729</ele>
        <time>2025-03-30T07:23:00Z</time>
      </trkpt>
      <trkpt lat="45.65963" lon="6.53325">
        <ele>1730</ele>
        <time>2025-03-30T07:23:07Z</time>
      </trkpt>
      <trkpt lat="45.6596" lon="6.53321">
        <ele>1732</ele>
        <time>2025-03-30T07:23:18Z</time>
      </trkpt>
      <trkpt lat="45.65959" lon="6.53316">
        <ele>1733</ele>
        <time>2025-03-30T07:23:26Z</time>
      </trkpt>
      <trkpt lat="45.65951" lon="6.53312">
        <ele>1736</ele>
        <time>2025-03-30T07:23:40Z</time>
      </trkpt>
      <trkpt lat="45.65947" lon="6.53313">
        <ele>1737</ele>
        <time>2025-03-30T07:23:47Z</time>
      </trkpt>
      <trkpt lat="45.65945" lon="6.53309">
        <ele>1738</ele>
        <time>2025-03-30T07:23:58Z</time>
      </trkpt>
      <trkpt lat="45.65941" lon="6.53305">
        <ele>1739</ele>
        <time>2025-03-30T07:24:07Z</time>
      </trkpt>
      <trkpt lat="45.65943" lon="6.533">
        <ele>1742</ele>
        <time>2025-03-30T07:24:15Z</time>
      </trkpt>
      <trkpt lat="45.65942" lon="6.53295">
        <ele>1743</ele>
        <time>2025-03-30T07:24:21Z</time>
      </trkpt>
      <trkpt lat="45.65938" lon="6.53293">
        <ele>1744</ele>
        <time>2025-03-30T07:24:29Z</time>
      </trkpt>
      <trkpt lat="45.65935" lon="6.53294">
        <ele>1744</ele>
        <time>2025-03-30T07:24:36Z</time>
      </trkpt>
      <trkpt lat="45.65935" lon="6.53283">
        <ele>1748</ele>
        <time>2025-03-30T07:24:51Z</time>
      </trkpt>
      <trkpt lat="45.65931" lon="6.53281">
        <ele>1748</ele>
        <time>2025-03-30T07:24:57Z</time>
      </trkpt>
      <trkpt lat="45.65927" lon="6.53279">
        <ele>1749</ele>
        <time>2025-03-30T07:25:03Z</time>
      </trkpt>
      <trkpt lat="45.65925" lon="6.53274">
        <ele>1751</ele>
        <time>2025-03-30T07:25:13Z</time>
      </trkpt>
      <trkpt lat="45.65922" lon="6.53274">
        <ele>1751</ele>
        <time>2025-03-30T07:25:22Z</time>
      </trkpt>
      <trkpt lat="45.6592" lon="6.53271">
        <ele>1753</ele>
        <time>2025-03-30T07:25:34Z</time>
      </trkpt>
      <trkpt lat="45.65921" lon="6.53265">
        <ele>1755</ele>
        <time>2025-03-30T07:25:42Z</time>
      </trkpt>
      <trkpt lat="45.65916" lon="6.53263">
        <ele>1757</ele>
        <time>2025-03-30T07:25:52Z</time>
      </trkpt>
      <trkpt lat="45.65913" lon="6.53264">
        <ele>1757</ele>
        <time>2025-03-30T07:25:56Z</time>
      </trkpt>
      <trkpt lat="45.65911" lon="6.53268">
        <ele>1757</ele>
        <time>2025-03-30T07:26:02Z</time>
      </trkpt>
      <trkpt lat="45.65908" lon="6.53271">
        <ele>1756</ele>
        <time>2025-03-30T07:26:09Z</time>
      </trkpt>
      <trkpt lat="45.65901" lon="6.53266">
        <ele>1756</ele>
        <time>2025-03-30T07:26:20Z</time>
      </trkpt>
      <trkpt lat="45.65897" lon="6.53263">
        <ele>1757</ele>
        <time>2025-03-30T07:26:27Z</time>
      </trkpt>
      <trkpt lat="45.65893" lon="6.53261">
        <ele>1758</ele>
        <time>2025-03-30T07:26:35Z</time>
      </trkpt>
      <trkpt lat="45.65889" lon="6.53259">
        <ele>1759</ele>
        <time>2025-03-30T07:26:43Z</time>
      </trkpt>
      <trkpt lat="45.65886" lon="6.53254">
        <ele>1759</ele>
        <time>2025-03-30T07:26:52Z</time>
      </trkpt>
      <trkpt lat="45.65883" lon="6.5325">
        <ele>1760</ele>
        <time>2025-03-30T07:26:59Z</time>
      </trkpt>
      <trkpt lat="45.65881" lon="6.53244">
        <ele>1762</ele>
        <time>2025-03-30T07:27:08Z</time>
      </trkpt>
      <trkpt lat="45.65884" lon="6.53239">
        <ele>1765</ele>
        <time>2025-03-30T07:27:16Z</time>
      </trkpt>
      <trkpt lat="45.65883" lon="6.53234">
        <ele>1766</ele>
        <time>2025-03-30T07:27:22Z</time>
      </trkpt>
      <trkpt lat="45.6588" lon="6.53231">
        <ele>1767</ele>
        <time>2025-03-30T07:27:36Z</time>
      </trkpt>
      <trkpt lat="45.65876" lon="6.53229">
        <ele>1767</ele>
        <time>2025-03-30T07:27:43Z</time>
      </trkpt>
      <trkpt lat="45.65873" lon="6.53228">
        <ele>1770</ele>
        <time>2025-03-30T07:28:03Z</time>
      </trkpt>
      <trkpt lat="45.65873" lon="6.53223">
        <ele>1773</ele>
        <time>2025-03-30T07:28:09Z</time>
      </trkpt>
      <trkpt lat="45.65862" lon="6.53198">
        <ele>1778</ele>
        <time>2025-03-30T07:28:39Z</time>
      </trkpt>
      <trkpt lat="45.6586" lon="6.53194">
        <ele>1779</ele>
        <time>2025-03-30T07:28:44Z</time>
      </trkpt>
      <trkpt lat="45.6586" lon="6.5319">
        <ele>1779</ele>
        <time>2025-03-30T07:29:02Z</time>
      </trkpt>
      <trkpt lat="45.65862" lon="6.53186">
        <ele>1780</ele>
        <time>2025-03-30T07:29:08Z</time>
      </trkpt>
      <trkpt lat="45.6586" lon="6.53184">
        <ele>1780</ele>
        <time>2025-03-30T07:29:11Z</time>
      </trkpt>
      <trkpt lat="45.65848" lon="6.53165">
        <ele>1782</ele>
        <time>2025-03-30T07:29:35Z</time>
      </trkpt>
      <trkpt lat="45.65842" lon="6.53152">
        <ele>1783</ele>
        <time>2025-03-30T07:29:51Z</time>
      </trkpt>
      <trkpt lat="45.65826" lon="6.53126">
        <ele>1786</ele>
        <time>2025-03-30T07:30:21Z</time>
      </trkpt>
      <trkpt lat="45.65819" lon="6.53107">
        <ele>1788</ele>
        <time>2025-03-30T07:30:40Z</time>
      </trkpt>
      <trkpt lat="45.65816" lon="6.5309">
        <ele>1789</ele>
        <time>2025-03-30T07:30:53Z</time>
      </trkpt>
      <trkpt lat="45.65815" lon="6.53086">
        <ele>1789</ele>
        <time>2025-03-30T07:30:57Z</time>
      </trkpt>
      <trkpt lat="45.65811" lon="6.53076">
        <ele>1791</ele>
        <time>2025-03-30T07:31:25Z</time>
      </trkpt>
      <trkpt lat="45.65809" lon="6.53071">
        <ele>1790</ele>
        <time>2025-03-30T07:31:29Z</time>
      </trkpt>
      <trkpt lat="45.65808" lon="6.53066">
        <ele>1790</ele>
        <time>2025-03-30T07:31:33Z</time>
      </trkpt>
      <trkpt lat="45.65806" lon="6.5306">
        <ele>1790</ele>
        <time>2025-03-30T07:31:39Z</time>
      </trkpt>
      <trkpt lat="45.65804" lon="6.53052">
        <ele>1790</ele>
        <time>2025-03-30T07:31:46Z</time>
      </trkpt>
      <trkpt lat="45.65802" lon="6.53036">
        <ele>1792</ele>
        <time>2025-03-30T07:31:58Z</time>
      </trkpt>
      <trkpt lat="45.65797" lon="6.53027">
        <ele>1792</ele>
        <time>2025-03-30T07:32:06Z</time>
      </trkpt>
      <trkpt lat="45.65796" lon="6.53023">
        <ele>1793</ele>
        <time>2025-03-30T07:32:10Z</time>
      </trkpt>
      <trkpt lat="45.65794" lon="6.53018">
        <ele>1794</ele>
        <time>2025-03-30T07:32:15Z</time>
      </trkpt>
      <trkpt lat="45.65785" lon="6.53001">
        <ele>1798</ele>
        <time>2025-03-30T07:32:37Z</time>
      </trkpt>
      <trkpt lat="45.65783" lon="6.52999">
        <ele>1799</ele>
        <time>2025-03-30T07:32:43Z</time>
      </trkpt>
      <trkpt lat="45.65781" lon="6.52997">
        <ele>1799</ele>
        <time>2025-03-30T07:32:47Z</time>
      </trkpt>
      <trkpt lat="45.65778" lon="6.52996">
        <ele>1800</ele>
        <time>2025-03-30T07:32:51Z</time>
      </trkpt>
      <trkpt lat="45.65777" lon="6.52993">
        <ele>1800</ele>
        <time>2025-03-30T07:32:55Z</time>
      </trkpt>
      <trkpt lat="45.65777" lon="6.52989">
        <ele>1800</ele>
        <time>2025-03-30T07:33:00Z</time>
      </trkpt>
      <trkpt lat="45.65775" lon="6.52986">
        <ele>1801</ele>
        <time>2025-03-30T07:33:04Z</time>
      </trkpt>
      <trkpt lat="45.65772" lon="6.52984">
        <ele>1801</ele>
        <time>2025-03-30T07:33:09Z</time>
      </trkpt>
      <trkpt lat="45.65766" lon="6.52975">
        <ele>1803</ele>
        <time>2025-03-30T07:33:24Z</time>
      </trkpt>
      <trkpt lat="45.65764" lon="6.52971">
        <ele>1805</ele>
        <time>2025-03-30T07:33:30Z</time>
      </trkpt>
      <trkpt lat="45.65762" lon="6.52968">
        <ele>1805</ele>
        <time>2025-03-30T07:33:36Z</time>
      </trkpt>
      <trkpt lat="45.65762" lon="6.52965">
        <ele>1806</ele>
        <time>2025-03-30T07:33:40Z</time>
      </trkpt>
      <trkpt lat="45.65761" lon="6.52961">
        <ele>1808</ele>
        <time>2025-03-30T07:33:45Z</time>
      </trkpt>
      <trkpt lat="45.65758" lon="6.52954">
        <ele>1809</ele>
        <time>2025-03-30T07:33:54Z</time>
      </trkpt>
      <trkpt lat="45.65756" lon="6.52952">
        <ele>1811</ele>
        <time>2025-03-30T07:34:09Z</time>
      </trkpt>
      <trkpt lat="45.65752" lon="6.52946">
        <ele>1811</ele>
        <time>2025-03-30T07:34:17Z</time>
      </trkpt>
      <trkpt lat="45.65747" lon="6.52939">
        <ele>1813</ele>
        <time>2025-03-30T07:34:29Z</time>
      </trkpt>
      <trkpt lat="45.65743" lon="6.52932">
        <ele>1813</ele>
        <time>2025-03-30T07:34:38Z</time>
      </trkpt>
      <trkpt lat="45.65741" lon="6.5293">
        <ele>1814</ele>
        <time>2025-03-30T07:34:43Z</time>
      </trkpt>
      <trkpt lat="45.65738" lon="6.52928">
        <ele>1814</ele>
        <time>2025-03-30T07:34:47Z</time>
      </trkpt>
      <trkpt lat="45.65736" lon="6.52928">
        <ele>1815</ele>
        <time>2025-03-30T07:34:52Z</time>
      </trkpt>
      <trkpt lat="45.65734" lon="6.52924">
        <ele>1815</ele>
        <time>2025-03-30T07:34:56Z</time>
      </trkpt>
      <trkpt lat="45.65729" lon="6.52912">
        <ele>1819</ele>
        <time>2025-03-30T07:35:14Z</time>
      </trkpt>
      <trkpt lat="45.65728" lon="6.52909">
        <ele>1820</ele>
        <time>2025-03-30T07:35:19Z</time>
      </trkpt>
      <trkpt lat="45.65727" lon="6.52906">
        <ele>1821</ele>
        <time>2025-03-30T07:35:26Z</time>
      </trkpt>
      <trkpt lat="45.65725" lon="6.52903">
        <ele>1823</ele>
        <time>2025-03-30T07:35:30Z</time>
      </trkpt>
      <trkpt lat="45.65724" lon="6.529">
        <ele>1824</ele>
        <time>2025-03-30T07:35:35Z</time>
      </trkpt>
      <trkpt lat="45.65723" lon="6.52896">
        <ele>1825</ele>
        <time>2025-03-30T07:35:39Z</time>
      </trkpt>
      <trkpt lat="45.6572" lon="6.52887">
        <ele>1827</ele>
        <time>2025-03-30T07:35:51Z</time>
      </trkpt>
      <trkpt lat="45.6572" lon="6.52884">
        <ele>1827</ele>
        <time>2025-03-30T07:35:55Z</time>
      </trkpt>
      <trkpt lat="45.65718" lon="6.52884">
        <ele>1827</ele>
        <time>2025-03-30T07:36:08Z</time>
      </trkpt>
      <trkpt lat="45.65716" lon="6.52888">
        <ele>1826</ele>
        <time>2025-03-30T07:36:12Z</time>
      </trkpt>
      <trkpt lat="45.65714" lon="6.5289">
        <ele>1826</ele>
        <time>2025-03-30T07:36:17Z</time>
      </trkpt>
      <trkpt lat="45.65712" lon="6.52891">
        <ele>1827</ele>
        <time>2025-03-30T07:36:22Z</time>
      </trkpt>
      <trkpt lat="45.65709" lon="6.5289">
        <ele>1827</ele>
        <time>2025-03-30T07:36:26Z</time>
      </trkpt>
      <trkpt lat="45.65708" lon="6.52886">
        <ele>1827</ele>
        <time>2025-03-30T07:36:30Z</time>
      </trkpt>
      <trkpt lat="45.65707" lon="6.52881">
        <ele>1828</ele>
        <time>2025-03-30T07:36:36Z</time>
      </trkpt>
      <trkpt lat="45.65702" lon="6.52857">
        <ele>1834</ele>
        <time>2025-03-30T07:37:00Z</time>
      </trkpt>
      <trkpt lat="45.657" lon="6.52848">
        <ele>1835</ele>
        <time>2025-03-30T07:37:09Z</time>
      </trkpt>
      <trkpt lat="45.65699" lon="6.52845">
        <ele>1835</ele>
        <time>2025-03-30T07:37:15Z</time>
      </trkpt>
      <trkpt lat="45.65698" lon="6.52843">
        <ele>1837</ele>
        <time>2025-03-30T07:43:30Z</time>
      </trkpt>
      <trkpt lat="45.65696" lon="6.52841">
        <ele>1838</ele>
        <time>2025-03-30T07:44:07Z</time>
      </trkpt>
      <trkpt lat="45.65692" lon="6.52828">
        <ele>1841</ele>
        <time>2025-03-30T07:44:25Z</time>
      </trkpt>
      <trkpt lat="45.65692" lon="6.52824">
        <ele>1842</ele>
        <time>2025-03-30T07:44:31Z</time>
      </trkpt>
      <trkpt lat="45.65696" lon="6.52812">
        <ele>1845</ele>
        <time>2025-03-30T07:44:45Z</time>
      </trkpt>
      <trkpt lat="45.65697" lon="6.52807">
        <ele>1847</ele>
        <time>2025-03-30T07:44:49Z</time>
      </trkpt>
      <trkpt lat="45.65693" lon="6.52801">
        <ele>1848</ele>
        <time>2025-03-30T07:44:56Z</time>
      </trkpt>
      <trkpt lat="45.65688" lon="6.52799">
        <ele>1848</ele>
        <time>2025-03-30T07:45:04Z</time>
      </trkpt>
      <trkpt lat="45.65685" lon="6.52798">
        <ele>1848</ele>
        <time>2025-03-30T07:45:08Z</time>
      </trkpt>
      <trkpt lat="45.65683" lon="6.52796">
        <ele>1847</ele>
        <time>2025-03-30T07:45:12Z</time>
      </trkpt>
      <trkpt lat="45.65681" lon="6.52795">
        <ele>1848</ele>
        <time>2025-03-30T07:45:16Z</time>
      </trkpt>
      <trkpt lat="45.65679" lon="6.52789">
        <ele>1848</ele>
        <time>2025-03-30T07:45:23Z</time>
      </trkpt>
      <trkpt lat="45.65679" lon="6.52785">
        <ele>1849</ele>
        <time>2025-03-30T07:45:28Z</time>
      </trkpt>
      <trkpt lat="45.65676" lon="6.52772">
        <ele>1851</ele>
        <time>2025-03-30T07:45:41Z</time>
      </trkpt>
      <trkpt lat="45.65676" lon="6.52768">
        <ele>1851</ele>
        <time>2025-03-30T07:45:45Z</time>
      </trkpt>
      <trkpt lat="45.65675" lon="6.52765">
        <ele>1852</ele>
        <time>2025-03-30T07:45:49Z</time>
      </trkpt>
      <trkpt lat="45.65671" lon="6.52758">
        <ele>1854</ele>
        <time>2025-03-30T07:45:59Z</time>
      </trkpt>
      <trkpt lat="45.65671" lon="6.52755">
        <ele>1854</ele>
        <time>2025-03-30T07:46:03Z</time>
      </trkpt>
      <trkpt lat="45.65671" lon="6.52752">
        <ele>1854</ele>
        <time>2025-03-30T07:46:06Z</time>
      </trkpt>
      <trkpt lat="45.6567" lon="6.52747">
        <ele>1855</ele>
        <time>2025-03-30T07:46:12Z</time>
      </trkpt>
      <trkpt lat="45.65669" lon="6.52746">
        <ele>1857</ele>
        <time>2025-03-30T07:46:19Z</time>
      </trkpt>
      <trkpt lat="45.65666" lon="6.52746">
        <ele>1858</ele>
        <time>2025-03-30T07:46:38Z</time>
      </trkpt>
      <trkpt lat="45.6566" lon="6.52743">
        <ele>1859</ele>
        <time>2025-03-30T07:46:46Z</time>
      </trkpt>
      <trkpt lat="45.65657" lon="6.52741">
        <ele>1860</ele>
        <time>2025-03-30T07:46:51Z</time>
      </trkpt>
      <trkpt lat="45.65653" lon="6.5274">
        <ele>1861</ele>
        <time>2025-03-30T07:46:55Z</time>
      </trkpt>
      <trkpt lat="45.6565" lon="6.52739">
        <ele>1861</ele>
        <time>2025-03-30T07:47:00Z</time>
      </trkpt>
      <trkpt lat="45.65647" lon="6.52741">
        <ele>1861</ele>
        <time>2025-03-30T07:47:04Z</time>
      </trkpt>
      <trkpt lat="45.65645" lon="6.52745">
        <ele>1860</ele>
        <time>2025-03-30T07:47:09Z</time>
      </trkpt>
      <trkpt lat="45.6564" lon="6.52748">
        <ele>1860</ele>
        <time>2025-03-30T07:47:17Z</time>
      </trkpt>
      <trkpt lat="45.65633" lon="6.52749">
        <ele>1862</ele>
        <time>2025-03-30T07:47:29Z</time>
      </trkpt>
      <trkpt lat="45.65619" lon="6.52756">
        <ele>1867</ele>
        <time>2025-03-30T07:47:51Z</time>
      </trkpt>
      <trkpt lat="45.65617" lon="6.52759">
        <ele>1867</ele>
        <time>2025-03-30T07:47:54Z</time>
      </trkpt>
      <trkpt lat="45.65615" lon="6.52761">
        <ele>1867</ele>
        <time>2025-03-30T07:47:58Z</time>
      </trkpt>
      <trkpt lat="45.65615" lon="6.52765">
        <ele>1867</ele>
        <time>2025-03-30T07:48:02Z</time>
      </trkpt>
      <trkpt lat="45.65615" lon="6.5277">
        <ele>1868</ele>
        <time>2025-03-30T07:48:06Z</time>
      </trkpt>
      <trkpt lat="45.65614" lon="6.52773">
        <ele>1868</ele>
        <time>2025-03-30T07:48:10Z</time>
      </trkpt>
      <trkpt lat="45.65611" lon="6.52775">
        <ele>1870</ele>
        <time>2025-03-30T07:48:14Z</time>
      </trkpt>
      <trkpt lat="45.6561" lon="6.52778">
        <ele>1871</ele>
        <time>2025-03-30T07:48:18Z</time>
      </trkpt>
      <trkpt lat="45.65608" lon="6.52791">
        <ele>1873</ele>
        <time>2025-03-30T07:48:32Z</time>
      </trkpt>
      <trkpt lat="45.65607" lon="6.52793">
        <ele>1875</ele>
        <time>2025-03-30T07:48:41Z</time>
      </trkpt>
      <trkpt lat="45.65594" lon="6.52773">
        <ele>1881</ele>
        <time>2025-03-30T07:49:12Z</time>
      </trkpt>
      <trkpt lat="45.65589" lon="6.52766">
        <ele>1883</ele>
        <time>2025-03-30T07:49:25Z</time>
      </trkpt>
      <trkpt lat="45.65587" lon="6.52762">
        <ele>1883</ele>
        <time>2025-03-30T07:49:30Z</time>
      </trkpt>
      <trkpt lat="45.65586" lon="6.52758">
        <ele>1883</ele>
        <time>2025-03-30T07:49:36Z</time>
      </trkpt>
      <trkpt lat="45.65584" lon="6.52755">
        <ele>1885</ele>
        <time>2025-03-30T07:49:40Z</time>
      </trkpt>
      <trkpt lat="45.65582" lon="6.52754">
        <ele>1885</ele>
        <time>2025-03-30T07:49:44Z</time>
      </trkpt>
      <trkpt lat="45.65571" lon="6.52731">
        <ele>1890</ele>
        <time>2025-03-30T07:50:17Z</time>
      </trkpt>
      <trkpt lat="45.65569" lon="6.52727">
        <ele>1890</ele>
        <time>2025-03-30T07:50:23Z</time>
      </trkpt>
      <trkpt lat="45.65567" lon="6.52724">
        <ele>1891</ele>
        <time>2025-03-30T07:50:27Z</time>
      </trkpt>
      <trkpt lat="45.65566" lon="6.52721">
        <ele>1892</ele>
        <time>2025-03-30T07:50:33Z</time>
      </trkpt>
      <trkpt lat="45.65565" lon="6.52716">
        <ele>1894</ele>
        <time>2025-03-30T07:50:39Z</time>
      </trkpt>
      <trkpt lat="45.65564" lon="6.52713">
        <ele>1895</ele>
        <time>2025-03-30T07:50:44Z</time>
      </trkpt>
      <trkpt lat="45.65561" lon="6.52709">
        <ele>1895</ele>
        <time>2025-03-30T07:50:51Z</time>
      </trkpt>
      <trkpt lat="45.65559" lon="6.52705">
        <ele>1896</ele>
        <time>2025-03-30T07:51:00Z</time>
      </trkpt>
      <trkpt lat="45.65555" lon="6.52699">
        <ele>1898</ele>
        <time>2025-03-30T07:51:12Z</time>
      </trkpt>
      <trkpt lat="45.65553" lon="6.52696">
        <ele>1899</ele>
        <time>2025-03-30T07:51:18Z</time>
      </trkpt>
      <trkpt lat="45.65551" lon="6.52694">
        <ele>1899</ele>
        <time>2025-03-30T07:51:24Z</time>
      </trkpt>
      <trkpt lat="45.6555" lon="6.5269">
        <ele>1901</ele>
        <time>2025-03-30T07:51:31Z</time>
      </trkpt>
      <trkpt lat="45.65547" lon="6.52687">
        <ele>1902</ele>
        <time>2025-03-30T07:51:36Z</time>
      </trkpt>
      <trkpt lat="45.65543" lon="6.52683">
        <ele>1902</ele>
        <time>2025-03-30T07:51:45Z</time>
      </trkpt>
      <trkpt lat="45.65541" lon="6.52682">
        <ele>1902</ele>
        <time>2025-03-30T07:51:49Z</time>
      </trkpt>
      <trkpt lat="45.65539" lon="6.52683">
        <ele>1902</ele>
        <time>2025-03-30T07:51:53Z</time>
      </trkpt>
      <trkpt lat="45.65536" lon="6.52698">
        <ele>1904</ele>
        <time>2025-03-30T07:52:11Z</time>
      </trkpt>
      <trkpt lat="45.65534" lon="6.527">
        <ele>1906</ele>
        <time>2025-03-30T07:52:50Z</time>
      </trkpt>
      <trkpt lat="45.65531" lon="6.52712">
        <ele>1907</ele>
        <time>2025-03-30T07:53:02Z</time>
      </trkpt>
      <trkpt lat="45.6553" lon="6.52715">
        <ele>1909</ele>
        <time>2025-03-30T07:53:06Z</time>
      </trkpt>
      <trkpt lat="45.65529" lon="6.52719">
        <ele>1909</ele>
        <time>2025-03-30T07:53:11Z</time>
      </trkpt>
      <trkpt lat="45.65528" lon="6.52723">
        <ele>1910</ele>
        <time>2025-03-30T07:53:16Z</time>
      </trkpt>
      <trkpt lat="45.65524" lon="6.52729">
        <ele>1912</ele>
        <time>2025-03-30T07:53:25Z</time>
      </trkpt>
      <trkpt lat="45.65523" lon="6.52732">
        <ele>1912</ele>
        <time>2025-03-30T07:53:29Z</time>
      </trkpt>
      <trkpt lat="45.65522" lon="6.5274">
        <ele>1913</ele>
        <time>2025-03-30T07:53:37Z</time>
      </trkpt>
      <trkpt lat="45.65521" lon="6.52744">
        <ele>1913</ele>
        <time>2025-03-30T07:53:41Z</time>
      </trkpt>
      <trkpt lat="45.6552" lon="6.52748">
        <ele>1913</ele>
        <time>2025-03-30T07:53:45Z</time>
      </trkpt>
      <trkpt lat="45.6552" lon="6.52763">
        <ele>1917</ele>
        <time>2025-03-30T07:54:02Z</time>
      </trkpt>
      <trkpt lat="45.65521" lon="6.52774">
        <ele>1921</ele>
        <time>2025-03-30T07:54:16Z</time>
      </trkpt>
      <trkpt lat="45.65521" lon="6.52777">
        <ele>1923</ele>
        <time>2025-03-30T07:54:30Z</time>
      </trkpt>
      <trkpt lat="45.65518" lon="6.52776">
        <ele>1923</ele>
        <time>2025-03-30T07:54:33Z</time>
      </trkpt>
      <trkpt lat="45.65516" lon="6.52775">
        <ele>1924</ele>
        <time>2025-03-30T07:54:39Z</time>
      </trkpt>
      <trkpt lat="45.65514" lon="6.52773">
        <ele>1925</ele>
        <time>2025-03-30T07:54:44Z</time>
      </trkpt>
      <trkpt lat="45.65512" lon="6.52771">
        <ele>1926</ele>
        <time>2025-03-30T07:54:50Z</time>
      </trkpt>
      <trkpt lat="45.6551" lon="6.52769">
        <ele>1925</ele>
        <time>2025-03-30T07:54:53Z</time>
      </trkpt>
      <trkpt lat="45.65505" lon="6.52766">
        <ele>1927</ele>
        <time>2025-03-30T07:55:01Z</time>
      </trkpt>
      <trkpt lat="45.65503" lon="6.52762">
        <ele>1927</ele>
        <time>2025-03-30T07:55:07Z</time>
      </trkpt>
      <trkpt lat="45.65501" lon="6.52757">
        <ele>1928</ele>
        <time>2025-03-30T07:55:13Z</time>
      </trkpt>
      <trkpt lat="45.65497" lon="6.5275">
        <ele>1930</ele>
        <time>2025-03-30T07:55:24Z</time>
      </trkpt>
      <trkpt lat="45.65496" lon="6.52746">
        <ele>1932</ele>
        <time>2025-03-30T07:55:29Z</time>
      </trkpt>
      <trkpt lat="45.65492" lon="6.52736">
        <ele>1935</ele>
        <time>2025-03-30T07:55:42Z</time>
      </trkpt>
      <trkpt lat="45.6549" lon="6.52729">
        <ele>1937</ele>
        <time>2025-03-30T07:55:52Z</time>
      </trkpt>
      <trkpt lat="45.65487" lon="6.52726">
        <ele>1939</ele>
        <time>2025-03-30T07:55:58Z</time>
      </trkpt>
      <trkpt lat="45.65482" lon="6.52714">
        <ele>1942</ele>
        <time>2025-03-30T07:56:15Z</time>
      </trkpt>
      <trkpt lat="45.65479" lon="6.5271">
        <ele>1943</ele>
        <time>2025-03-30T07:56:22Z</time>
      </trkpt>
      <trkpt lat="45.65476" lon="6.5271">
        <ele>1942</ele>
        <time>2025-03-30T07:56:26Z</time>
      </trkpt>
      <trkpt lat="45.65468" lon="6.52721">
        <ele>1938</ele>
        <time>2025-03-30T07:56:48Z</time>
      </trkpt>
      <trkpt lat="45.65465" lon="6.52721">
        <ele>1939</ele>
        <time>2025-03-30T07:57:27Z</time>
      </trkpt>
      <trkpt lat="45.65463" lon="6.52719">
        <ele>1939</ele>
        <time>2025-03-30T07:57:33Z</time>
      </trkpt>
      <trkpt lat="45.6546" lon="6.52717">
        <ele>1940</ele>
        <time>2025-03-30T07:57:39Z</time>
      </trkpt>
      <trkpt lat="45.65458" lon="6.52714">
        <ele>1942</ele>
        <time>2025-03-30T07:57:47Z</time>
      </trkpt>
      <trkpt lat="45.65445" lon="6.52701">
        <ele>1944</ele>
        <time>2025-03-30T07:58:12Z</time>
      </trkpt>
      <trkpt lat="45.65439" lon="6.52697">
        <ele>1944</ele>
        <time>2025-03-30T07:58:22Z</time>
      </trkpt>
      <trkpt lat="45.65437" lon="6.52694">
        <ele>1946</ele>
        <time>2025-03-30T07:58:27Z</time>
      </trkpt>
      <trkpt lat="45.65435" lon="6.52691">
        <ele>1948</ele>
        <time>2025-03-30T07:58:34Z</time>
      </trkpt>
      <trkpt lat="45.65433" lon="6.52701">
        <ele>1951</ele>
        <time>2025-03-30T07:58:49Z</time>
      </trkpt>
      <trkpt lat="45.65436" lon="6.5272">
        <ele>1957</ele>
        <time>2025-03-30T07:59:14Z</time>
      </trkpt>
      <trkpt lat="45.65435" lon="6.52725">
        <ele>1957</ele>
        <time>2025-03-30T07:59:19Z</time>
      </trkpt>
      <trkpt lat="45.65432" lon="6.52729">
        <ele>1957</ele>
        <time>2025-03-30T07:59:23Z</time>
      </trkpt>
      <trkpt lat="45.6543" lon="6.5273">
        <ele>1957</ele>
        <time>2025-03-30T07:59:26Z</time>
      </trkpt>
      <trkpt lat="45.65429" lon="6.52732">
        <ele>1956</ele>
        <time>2025-03-30T07:59:30Z</time>
      </trkpt>
      <trkpt lat="45.65428" lon="6.52736">
        <ele>1957</ele>
        <time>2025-03-30T07:59:34Z</time>
      </trkpt>
      <trkpt lat="45.65427" lon="6.52736">
        <ele>1959</ele>
        <time>2025-03-30T07:59:50Z</time>
      </trkpt>
      <trkpt lat="45.65425" lon="6.52733">
        <ele>1959</ele>
        <time>2025-03-30T07:59:55Z</time>
      </trkpt>
      <trkpt lat="45.65422" lon="6.52727">
        <ele>1963</ele>
        <time>2025-03-30T08:00:04Z</time>
      </trkpt>
      <trkpt lat="45.65417" lon="6.52719">
        <ele>1965</ele>
        <time>2025-03-30T08:00:17Z</time>
      </trkpt>
      <trkpt lat="45.65417" lon="6.52714">
        <ele>1966</ele>
        <time>2025-03-30T08:00:23Z</time>
      </trkpt>
      <trkpt lat="45.65415" lon="6.52711">
        <ele>1967</ele>
        <time>2025-03-30T08:00:29Z</time>
      </trkpt>
      <trkpt lat="45.65411" lon="6.52704">
        <ele>1967</ele>
        <time>2025-03-30T08:00:40Z</time>
      </trkpt>
      <trkpt lat="45.6541" lon="6.52704">
        <ele>1973</ele>
        <time>2025-03-30T08:00:55Z</time>
      </trkpt>
      <trkpt lat="45.65409" lon="6.52708">
        <ele>1974</ele>
        <time>2025-03-30T08:00:58Z</time>
      </trkpt>
      <trkpt lat="45.6541" lon="6.52712">
        <ele>1975</ele>
        <time>2025-03-30T08:01:04Z</time>
      </trkpt>
      <trkpt lat="45.6541" lon="6.52736">
        <ele>1976</ele>
        <time>2025-03-30T08:01:31Z</time>
      </trkpt>
      <trkpt lat="45.65411" lon="6.52754">
        <ele>1979</ele>
        <time>2025-03-30T08:01:59Z</time>
      </trkpt>
      <trkpt lat="45.65409" lon="6.52752">
        <ele>1982</ele>
        <time>2025-03-30T08:02:23Z</time>
      </trkpt>
      <trkpt lat="45.65406" lon="6.5275">
        <ele>1982</ele>
        <time>2025-03-30T08:02:28Z</time>
      </trkpt>
      <trkpt lat="45.65404" lon="6.52747">
        <ele>1983</ele>
        <time>2025-03-30T08:02:34Z</time>
      </trkpt>
      <trkpt lat="45.654" lon="6.52743">
        <ele>1981</ele>
        <time>2025-03-30T08:02:46Z</time>
      </trkpt>
      <trkpt lat="45.65399" lon="6.52741">
        <ele>1982</ele>
        <time>2025-03-30T08:02:52Z</time>
      </trkpt>
      <trkpt lat="45.65398" lon="6.52737">
        <ele>1982</ele>
        <time>2025-03-30T08:02:57Z</time>
      </trkpt>
      <trkpt lat="45.65395" lon="6.52734">
        <ele>1982</ele>
        <time>2025-03-30T08:03:03Z</time>
      </trkpt>
      <trkpt lat="45.65392" lon="6.52726">
        <ele>1982</ele>
        <time>2025-03-30T08:03:16Z</time>
      </trkpt>
      <trkpt lat="45.65391" lon="6.52724">
        <ele>1984</ele>
        <time>2025-03-30T08:03:22Z</time>
      </trkpt>
      <trkpt lat="45.65389" lon="6.52725">
        <ele>1986</ele>
        <time>2025-03-30T08:03:44Z</time>
      </trkpt>
      <trkpt lat="45.65388" lon="6.52728">
        <ele>1986</ele>
        <time>2025-03-30T08:03:48Z</time>
      </trkpt>
      <trkpt lat="45.65387" lon="6.52735">
        <ele>1987</ele>
        <time>2025-03-30T08:03:53Z</time>
      </trkpt>
      <trkpt lat="45.6539" lon="6.52761">
        <ele>1992</ele>
        <time>2025-03-30T08:04:18Z</time>
      </trkpt>
      <trkpt lat="45.6539" lon="6.52767">
        <ele>1994</ele>
        <time>2025-03-30T08:04:24Z</time>
      </trkpt>
      <trkpt lat="45.65393" lon="6.52784">
        <ele>1999</ele>
        <time>2025-03-30T08:04:47Z</time>
      </trkpt>
      <trkpt lat="45.65394" lon="6.52802">
        <ele>2002</ele>
        <time>2025-03-30T08:05:09Z</time>
      </trkpt>
      <trkpt lat="45.65398" lon="6.52819">
        <ele>2007</ele>
        <time>2025-03-30T08:05:29Z</time>
      </trkpt>
      <trkpt lat="45.65391" lon="6.5283">
        <ele>2005</ele>
        <time>2025-03-30T08:05:42Z</time>
      </trkpt>
      <trkpt lat="45.65388" lon="6.52835">
        <ele>2005</ele>
        <time>2025-03-30T08:05:48Z</time>
      </trkpt>
      <trkpt lat="45.65387" lon="6.52837">
        <ele>2006</ele>
        <time>2025-03-30T08:05:52Z</time>
      </trkpt>
      <trkpt lat="45.65385" lon="6.52837">
        <ele>2006</ele>
        <time>2025-03-30T08:06:02Z</time>
      </trkpt>
      <trkpt lat="45.65382" lon="6.5283">
        <ele>2009</ele>
        <time>2025-03-30T08:06:11Z</time>
      </trkpt>
      <trkpt lat="45.6538" lon="6.52828">
        <ele>2012</ele>
        <time>2025-03-30T08:06:39Z</time>
      </trkpt>
      <trkpt lat="45.65382" lon="6.52827">
        <ele>2014</ele>
        <time>2025-03-30T08:10:40Z</time>
      </trkpt>
      <trkpt lat="45.6538" lon="6.52825">
        <ele>2015</ele>
        <time>2025-03-30T08:12:00Z</time>
      </trkpt>
      <trkpt lat="45.65379" lon="6.52822">
        <ele>2017</ele>
        <time>2025-03-30T08:12:04Z</time>
      </trkpt>
      <trkpt lat="45.65371" lon="6.52814">
        <ele>2022</ele>
        <time>2025-03-30T08:12:19Z</time>
      </trkpt>
      <trkpt lat="45.65369" lon="6.52811">
        <ele>2023</ele>
        <time>2025-03-30T08:12:23Z</time>
      </trkpt>
      <trkpt lat="45.65363" lon="6.52807">
        <ele>2024</ele>
        <time>2025-03-30T08:12:32Z</time>
      </trkpt>
      <trkpt lat="45.65361" lon="6.52803">
        <ele>2026</ele>
        <time>2025-03-30T08:12:37Z</time>
      </trkpt>
      <trkpt lat="45.65358" lon="6.52799">
        <ele>2028</ele>
        <time>2025-03-30T08:12:43Z</time>
      </trkpt>
      <trkpt lat="45.65356" lon="6.52796">
        <ele>2029</ele>
        <time>2025-03-30T08:12:47Z</time>
      </trkpt>
      <trkpt lat="45.65336" lon="6.52775">
        <ele>2031</ele>
        <time>2025-03-30T08:13:19Z</time>
      </trkpt>
      <trkpt lat="45.65334" lon="6.52773">
        <ele>2032</ele>
        <time>2025-03-30T08:13:22Z</time>
      </trkpt>
      <trkpt lat="45.65328" lon="6.52769">
        <ele>2032</ele>
        <time>2025-03-30T08:13:30Z</time>
      </trkpt>
      <trkpt lat="45.65323" lon="6.52762">
        <ele>2034</ele>
        <time>2025-03-30T08:13:38Z</time>
      </trkpt>
      <trkpt lat="45.65317" lon="6.52756">
        <ele>2036</ele>
        <time>2025-03-30T08:13:51Z</time>
      </trkpt>
      <trkpt lat="45.65314" lon="6.52752">
        <ele>2037</ele>
        <time>2025-03-30T08:13:57Z</time>
      </trkpt>
      <trkpt lat="45.6531" lon="6.52748">
        <ele>2038</ele>
        <time>2025-03-30T08:14:04Z</time>
      </trkpt>
      <trkpt lat="45.65298" lon="6.52739">
        <ele>2040</ele>
        <time>2025-03-30T08:14:25Z</time>
      </trkpt>
      <trkpt lat="45.65295" lon="6.52737">
        <ele>2041</ele>
        <time>2025-03-30T08:14:29Z</time>
      </trkpt>
      <trkpt lat="45.65293" lon="6.52735">
        <ele>2041</ele>
        <time>2025-03-30T08:14:33Z</time>
      </trkpt>
      <trkpt lat="45.65291" lon="6.52733">
        <ele>2042</ele>
        <time>2025-03-30T08:14:37Z</time>
      </trkpt>
      <trkpt lat="45.65284" lon="6.52728">
        <ele>2044</ele>
        <time>2025-03-30T08:14:50Z</time>
      </trkpt>
      <trkpt lat="45.65282" lon="6.52726">
        <ele>2045</ele>
        <time>2025-03-30T08:14:57Z</time>
      </trkpt>
      <trkpt lat="45.65288" lon="6.52722">
        <ele>2047</ele>
        <time>2025-03-30T08:15:13Z</time>
      </trkpt>
      <trkpt lat="45.65286" lon="6.52719">
        <ele>2049</ele>
        <time>2025-03-30T08:15:28Z</time>
      </trkpt>
      <trkpt lat="45.65275" lon="6.52713">
        <ele>2053</ele>
        <time>2025-03-30T08:15:48Z</time>
      </trkpt>
      <trkpt lat="45.65273" lon="6.52712">
        <ele>2053</ele>
        <time>2025-03-30T08:15:52Z</time>
      </trkpt>
      <trkpt lat="45.65259" lon="6.52704">
        <ele>2054</ele>
        <time>2025-03-30T08:16:13Z</time>
      </trkpt>
      <trkpt lat="45.65253" lon="6.527">
        <ele>2055</ele>
        <time>2025-03-30T08:16:24Z</time>
      </trkpt>
      <trkpt lat="45.65248" lon="6.52694">
        <ele>2056</ele>
        <time>2025-03-30T08:16:35Z</time>
      </trkpt>
      <trkpt lat="45.65249" lon="6.52689">
        <ele>2057</ele>
        <time>2025-03-30T08:16:39Z</time>
      </trkpt>
      <trkpt lat="45.6525" lon="6.52686">
        <ele>2058</ele>
        <time>2025-03-30T08:16:45Z</time>
      </trkpt>
      <trkpt lat="45.6525" lon="6.52682">
        <ele>2059</ele>
        <time>2025-03-30T08:16:56Z</time>
      </trkpt>
      <trkpt lat="45.65249" lon="6.5268">
        <ele>2061</ele>
        <time>2025-03-30T08:17:07Z</time>
      </trkpt>
      <trkpt lat="45.65246" lon="6.52678">
        <ele>2061</ele>
        <time>2025-03-30T08:17:16Z</time>
      </trkpt>
      <trkpt lat="45.65241" lon="6.52676">
        <ele>2063</ele>
        <time>2025-03-30T08:17:24Z</time>
      </trkpt>
      <trkpt lat="45.65238" lon="6.52673">
        <ele>2064</ele>
        <time>2025-03-30T08:17:30Z</time>
      </trkpt>
      <trkpt lat="45.65234" lon="6.52671">
        <ele>2065</ele>
        <time>2025-03-30T08:17:36Z</time>
      </trkpt>
      <trkpt lat="45.65213" lon="6.52658">
        <ele>2069</ele>
        <time>2025-03-30T08:18:09Z</time>
      </trkpt>
      <trkpt lat="45.65198" lon="6.52654">
        <ele>2069</ele>
        <time>2025-03-30T08:18:26Z</time>
      </trkpt>
      <trkpt lat="45.65194" lon="6.52653">
        <ele>2070</ele>
        <time>2025-03-30T08:18:30Z</time>
      </trkpt>
      <trkpt lat="45.65185" lon="6.52651">
        <ele>2070</ele>
        <time>2025-03-30T08:18:39Z</time>
      </trkpt>
      <trkpt lat="45.6518" lon="6.52647">
        <ele>2071</ele>
        <time>2025-03-30T08:18:44Z</time>
      </trkpt>
      <trkpt lat="45.65169" lon="6.52639">
        <ele>2070</ele>
        <time>2025-03-30T08:18:56Z</time>
      </trkpt>
      <trkpt lat="45.65165" lon="6.52639">
        <ele>2070</ele>
        <time>2025-03-30T08:19:00Z</time>
      </trkpt>
      <trkpt lat="45.65139" lon="6.52639">
        <ele>2072</ele>
        <time>2025-03-30T08:19:29Z</time>
      </trkpt>
      <trkpt lat="45.65135" lon="6.5264">
        <ele>2072</ele>
        <time>2025-03-30T08:19:33Z</time>
      </trkpt>
      <trkpt lat="45.65132" lon="6.52641">
        <ele>2073</ele>
        <time>2025-03-30T08:19:37Z</time>
      </trkpt>
      <trkpt lat="45.65126" lon="6.52641">
        <ele>2073</ele>
        <time>2025-03-30T08:19:45Z</time>
      </trkpt>
      <trkpt lat="45.65118" lon="6.52639">
        <ele>2073</ele>
        <time>2025-03-30T08:20:09Z</time>
      </trkpt>
      <trkpt lat="45.65111" lon="6.52639">
        <ele>2073</ele>
        <time>2025-03-30T08:20:18Z</time>
      </trkpt>
      <trkpt lat="45.65096" lon="6.52634">
        <ele>2075</ele>
        <time>2025-03-30T08:20:34Z</time>
      </trkpt>
      <trkpt lat="45.65092" lon="6.52634">
        <ele>2075</ele>
        <time>2025-03-30T08:20:38Z</time>
      </trkpt>
      <trkpt lat="45.65088" lon="6.52632">
        <ele>2076</ele>
        <time>2025-03-30T08:20:42Z</time>
      </trkpt>
      <trkpt lat="45.65074" lon="6.52631">
        <ele>2077</ele>
        <time>2025-03-30T08:20:58Z</time>
      </trkpt>
      <trkpt lat="45.65071" lon="6.5263">
        <ele>2078</ele>
        <time>2025-03-30T08:21:01Z</time>
      </trkpt>
      <trkpt lat="45.65068" lon="6.5263">
        <ele>2078</ele>
        <time>2025-03-30T08:21:03Z</time>
      </trkpt>
      <trkpt lat="45.65064" lon="6.5263">
        <ele>2077</ele>
        <time>2025-03-30T08:21:07Z</time>
      </trkpt>
      <trkpt lat="45.65057" lon="6.52633">
        <ele>2077</ele>
        <time>2025-03-30T08:21:15Z</time>
      </trkpt>
      <trkpt lat="45.65045" lon="6.52636">
        <ele>2075</ele>
        <time>2025-03-30T08:21:25Z</time>
      </trkpt>
      <trkpt lat="45.65039" lon="6.52639">
        <ele>2073</ele>
        <time>2025-03-30T08:21:30Z</time>
      </trkpt>
      <trkpt lat="45.65026" lon="6.52641">
        <ele>2073</ele>
        <time>2025-03-30T08:21:43Z</time>
      </trkpt>
      <trkpt lat="45.65" lon="6.52655">
        <ele>2070</ele>
        <time>2025-03-30T08:22:10Z</time>
      </trkpt>
      <trkpt lat="45.64983" lon="6.52669">
        <ele>2076</ele>
        <time>2025-03-30T08:22:31Z</time>
      </trkpt>
      <trkpt lat="45.6498" lon="6.52673">
        <ele>2077</ele>
        <time>2025-03-30T08:22:36Z</time>
      </trkpt>
      <trkpt lat="45.64964" lon="6.5269">
        <ele>2080</ele>
        <time>2025-03-30T08:22:58Z</time>
      </trkpt>
      <trkpt lat="45.64963" lon="6.52694">
        <ele>2081</ele>
        <time>2025-03-30T08:23:02Z</time>
      </trkpt>
      <trkpt lat="45.64962" lon="6.52698">
        <ele>2081</ele>
        <time>2025-03-30T08:23:05Z</time>
      </trkpt>
      <trkpt lat="45.64953" lon="6.52714">
        <ele>2084</ele>
        <time>2025-03-30T08:23:31Z</time>
      </trkpt>
      <trkpt lat="45.64952" lon="6.52718">
        <ele>2085</ele>
        <time>2025-03-30T08:23:35Z</time>
      </trkpt>
      <trkpt lat="45.64948" lon="6.52726">
        <ele>2086</ele>
        <time>2025-03-30T08:23:43Z</time>
      </trkpt>
      <trkpt lat="45.64947" lon="6.52729">
        <ele>2088</ele>
        <time>2025-03-30T08:23:47Z</time>
      </trkpt>
      <trkpt lat="45.64947" lon="6.52735">
        <ele>2090</ele>
        <time>2025-03-30T08:23:53Z</time>
      </trkpt>
      <trkpt lat="45.64948" lon="6.52741">
        <ele>2092</ele>
        <time>2025-03-30T08:24:00Z</time>
      </trkpt>
      <trkpt lat="45.64946" lon="6.5276">
        <ele>2098</ele>
        <time>2025-03-30T08:24:18Z</time>
      </trkpt>
      <trkpt lat="45.64946" lon="6.52765">
        <ele>2099</ele>
        <time>2025-03-30T08:24:26Z</time>
      </trkpt>
      <trkpt lat="45.64945" lon="6.52769">
        <ele>2101</ele>
        <time>2025-03-30T08:24:30Z</time>
      </trkpt>
      <trkpt lat="45.64945" lon="6.52775">
        <ele>2102</ele>
        <time>2025-03-30T08:24:36Z</time>
      </trkpt>
      <trkpt lat="45.64945" lon="6.52789">
        <ele>2106</ele>
        <time>2025-03-30T08:24:50Z</time>
      </trkpt>
      <trkpt lat="45.64944" lon="6.52799">
        <ele>2108</ele>
        <time>2025-03-30T08:25:01Z</time>
      </trkpt>
      <trkpt lat="45.64945" lon="6.52804">
        <ele>2110</ele>
        <time>2025-03-30T08:25:07Z</time>
      </trkpt>
      <trkpt lat="45.64945" lon="6.52809">
        <ele>2111</ele>
        <time>2025-03-30T08:25:13Z</time>
      </trkpt>
      <trkpt lat="45.64942" lon="6.5282">
        <ele>2113</ele>
        <time>2025-03-30T08:25:24Z</time>
      </trkpt>
      <trkpt lat="45.6494" lon="6.52838">
        <ele>2117</ele>
        <time>2025-03-30T08:25:42Z</time>
      </trkpt>
      <trkpt lat="45.6494" lon="6.52843">
        <ele>2118</ele>
        <time>2025-03-30T08:25:48Z</time>
      </trkpt>
      <trkpt lat="45.64941" lon="6.52848">
        <ele>2119</ele>
        <time>2025-03-30T08:25:54Z</time>
      </trkpt>
      <trkpt lat="45.64941" lon="6.52852">
        <ele>2119</ele>
        <time>2025-03-30T08:25:58Z</time>
      </trkpt>
      <trkpt lat="45.6494" lon="6.52856">
        <ele>2120</ele>
        <time>2025-03-30T08:26:02Z</time>
      </trkpt>
      <trkpt lat="45.64941" lon="6.52882">
        <ele>2123</ele>
        <time>2025-03-30T08:26:33Z</time>
      </trkpt>
      <trkpt lat="45.64942" lon="6.52894">
        <ele>2126</ele>
        <time>2025-03-30T08:26:45Z</time>
      </trkpt>
      <trkpt lat="45.6494" lon="6.52897">
        <ele>2125</ele>
        <time>2025-03-30T08:26:51Z</time>
      </trkpt>
      <trkpt lat="45.6494" lon="6.52902">
        <ele>2126</ele>
        <time>2025-03-30T08:26:56Z</time>
      </trkpt>
      <trkpt lat="45.64935" lon="6.52928">
        <ele>2127</ele>
        <time>2025-03-30T08:27:22Z</time>
      </trkpt>
      <trkpt lat="45.64912" lon="6.52946">
        <ele>2128</ele>
        <time>2025-03-30T08:27:54Z</time>
      </trkpt>
      <trkpt lat="45.64907" lon="6.52952">
        <ele>2128</ele>
        <time>2025-03-30T08:27:59Z</time>
      </trkpt>
      <trkpt lat="45.64905" lon="6.52956">
        <ele>2127</ele>
        <time>2025-03-30T08:28:03Z</time>
      </trkpt>
      <trkpt lat="45.64904" lon="6.5296">
        <ele>2127</ele>
        <time>2025-03-30T08:28:07Z</time>
      </trkpt>
      <trkpt lat="45.64904" lon="6.52965">
        <ele>2128</ele>
        <time>2025-03-30T08:28:11Z</time>
      </trkpt>
      <trkpt lat="45.64904" lon="6.52969">
        <ele>2129</ele>
        <time>2025-03-30T08:28:15Z</time>
      </trkpt>
      <trkpt lat="45.64904" lon="6.52973">
        <ele>2130</ele>
        <time>2025-03-30T08:28:19Z</time>
      </trkpt>
      <trkpt lat="45.64903" lon="6.52977">
        <ele>2131</ele>
        <time>2025-03-30T08:28:23Z</time>
      </trkpt>
      <trkpt lat="45.64902" lon="6.52981">
        <ele>2132</ele>
        <time>2025-03-30T08:28:28Z</time>
      </trkpt>
      <trkpt lat="45.64902" lon="6.52986">
        <ele>2133</ele>
        <time>2025-03-30T08:28:32Z</time>
      </trkpt>
      <trkpt lat="45.64902" lon="6.52992">
        <ele>2134</ele>
        <time>2025-03-30T08:28:37Z</time>
      </trkpt>
      <trkpt lat="45.64901" lon="6.52996">
        <ele>2136</ele>
        <time>2025-03-30T08:28:41Z</time>
      </trkpt>
      <trkpt lat="45.64899" lon="6.53016">
        <ele>2139</ele>
        <time>2025-03-30T08:29:04Z</time>
      </trkpt>
      <trkpt lat="45.64897" lon="6.53027">
        <ele>2140</ele>
        <time>2025-03-30T08:29:15Z</time>
      </trkpt>
      <trkpt lat="45.64897" lon="6.53032">
        <ele>2140</ele>
        <time>2025-03-30T08:29:19Z</time>
      </trkpt>
      <trkpt lat="45.64894" lon="6.53036">
        <ele>2142</ele>
        <time>2025-03-30T08:32:27Z</time>
      </trkpt>
      <trkpt lat="45.64892" lon="6.53038">
        <ele>2142</ele>
        <time>2025-03-30T08:32:33Z</time>
      </trkpt>
      <trkpt lat="45.64876" lon="6.5305">
        <ele>2139</ele>
        <time>2025-03-30T08:33:04Z</time>
      </trkpt>
      <trkpt lat="45.6483" lon="6.53065">
        <ele>2131</ele>
        <time>2025-03-30T08:33:35Z</time>
      </trkpt>
      <trkpt lat="45.64827" lon="6.53066">
        <ele>2130</ele>
        <time>2025-03-30T08:33:37Z</time>
      </trkpt>
      <trkpt lat="45.64824" lon="6.53066">
        <ele>2130</ele>
        <time>2025-03-30T08:33:41Z</time>
      </trkpt>
      <trkpt lat="45.64821" lon="6.53069">
        <ele>2130</ele>
        <time>2025-03-30T08:37:57Z</time>
      </trkpt>
      <trkpt lat="45.64795" lon="6.53082">
        <ele>2129</ele>
        <time>2025-03-30T08:38:27Z</time>
      </trkpt>
      <trkpt lat="45.64791" lon="6.53083">
        <ele>2129</ele>
        <time>2025-03-30T08:38:31Z</time>
      </trkpt>
      <trkpt lat="45.6477" lon="6.53108">
        <ele>2126</ele>
        <time>2025-03-30T08:39:02Z</time>
      </trkpt>
      <trkpt lat="45.64767" lon="6.53112">
        <ele>2126</ele>
        <time>2025-03-30T08:39:07Z</time>
      </trkpt>
      <trkpt lat="45.64765" lon="6.53116">
        <ele>2126</ele>
        <time>2025-03-30T08:39:11Z</time>
      </trkpt>
      <trkpt lat="45.6476" lon="6.53125">
        <ele>2126</ele>
        <time>2025-03-30T08:39:23Z</time>
      </trkpt>
      <trkpt lat="45.64757" lon="6.53129">
        <ele>2127</ele>
        <time>2025-03-30T08:39:29Z</time>
      </trkpt>
      <trkpt lat="45.64754" lon="6.53134">
        <ele>2126</ele>
        <time>2025-03-30T08:39:37Z</time>
      </trkpt>
      <trkpt lat="45.64746" lon="6.53145">
        <ele>2129</ele>
        <time>2025-03-30T08:39:55Z</time>
      </trkpt>
      <trkpt lat="45.64732" lon="6.53162">
        <ele>2131</ele>
        <time>2025-03-30T08:40:27Z</time>
      </trkpt>
      <trkpt lat="45.64725" lon="6.53168">
        <ele>2133</ele>
        <time>2025-03-30T08:40:42Z</time>
      </trkpt>
      <trkpt lat="45.64719" lon="6.53171">
        <ele>2134</ele>
        <time>2025-03-30T08:40:51Z</time>
      </trkpt>
      <trkpt lat="45.64716" lon="6.53173">
        <ele>2135</ele>
        <time>2025-03-30T08:40:56Z</time>
      </trkpt>
      <trkpt lat="45.64711" lon="6.53177">
        <ele>2137</ele>
        <time>2025-03-30T08:41:04Z</time>
      </trkpt>
      <trkpt lat="45.64709" lon="6.53177">
        <ele>2138</ele>
        <time>2025-03-30T08:41:10Z</time>
      </trkpt>
      <trkpt lat="45.64706" lon="6.53177">
        <ele>2139</ele>
        <time>2025-03-30T08:41:14Z</time>
      </trkpt>
      <trkpt lat="45.64703" lon="6.53178">
        <ele>2139</ele>
        <time>2025-03-30T08:41:18Z</time>
      </trkpt>
      <trkpt lat="45.64701" lon="6.53177">
        <ele>2139</ele>
        <time>2025-03-30T08:41:23Z</time>
      </trkpt>
      <trkpt lat="45.64691" lon="6.5317">
        <ele>2140</ele>
        <time>2025-03-30T08:41:43Z</time>
      </trkpt>
      <trkpt lat="45.64688" lon="6.53171">
        <ele>2140</ele>
        <time>2025-03-30T08:41:49Z</time>
      </trkpt>
      <trkpt lat="45.64686" lon="6.53168">
        <ele>2140</ele>
        <time>2025-03-30T08:41:53Z</time>
      </trkpt>
      <trkpt lat="45.64679" lon="6.53167">
        <ele>2141</ele>
        <time>2025-03-30T08:42:17Z</time>
      </trkpt>
      <trkpt lat="45.64674" lon="6.53165">
        <ele>2142</ele>
        <time>2025-03-30T08:42:29Z</time>
      </trkpt>
      <trkpt lat="45.6467" lon="6.53166">
        <ele>2142</ele>
        <time>2025-03-30T08:42:35Z</time>
      </trkpt>
      <trkpt lat="45.64662" lon="6.53164">
        <ele>2145</ele>
        <time>2025-03-30T08:42:53Z</time>
      </trkpt>
      <trkpt lat="45.64656" lon="6.53159">
        <ele>2146</ele>
        <time>2025-03-30T08:43:21Z</time>
      </trkpt>
      <trkpt lat="45.64652" lon="6.5316">
        <ele>2146</ele>
        <time>2025-03-30T08:43:27Z</time>
      </trkpt>
      <trkpt lat="45.64648" lon="6.53158">
        <ele>2146</ele>
        <time>2025-03-30T08:43:33Z</time>
      </trkpt>
      <trkpt lat="45.64644" lon="6.53156">
        <ele>2147</ele>
        <time>2025-03-30T08:43:40Z</time>
      </trkpt>
      <trkpt lat="45.64641" lon="6.53157">
        <ele>2148</ele>
        <time>2025-03-30T08:43:44Z</time>
      </trkpt>
      <trkpt lat="45.64637" lon="6.53156">
        <ele>2149</ele>
        <time>2025-03-30T08:43:49Z</time>
      </trkpt>
      <trkpt lat="45.64635" lon="6.53152">
        <ele>2150</ele>
        <time>2025-03-30T08:43:55Z</time>
      </trkpt>
      <trkpt lat="45.64632" lon="6.53152">
        <ele>2151</ele>
        <time>2025-03-30T08:45:30Z</time>
      </trkpt>
      <trkpt lat="45.64626" lon="6.53149">
        <ele>2154</ele>
        <time>2025-03-30T08:45:39Z</time>
      </trkpt>
      <trkpt lat="45.64623" lon="6.53148">
        <ele>2155</ele>
        <time>2025-03-30T08:45:43Z</time>
      </trkpt>
      <trkpt lat="45.6462" lon="6.53143">
        <ele>2155</ele>
        <time>2025-03-30T08:45:51Z</time>
      </trkpt>
      <trkpt lat="45.64604" lon="6.53132">
        <ele>2159</ele>
        <time>2025-03-30T08:46:20Z</time>
      </trkpt>
      <trkpt lat="45.64601" lon="6.5313">
        <ele>2160</ele>
        <time>2025-03-30T08:46:24Z</time>
      </trkpt>
      <trkpt lat="45.646" lon="6.53127">
        <ele>2160</ele>
        <time>2025-03-30T08:46:28Z</time>
      </trkpt>
      <trkpt lat="45.64598" lon="6.53125">
        <ele>2160</ele>
        <time>2025-03-30T08:46:32Z</time>
      </trkpt>
      <trkpt lat="45.64589" lon="6.53118">
        <ele>2162</ele>
        <time>2025-03-30T08:46:47Z</time>
      </trkpt>
      <trkpt lat="45.64588" lon="6.53114">
        <ele>2163</ele>
        <time>2025-03-30T08:46:54Z</time>
      </trkpt>
      <trkpt lat="45.64585" lon="6.53112">
        <ele>2164</ele>
        <time>2025-03-30T08:46:58Z</time>
      </trkpt>
      <trkpt lat="45.64588" lon="6.5311">
        <ele>2164</ele>
        <time>2025-03-30T08:47:17Z</time>
      </trkpt>
      <trkpt lat="45.64593" lon="6.53111">
        <ele>2167</ele>
        <time>2025-03-30T08:47:25Z</time>
      </trkpt>
      <trkpt lat="45.64596" lon="6.53112">
        <ele>2171</ele>
        <time>2025-03-30T08:48:47Z</time>
      </trkpt>
      <trkpt lat="45.64619" lon="6.53107">
        <ele>2176</ele>
        <time>2025-03-30T08:49:19Z</time>
      </trkpt>
      <trkpt lat="45.64638" lon="6.53096">
        <ele>2180</ele>
        <time>2025-03-30T08:49:53Z</time>
      </trkpt>
      <trkpt lat="45.64649" lon="6.53092">
        <ele>2181</ele>
        <time>2025-03-30T08:50:09Z</time>
      </trkpt>
      <trkpt lat="45.64646" lon="6.53089">
        <ele>2182</ele>
        <time>2025-03-30T08:50:25Z</time>
      </trkpt>
      <trkpt lat="45.64644" lon="6.53088">
        <ele>2184</ele>
        <time>2025-03-30T08:50:29Z</time>
      </trkpt>
      <trkpt lat="45.64642" lon="6.53086">
        <ele>2185</ele>
        <time>2025-03-30T08:50:33Z</time>
      </trkpt>
      <trkpt lat="45.64637" lon="6.53084">
        <ele>2186</ele>
        <time>2025-03-30T08:50:42Z</time>
      </trkpt>
      <trkpt lat="45.64635" lon="6.53081">
        <ele>2186</ele>
        <time>2025-03-30T08:50:47Z</time>
      </trkpt>
      <trkpt lat="45.64631" lon="6.5308">
        <ele>2186</ele>
        <time>2025-03-30T08:50:54Z</time>
      </trkpt>
      <trkpt lat="45.64627" lon="6.53076">
        <ele>2186</ele>
        <time>2025-03-30T08:51:04Z</time>
      </trkpt>
      <trkpt lat="45.64621" lon="6.53072">
        <ele>2189</ele>
        <time>2025-03-30T08:51:14Z</time>
      </trkpt>
      <trkpt lat="45.64615" lon="6.53067">
        <ele>2189</ele>
        <time>2025-03-30T08:51:25Z</time>
      </trkpt>
      <trkpt lat="45.64617" lon="6.53068">
        <ele>2189</ele>
        <time>2025-03-30T08:51:38Z</time>
      </trkpt>
      <trkpt lat="45.64625" lon="6.53064">
        <ele>2191</ele>
        <time>2025-03-30T08:51:59Z</time>
      </trkpt>
      <trkpt lat="45.64628" lon="6.53063">
        <ele>2192</ele>
        <time>2025-03-30T08:52:03Z</time>
      </trkpt>
      <trkpt lat="45.64633" lon="6.53062">
        <ele>2193</ele>
        <time>2025-03-30T08:52:21Z</time>
      </trkpt>
      <trkpt lat="45.64637" lon="6.5306">
        <ele>2193</ele>
        <time>2025-03-30T08:52:28Z</time>
      </trkpt>
      <trkpt lat="45.64641" lon="6.53059">
        <ele>2195</ele>
        <time>2025-03-30T08:52:34Z</time>
      </trkpt>
      <trkpt lat="45.6464" lon="6.53056">
        <ele>2195</ele>
        <time>2025-03-30T08:52:58Z</time>
      </trkpt>
      <trkpt lat="45.64637" lon="6.53053">
        <ele>2196</ele>
        <time>2025-03-30T08:53:02Z</time>
      </trkpt>
      <trkpt lat="45.64634" lon="6.53051">
        <ele>2197</ele>
        <time>2025-03-30T08:53:07Z</time>
      </trkpt>
      <trkpt lat="45.64632" lon="6.53051">
        <ele>2198</ele>
        <time>2025-03-30T08:53:11Z</time>
      </trkpt>
      <trkpt lat="45.64629" lon="6.53048">
        <ele>2200</ele>
        <time>2025-03-30T08:53:18Z</time>
      </trkpt>
      <trkpt lat="45.64626" lon="6.53046">
        <ele>2201</ele>
        <time>2025-03-30T08:53:24Z</time>
      </trkpt>
      <trkpt lat="45.64624" lon="6.53044">
        <ele>2201</ele>
        <time>2025-03-30T08:53:28Z</time>
      </trkpt>
      <trkpt lat="45.64623" lon="6.53042">
        <ele>2201</ele>
        <time>2025-03-30T08:53:30Z</time>
      </trkpt>
      <trkpt lat="45.64621" lon="6.53041">
        <ele>2201</ele>
        <time>2025-03-30T08:53:32Z</time>
      </trkpt>
      <trkpt lat="45.64617" lon="6.53036">
        <ele>2203</ele>
        <time>2025-03-30T08:53:40Z</time>
      </trkpt>
      <trkpt lat="45.64614" lon="6.53033">
        <ele>2203</ele>
        <time>2025-03-30T08:53:45Z</time>
      </trkpt>
      <trkpt lat="45.64613" lon="6.53029">
        <ele>2203</ele>
        <time>2025-03-30T08:53:49Z</time>
      </trkpt>
      <trkpt lat="45.64615" lon="6.53027">
        <ele>2207</ele>
        <time>2025-03-30T08:54:32Z</time>
      </trkpt>
      <trkpt lat="45.64637" lon="6.53026">
        <ele>2214</ele>
        <time>2025-03-30T08:55:03Z</time>
      </trkpt>
      <trkpt lat="45.6465" lon="6.53025">
        <ele>2217</ele>
        <time>2025-03-30T08:55:25Z</time>
      </trkpt>
      <trkpt lat="45.6466" lon="6.53026">
        <ele>2221</ele>
        <time>2025-03-30T08:55:38Z</time>
      </trkpt>
      <trkpt lat="45.64654" lon="6.53017">
        <ele>2221</ele>
        <time>2025-03-30T08:56:08Z</time>
      </trkpt>
      <trkpt lat="45.64652" lon="6.53015">
        <ele>2222</ele>
        <time>2025-03-30T08:56:12Z</time>
      </trkpt>
      <trkpt lat="45.64649" lon="6.53012">
        <ele>2222</ele>
        <time>2025-03-30T08:56:17Z</time>
      </trkpt>
      <trkpt lat="45.64647" lon="6.53008">
        <ele>2222</ele>
        <time>2025-03-30T08:56:23Z</time>
      </trkpt>
      <trkpt lat="45.64644" lon="6.53006">
        <ele>2224</ele>
        <time>2025-03-30T08:56:29Z</time>
      </trkpt>
      <trkpt lat="45.6464" lon="6.53002">
        <ele>2224</ele>
        <time>2025-03-30T08:56:37Z</time>
      </trkpt>
      <trkpt lat="45.64638" lon="6.52999">
        <ele>2224</ele>
        <time>2025-03-30T08:56:41Z</time>
      </trkpt>
      <trkpt lat="45.64632" lon="6.52991">
        <ele>2225</ele>
        <time>2025-03-30T08:56:55Z</time>
      </trkpt>
      <trkpt lat="45.64636" lon="6.52991">
        <ele>2227</ele>
        <time>2025-03-30T08:57:33Z</time>
      </trkpt>
      <trkpt lat="45.6465" lon="6.52985">
        <ele>2233</ele>
        <time>2025-03-30T08:57:59Z</time>
      </trkpt>
      <trkpt lat="45.64648" lon="6.52982">
        <ele>2234</ele>
        <time>2025-03-30T08:58:24Z</time>
      </trkpt>
      <trkpt lat="45.64647" lon="6.52979">
        <ele>2235</ele>
        <time>2025-03-30T08:58:29Z</time>
      </trkpt>
      <trkpt lat="45.64644" lon="6.52973">
        <ele>2236</ele>
        <time>2025-03-30T08:58:39Z</time>
      </trkpt>
      <trkpt lat="45.64642" lon="6.52972">
        <ele>2235</ele>
        <time>2025-03-30T08:58:45Z</time>
      </trkpt>
      <trkpt lat="45.6464" lon="6.52969">
        <ele>2236</ele>
        <time>2025-03-30T08:58:51Z</time>
      </trkpt>
      <trkpt lat="45.64641" lon="6.52966">
        <ele>2238</ele>
        <time>2025-03-30T08:59:19Z</time>
      </trkpt>
      <trkpt lat="45.64644" lon="6.52964">
        <ele>2238</ele>
        <time>2025-03-30T08:59:26Z</time>
      </trkpt>
      <trkpt lat="45.64649" lon="6.52963">
        <ele>2242</ele>
        <time>2025-03-30T08:59:46Z</time>
      </trkpt>
      <trkpt lat="45.64657" lon="6.52963">
        <ele>2245</ele>
        <time>2025-03-30T09:00:00Z</time>
      </trkpt>
      <trkpt lat="45.64656" lon="6.5296">
        <ele>2246</ele>
        <time>2025-03-30T09:00:31Z</time>
      </trkpt>
      <trkpt lat="45.64652" lon="6.52953">
        <ele>2247</ele>
        <time>2025-03-30T09:00:40Z</time>
      </trkpt>
      <trkpt lat="45.6465" lon="6.5295">
        <ele>2247</ele>
        <time>2025-03-30T09:00:45Z</time>
      </trkpt>
      <trkpt lat="45.64645" lon="6.52945">
        <ele>2248</ele>
        <time>2025-03-30T09:00:56Z</time>
      </trkpt>
      <trkpt lat="45.64639" lon="6.52938">
        <ele>2249</ele>
        <time>2025-03-30T09:01:10Z</time>
      </trkpt>
      <trkpt lat="45.64638" lon="6.52934">
        <ele>2250</ele>
        <time>2025-03-30T09:01:16Z</time>
      </trkpt>
      <trkpt lat="45.64639" lon="6.52932">
        <ele>2253</ele>
        <time>2025-03-30T09:01:49Z</time>
      </trkpt>
      <trkpt lat="45.64642" lon="6.52932">
        <ele>2255</ele>
        <time>2025-03-30T09:01:55Z</time>
      </trkpt>
      <trkpt lat="45.64648" lon="6.52931">
        <ele>2258</ele>
        <time>2025-03-30T09:02:07Z</time>
      </trkpt>
      <trkpt lat="45.6465" lon="6.5293">
        <ele>2259</ele>
        <time>2025-03-30T09:02:17Z</time>
      </trkpt>
      <trkpt lat="45.64652" lon="6.52931">
        <ele>2260</ele>
        <time>2025-03-30T09:02:23Z</time>
      </trkpt>
      <trkpt lat="45.64651" lon="6.52927">
        <ele>2260</ele>
        <time>2025-03-30T09:02:50Z</time>
      </trkpt>
      <trkpt lat="45.64648" lon="6.52921">
        <ele>2262</ele>
        <time>2025-03-30T09:02:59Z</time>
      </trkpt>
      <trkpt lat="45.64648" lon="6.52919">
        <ele>2266</ele>
        <time>2025-03-30T09:03:27Z</time>
      </trkpt>
      <trkpt lat="45.64651" lon="6.5292">
        <ele>2267</ele>
        <time>2025-03-30T09:03:31Z</time>
      </trkpt>
      <trkpt lat="45.64666" lon="6.52917">
        <ele>2272</ele>
        <time>2025-03-30T09:04:02Z</time>
      </trkpt>
      <trkpt lat="45.64665" lon="6.52914">
        <ele>2274</ele>
        <time>2025-03-30T09:04:59Z</time>
      </trkpt>
      <trkpt lat="45.64664" lon="6.52911">
        <ele>2274</ele>
        <time>2025-03-30T09:05:07Z</time>
      </trkpt>
      <trkpt lat="45.64661" lon="6.52905">
        <ele>2276</ele>
        <time>2025-03-30T09:05:31Z</time>
      </trkpt>
      <trkpt lat="45.64659" lon="6.52901">
        <ele>2278</ele>
        <time>2025-03-30T09:05:37Z</time>
      </trkpt>
      <trkpt lat="45.64656" lon="6.52894">
        <ele>2280</ele>
        <time>2025-03-30T09:05:47Z</time>
      </trkpt>
      <trkpt lat="45.64659" lon="6.52893">
        <ele>2281</ele>
        <time>2025-03-30T09:06:40Z</time>
      </trkpt>
      <trkpt lat="45.64664" lon="6.52894">
        <ele>2282</ele>
        <time>2025-03-30T09:06:47Z</time>
      </trkpt>
      <trkpt lat="45.64674" lon="6.52895">
        <ele>2285</ele>
        <time>2025-03-30T09:07:07Z</time>
      </trkpt>
      <trkpt lat="45.64674" lon="6.52891">
        <ele>2288</ele>
        <time>2025-03-30T09:07:31Z</time>
      </trkpt>
      <trkpt lat="45.64669" lon="6.52882">
        <ele>2292</ele>
        <time>2025-03-30T09:07:48Z</time>
      </trkpt>
      <trkpt lat="45.64664" lon="6.52879">
        <ele>2295</ele>
        <time>2025-03-30T09:08:13Z</time>
      </trkpt>
      <trkpt lat="45.64662" lon="6.52876">
        <ele>2295</ele>
        <time>2025-03-30T09:08:17Z</time>
      </trkpt>
      <trkpt lat="45.64661" lon="6.52872">
        <ele>2294</ele>
        <time>2025-03-30T09:08:22Z</time>
      </trkpt>
      <trkpt lat="45.6465" lon="6.52859">
        <ele>2296</ele>
        <time>2025-03-30T09:08:50Z</time>
      </trkpt>
      <trkpt lat="45.64651" lon="6.52858">
        <ele>2299</ele>
        <time>2025-03-30T09:09:31Z</time>
      </trkpt>
      <trkpt lat="45.64654" lon="6.52859">
        <ele>2299</ele>
        <time>2025-03-30T09:09:35Z</time>
      </trkpt>
      <trkpt lat="45.64671" lon="6.52859">
        <ele>2304</ele>
        <time>2025-03-30T09:10:11Z</time>
      </trkpt>
      <trkpt lat="45.64673" lon="6.5286">
        <ele>2304</ele>
        <time>2025-03-30T09:10:25Z</time>
      </trkpt>
      <trkpt lat="45.64672" lon="6.52856">
        <ele>2305</ele>
        <time>2025-03-30T09:11:04Z</time>
      </trkpt>
      <trkpt lat="45.64669" lon="6.52851">
        <ele>2306</ele>
        <time>2025-03-30T09:11:12Z</time>
      </trkpt>
      <trkpt lat="45.64668" lon="6.52848">
        <ele>2306</ele>
        <time>2025-03-30T09:11:18Z</time>
      </trkpt>
      <trkpt lat="45.64667" lon="6.52846">
        <ele>2308</ele>
        <time>2025-03-30T09:11:57Z</time>
      </trkpt>
      <trkpt lat="45.64673" lon="6.52848">
        <ele>2309</ele>
        <time>2025-03-30T09:12:19Z</time>
      </trkpt>
      <trkpt lat="45.64676" lon="6.5285">
        <ele>2312</ele>
        <time>2025-03-30T09:12:42Z</time>
      </trkpt>
      <trkpt lat="45.64678" lon="6.52854">
        <ele>2312</ele>
        <time>2025-03-30T09:12:57Z</time>
      </trkpt>
      <trkpt lat="45.6468" lon="6.52858">
        <ele>2313</ele>
        <time>2025-03-30T09:13:23Z</time>
      </trkpt>
      <trkpt lat="45.64682" lon="6.52859">
        <ele>2313</ele>
        <time>2025-03-30T09:13:29Z</time>
      </trkpt>
      <trkpt lat="45.64685" lon="6.5286">
        <ele>2314</ele>
        <time>2025-03-30T09:13:48Z</time>
      </trkpt>
      <trkpt lat="45.64688" lon="6.52861">
        <ele>2315</ele>
        <time>2025-03-30T09:14:22Z</time>
      </trkpt>
      <trkpt lat="45.64693" lon="6.52864">
        <ele>2316</ele>
        <time>2025-03-30T09:14:57Z</time>
      </trkpt>
      <trkpt lat="45.64695" lon="6.52868">
        <ele>2315</ele>
        <time>2025-03-30T09:15:15Z</time>
      </trkpt>
      <trkpt lat="45.647" lon="6.52874">
        <ele>2314</ele>
        <time>2025-03-30T09:15:35Z</time>
      </trkpt>
      <trkpt lat="45.64703" lon="6.52876">
        <ele>2314</ele>
        <time>2025-03-30T09:15:41Z</time>
      </trkpt>
      <trkpt lat="45.64706" lon="6.5288">
        <ele>2314</ele>
        <time>2025-03-30T09:15:47Z</time>
      </trkpt>
      <trkpt lat="45.64712" lon="6.52887">
        <ele>2316</ele>
        <time>2025-03-30T09:16:08Z</time>
      </trkpt>
      <trkpt lat="45.64712" lon="6.52883">
        <ele>2317</ele>
        <time>2025-03-30T09:16:27Z</time>
      </trkpt>
      <trkpt lat="45.64712" lon="6.5288">
        <ele>2318</ele>
        <time>2025-03-30T09:16:31Z</time>
      </trkpt>
      <trkpt lat="45.6471" lon="6.52877">
        <ele>2320</ele>
        <time>2025-03-30T09:16:59Z</time>
      </trkpt>
      <trkpt lat="45.6471" lon="6.52874">
        <ele>2322</ele>
        <time>2025-03-30T09:17:33Z</time>
      </trkpt>
      <trkpt lat="45.64709" lon="6.5287">
        <ele>2324</ele>
        <time>2025-03-30T09:22:44Z</time>
      </trkpt>
      <trkpt lat="45.6471" lon="6.52866">
        <ele>2324</ele>
        <time>2025-03-30T09:22:57Z</time>
      </trkpt>
      <trkpt lat="45.64709" lon="6.52863">
        <ele>2325</ele>
        <time>2025-03-30T09:23:15Z</time>
      </trkpt>
      <trkpt lat="45.64708" lon="6.52865">
        <ele>2325</ele>
        <time>2025-03-30T09:33:13Z</time>
      </trkpt>
      <trkpt lat="45.64707" lon="6.52865">
        <ele>2324</ele>
        <time>2025-03-30T09:34:57Z</time>
      </trkpt>
      <trkpt lat="45.64705" lon="6.52865">
        <ele>2323</ele>
        <time>2025-03-30T09:37:45Z</time>
      </trkpt>
      <trkpt lat="45.64703" lon="6.52866">
        <ele>2321</ele>
        <time>2025-03-30T09:37:56Z</time>
      </trkpt>
      <trkpt lat="45.647" lon="6.52867">
        <ele>2319</ele>
        <time>2025-03-30T09:38:10Z</time>
      </trkpt>
      <trkpt lat="45.64688" lon="6.52863">
        <ele>2316</ele>
        <time>2025-03-30T09:38:14Z</time>
      </trkpt>
      <trkpt lat="45.64684" lon="6.52863">
        <ele>2315</ele>
        <time>2025-03-30T09:38:16Z</time>
      </trkpt>
      <trkpt lat="45.64671" lon="6.52859">
        <ele>2312</ele>
        <time>2025-03-30T09:38:20Z</time>
      </trkpt>
      <trkpt lat="45.64665" lon="6.52858">
        <ele>2310</ele>
        <time>2025-03-30T09:38:23Z</time>
      </trkpt>
      <trkpt lat="45.64663" lon="6.52863">
        <ele>2308</ele>
        <time>2025-03-30T09:38:25Z</time>
      </trkpt>
      <trkpt lat="45.64663" lon="6.5287">
        <ele>2307</ele>
        <time>2025-03-30T09:38:27Z</time>
      </trkpt>
      <trkpt lat="45.64659" lon="6.52871">
        <ele>2306</ele>
        <time>2025-03-30T09:38:29Z</time>
      </trkpt>
      <trkpt lat="45.64651" lon="6.52878">
        <ele>2302</ele>
        <time>2025-03-30T09:38:32Z</time>
      </trkpt>
      <trkpt lat="45.64648" lon="6.52886">
        <ele>2299</ele>
        <time>2025-03-30T09:38:34Z</time>
      </trkpt>
      <trkpt lat="45.64651" lon="6.52905">
        <ele>2292</ele>
        <time>2025-03-30T09:38:38Z</time>
      </trkpt>
      <trkpt lat="45.64652" lon="6.52917">
        <ele>2287</ele>
        <time>2025-03-30T09:38:41Z</time>
      </trkpt>
      <trkpt lat="45.6467" lon="6.52933">
        <ele>2277</ele>
        <time>2025-03-30T09:38:47Z</time>
      </trkpt>
      <trkpt lat="45.64679" lon="6.52944">
        <ele>2275</ele>
        <time>2025-03-30T09:38:51Z</time>
      </trkpt>
      <trkpt lat="45.6468" lon="6.5295">
        <ele>2274</ele>
        <time>2025-03-30T09:38:53Z</time>
      </trkpt>
      <trkpt lat="45.64677" lon="6.52955">
        <ele>2271</ele>
        <time>2025-03-30T09:40:49Z</time>
      </trkpt>
      <trkpt lat="45.64679" lon="6.52965">
        <ele>2268</ele>
        <time>2025-03-30T09:40:51Z</time>
      </trkpt>
      <trkpt lat="45.64679" lon="6.52974">
        <ele>2266</ele>
        <time>2025-03-30T09:40:53Z</time>
      </trkpt>
      <trkpt lat="45.64671" lon="6.52972">
        <ele>2263</ele>
        <time>2025-03-30T09:40:55Z</time>
      </trkpt>
      <trkpt lat="45.64663" lon="6.52983">
        <ele>2259</ele>
        <time>2025-03-30T09:40:58Z</time>
      </trkpt>
      <trkpt lat="45.64657" lon="6.5299">
        <ele>2255</ele>
        <time>2025-03-30T09:41:00Z</time>
      </trkpt>
      <trkpt lat="45.64655" lon="6.53">
        <ele>2252</ele>
        <time>2025-03-30T09:41:02Z</time>
      </trkpt>
      <trkpt lat="45.64649" lon="6.53003">
        <ele>2248</ele>
        <time>2025-03-30T09:41:04Z</time>
      </trkpt>
      <trkpt lat="45.6465" lon="6.53013">
        <ele>2244</ele>
        <time>2025-03-30T09:41:06Z</time>
      </trkpt>
      <trkpt lat="45.64644" lon="6.53024">
        <ele>2240</ele>
        <time>2025-03-30T09:41:08Z</time>
      </trkpt>
      <trkpt lat="45.64645" lon="6.53036">
        <ele>2236</ele>
        <time>2025-03-30T09:41:10Z</time>
      </trkpt>
      <trkpt lat="45.64645" lon="6.53046">
        <ele>2234</ele>
        <time>2025-03-30T09:41:12Z</time>
      </trkpt>
      <trkpt lat="45.64641" lon="6.53057">
        <ele>2227</ele>
        <time>2025-03-30T09:41:14Z</time>
      </trkpt>
      <trkpt lat="45.64637" lon="6.53065">
        <ele>2220</ele>
        <time>2025-03-30T09:41:16Z</time>
      </trkpt>
      <trkpt lat="45.64638" lon="6.53072">
        <ele>2215</ele>
        <time>2025-03-30T09:41:18Z</time>
      </trkpt>
      <trkpt lat="45.64606" lon="6.5309">
        <ele>2193</ele>
        <time>2025-03-30T09:41:27Z</time>
      </trkpt>
      <trkpt lat="45.64607" lon="6.53104">
        <ele>2189</ele>
        <time>2025-03-30T09:41:29Z</time>
      </trkpt>
      <trkpt lat="45.64602" lon="6.53109">
        <ele>2186</ele>
        <time>2025-03-30T09:41:31Z</time>
      </trkpt>
      <trkpt lat="45.64599" lon="6.53118">
        <ele>2181</ele>
        <time>2025-03-30T09:41:33Z</time>
      </trkpt>
      <trkpt lat="45.64602" lon="6.5313">
        <ele>2177</ele>
        <time>2025-03-30T09:41:36Z</time>
      </trkpt>
      <trkpt lat="45.64593" lon="6.5313">
        <ele>2173</ele>
        <time>2025-03-30T09:41:38Z</time>
      </trkpt>
      <trkpt lat="45.64586" lon="6.53134">
        <ele>2170</ele>
        <time>2025-03-30T09:41:40Z</time>
      </trkpt>
      <trkpt lat="45.64586" lon="6.53146">
        <ele>2165</ele>
        <time>2025-03-30T09:41:42Z</time>
      </trkpt>
      <trkpt lat="45.64589" lon="6.53147">
        <ele>2164</ele>
        <time>2025-03-30T09:41:45Z</time>
      </trkpt>
      <trkpt lat="45.6459" lon="6.53151">
        <ele>2160</ele>
        <time>2025-03-30T09:45:10Z</time>
      </trkpt>
      <trkpt lat="45.64585" lon="6.53157">
        <ele>2159</ele>
        <time>2025-03-30T09:45:12Z</time>
      </trkpt>
      <trkpt lat="45.64578" lon="6.53159">
        <ele>2158</ele>
        <time>2025-03-30T09:45:14Z</time>
      </trkpt>
      <trkpt lat="45.6457" lon="6.53174">
        <ele>2154</ele>
        <time>2025-03-30T09:45:17Z</time>
      </trkpt>
      <trkpt lat="45.64562" lon="6.53173">
        <ele>2151</ele>
        <time>2025-03-30T09:45:19Z</time>
      </trkpt>
      <trkpt lat="45.64557" lon="6.53181">
        <ele>2148</ele>
        <time>2025-03-30T09:45:21Z</time>
      </trkpt>
      <trkpt lat="45.6455" lon="6.53185">
        <ele>2144</ele>
        <time>2025-03-30T09:45:23Z</time>
      </trkpt>
      <trkpt lat="45.64532" lon="6.53189">
        <ele>2140</ele>
        <time>2025-03-30T09:45:27Z</time>
      </trkpt>
      <trkpt lat="45.64515" lon="6.53185">
        <ele>2137</ele>
        <time>2025-03-30T09:45:31Z</time>
      </trkpt>
      <trkpt lat="45.64499" lon="6.53187">
        <ele>2133</ele>
        <time>2025-03-30T09:45:35Z</time>
      </trkpt>
      <trkpt lat="45.64495" lon="6.53195">
        <ele>2133</ele>
        <time>2025-03-30T09:45:38Z</time>
      </trkpt>
      <trkpt lat="45.64491" lon="6.53202">
        <ele>2132</ele>
        <time>2025-03-30T09:45:40Z</time>
      </trkpt>
      <trkpt lat="45.64485" lon="6.53218">
        <ele>2131</ele>
        <time>2025-03-30T09:45:44Z</time>
      </trkpt>
      <trkpt lat="45.64485" lon="6.53227">
        <ele>2130</ele>
        <time>2025-03-30T09:45:46Z</time>
      </trkpt>
      <trkpt lat="45.64495" lon="6.53285">
        <ele>2125</ele>
        <time>2025-03-30T09:45:58Z</time>
      </trkpt>
      <trkpt lat="45.64495" lon="6.53313">
        <ele>2122</ele>
        <time>2025-03-30T09:46:02Z</time>
      </trkpt>
      <trkpt lat="45.64493" lon="6.53327">
        <ele>2121</ele>
        <time>2025-03-30T09:46:05Z</time>
      </trkpt>
      <trkpt lat="45.64491" lon="6.5333">
        <ele>2121</ele>
        <time>2025-03-30T09:46:07Z</time>
      </trkpt>
      <trkpt lat="45.64486" lon="6.53339">
        <ele>2122</ele>
        <time>2025-03-30T09:46:34Z</time>
      </trkpt>
      <trkpt lat="45.64488" lon="6.53343">
        <ele>2122</ele>
        <time>2025-03-30T09:46:38Z</time>
      </trkpt>
      <trkpt lat="45.6449" lon="6.53341">
        <ele>2121</ele>
        <time>2025-03-30T09:46:40Z</time>
      </trkpt>
      <trkpt lat="45.64491" lon="6.53338">
        <ele>2121</ele>
        <time>2025-03-30T09:47:09Z</time>
      </trkpt>
      <trkpt lat="45.64495" lon="6.53339">
        <ele>2120</ele>
        <time>2025-03-30T09:47:46Z</time>
      </trkpt>
      <trkpt lat="45.64497" lon="6.53346">
        <ele>2119</ele>
        <time>2025-03-30T09:47:48Z</time>
      </trkpt>
      <trkpt lat="45.64502" lon="6.5335">
        <ele>2118</ele>
        <time>2025-03-30T09:47:50Z</time>
      </trkpt>
      <trkpt lat="45.64497" lon="6.53357">
        <ele>2116</ele>
        <time>2025-03-30T09:47:52Z</time>
      </trkpt>
      <trkpt lat="45.64487" lon="6.53361">
        <ele>2113</ele>
        <time>2025-03-30T09:47:56Z</time>
      </trkpt>
      <trkpt lat="45.64483" lon="6.53365">
        <ele>2112</ele>
        <time>2025-03-30T09:47:58Z</time>
      </trkpt>
      <trkpt lat="45.64482" lon="6.5337">
        <ele>2112</ele>
        <time>2025-03-30T09:48:00Z</time>
      </trkpt>
      <trkpt lat="45.64484" lon="6.53375">
        <ele>2111</ele>
        <time>2025-03-30T09:48:02Z</time>
      </trkpt>
      <trkpt lat="45.64484" lon="6.53383">
        <ele>2109</ele>
        <time>2025-03-30T09:48:07Z</time>
      </trkpt>
      <trkpt lat="45.64474" lon="6.53395">
        <ele>2107</ele>
        <time>2025-03-30T09:48:14Z</time>
      </trkpt>
      <trkpt lat="45.64496" lon="6.5339">
        <ele>2102</ele>
        <time>2025-03-30T09:48:22Z</time>
      </trkpt>
      <trkpt lat="45.645" lon="6.53393">
        <ele>2100</ele>
        <time>2025-03-30T09:48:24Z</time>
      </trkpt>
      <trkpt lat="45.64506" lon="6.53395">
        <ele>2098</ele>
        <time>2025-03-30T09:48:26Z</time>
      </trkpt>
      <trkpt lat="45.64511" lon="6.53389">
        <ele>2097</ele>
        <time>2025-03-30T09:48:28Z</time>
      </trkpt>
      <trkpt lat="45.64516" lon="6.53389">
        <ele>2096</ele>
        <time>2025-03-30T09:48:30Z</time>
      </trkpt>
      <trkpt lat="45.64518" lon="6.53396">
        <ele>2094</ele>
        <time>2025-03-30T09:48:32Z</time>
      </trkpt>
      <trkpt lat="45.6452" lon="6.534">
        <ele>2093</ele>
        <time>2025-03-30T09:48:34Z</time>
      </trkpt>
      <trkpt lat="45.64523" lon="6.53407">
        <ele>2089</ele>
        <time>2025-03-30T09:48:38Z</time>
      </trkpt>
      <trkpt lat="45.64526" lon="6.53408">
        <ele>2088</ele>
        <time>2025-03-30T09:48:40Z</time>
      </trkpt>
      <trkpt lat="45.64529" lon="6.53416">
        <ele>2083</ele>
        <time>2025-03-30T09:48:44Z</time>
      </trkpt>
      <trkpt lat="45.64537" lon="6.53414">
        <ele>2082</ele>
        <time>2025-03-30T09:48:46Z</time>
      </trkpt>
      <trkpt lat="45.64543" lon="6.53415">
        <ele>2080</ele>
        <time>2025-03-30T09:48:48Z</time>
      </trkpt>
      <trkpt lat="45.64544" lon="6.53423">
        <ele>2078</ele>
        <time>2025-03-30T09:48:50Z</time>
      </trkpt>
      <trkpt lat="45.64554" lon="6.53431">
        <ele>2074</ele>
        <time>2025-03-30T09:48:53Z</time>
      </trkpt>
      <trkpt lat="45.64563" lon="6.53431">
        <ele>2067</ele>
        <time>2025-03-30T09:49:00Z</time>
      </trkpt>
      <trkpt lat="45.64569" lon="6.5343">
        <ele>2064</ele>
        <time>2025-03-30T09:49:02Z</time>
      </trkpt>
      <trkpt lat="45.64567" lon="6.53443">
        <ele>2060</ele>
        <time>2025-03-30T09:49:04Z</time>
      </trkpt>
      <trkpt lat="45.64573" lon="6.53451">
        <ele>2056</ele>
        <time>2025-03-30T09:49:06Z</time>
      </trkpt>
      <trkpt lat="45.64586" lon="6.53457">
        <ele>2052</ele>
        <time>2025-03-30T09:49:09Z</time>
      </trkpt>
      <trkpt lat="45.64583" lon="6.53465">
        <ele>2048</ele>
        <time>2025-03-30T09:49:11Z</time>
      </trkpt>
      <trkpt lat="45.6457" lon="6.53475">
        <ele>2045</ele>
        <time>2025-03-30T09:49:15Z</time>
      </trkpt>
      <trkpt lat="45.64568" lon="6.53478">
        <ele>2042</ele>
        <time>2025-03-30T09:49:23Z</time>
      </trkpt>
      <trkpt lat="45.64574" lon="6.53484">
        <ele>2038</ele>
        <time>2025-03-30T09:49:42Z</time>
      </trkpt>
      <trkpt lat="45.64584" lon="6.53483">
        <ele>2035</ele>
        <time>2025-03-30T09:49:44Z</time>
      </trkpt>
      <trkpt lat="45.64594" lon="6.53491">
        <ele>2032</ele>
        <time>2025-03-30T09:49:47Z</time>
      </trkpt>
      <trkpt lat="45.64596" lon="6.53501">
        <ele>2030</ele>
        <time>2025-03-30T09:49:49Z</time>
      </trkpt>
      <trkpt lat="45.64602" lon="6.53504">
        <ele>2027</ele>
        <time>2025-03-30T09:49:51Z</time>
      </trkpt>
      <trkpt lat="45.64604" lon="6.53514">
        <ele>2024</ele>
        <time>2025-03-30T09:49:53Z</time>
      </trkpt>
      <trkpt lat="45.64615" lon="6.53521">
        <ele>2020</ele>
        <time>2025-03-30T09:49:56Z</time>
      </trkpt>
      <trkpt lat="45.64619" lon="6.5353">
        <ele>2017</ele>
        <time>2025-03-30T09:49:58Z</time>
      </trkpt>
      <trkpt lat="45.64628" lon="6.53532">
        <ele>2014</ele>
        <time>2025-03-30T09:50:00Z</time>
      </trkpt>
      <trkpt lat="45.64635" lon="6.53539">
        <ele>2011</ele>
        <time>2025-03-30T09:50:02Z</time>
      </trkpt>
      <trkpt lat="45.64645" lon="6.53538">
        <ele>2008</ele>
        <time>2025-03-30T09:50:04Z</time>
      </trkpt>
      <trkpt lat="45.64644" lon="6.53547">
        <ele>2006</ele>
        <time>2025-03-30T09:50:06Z</time>
      </trkpt>
      <trkpt lat="45.64647" lon="6.53557">
        <ele>2003</ele>
        <time>2025-03-30T09:50:08Z</time>
      </trkpt>
      <trkpt lat="45.64652" lon="6.53562">
        <ele>2000</ele>
        <time>2025-03-30T09:50:10Z</time>
      </trkpt>
      <trkpt lat="45.64643" lon="6.53579">
        <ele>1992</ele>
        <time>2025-03-30T09:50:14Z</time>
      </trkpt>
      <trkpt lat="45.64633" lon="6.5359">
        <ele>1986</ele>
        <time>2025-03-30T09:50:20Z</time>
      </trkpt>
      <trkpt lat="45.64628" lon="6.53592">
        <ele>1984</ele>
        <time>2025-03-30T09:50:22Z</time>
      </trkpt>
      <trkpt lat="45.64632" lon="6.53596">
        <ele>1982</ele>
        <time>2025-03-30T09:50:27Z</time>
      </trkpt>
      <trkpt lat="45.64637" lon="6.53598">
        <ele>1980</ele>
        <time>2025-03-30T09:50:32Z</time>
      </trkpt>
      <trkpt lat="45.64639" lon="6.53601">
        <ele>1979</ele>
        <time>2025-03-30T09:50:34Z</time>
      </trkpt>
      <trkpt lat="45.64636" lon="6.53606">
        <ele>1977</ele>
        <time>2025-03-30T09:50:38Z</time>
      </trkpt>
      <trkpt lat="45.64624" lon="6.53611">
        <ele>1970</ele>
        <time>2025-03-30T09:50:43Z</time>
      </trkpt>
      <trkpt lat="45.64614" lon="6.53613">
        <ele>1968</ele>
        <time>2025-03-30T09:50:45Z</time>
      </trkpt>
      <trkpt lat="45.64604" lon="6.53615">
        <ele>1966</ele>
        <time>2025-03-30T09:50:47Z</time>
      </trkpt>
      <trkpt lat="45.64574" lon="6.53621">
        <ele>1960</ele>
        <time>2025-03-30T09:50:53Z</time>
      </trkpt>
      <trkpt lat="45.64567" lon="6.53628">
        <ele>1959</ele>
        <time>2025-03-30T09:50:55Z</time>
      </trkpt>
      <trkpt lat="45.64562" lon="6.53636">
        <ele>1958</ele>
        <time>2025-03-30T09:50:57Z</time>
      </trkpt>
      <trkpt lat="45.64563" lon="6.53631">
        <ele>1957</ele>
        <time>2025-03-30T09:53:04Z</time>
      </trkpt>
      <trkpt lat="45.64564" lon="6.53628">
        <ele>1945</ele>
        <time>2025-03-30T09:56:20Z</time>
      </trkpt>
      <trkpt lat="45.6456" lon="6.53628">
        <ele>1946</ele>
        <time>2025-03-30T09:57:15Z</time>
      </trkpt>
      <trkpt lat="45.64547" lon="6.53637">
        <ele>1945</ele>
        <time>2025-03-30T09:57:36Z</time>
      </trkpt>
      <trkpt lat="45.64544" lon="6.53639">
        <ele>1945</ele>
        <time>2025-03-30T09:57:40Z</time>
      </trkpt>
      <trkpt lat="45.64543" lon="6.53642">
        <ele>1945</ele>
        <time>2025-03-30T09:57:44Z</time>
      </trkpt>
      <trkpt lat="45.6454" lon="6.53647">
        <ele>1946</ele>
        <time>2025-03-30T09:57:50Z</time>
      </trkpt>
      <trkpt lat="45.64538" lon="6.53652">
        <ele>1946</ele>
        <time>2025-03-30T09:57:54Z</time>
      </trkpt>
      <trkpt lat="45.64536" lon="6.53656">
        <ele>1948</ele>
        <time>2025-03-30T09:57:59Z</time>
      </trkpt>
      <trkpt lat="45.64536" lon="6.53661">
        <ele>1949</ele>
        <time>2025-03-30T09:58:03Z</time>
      </trkpt>
      <trkpt lat="45.64536" lon="6.53665">
        <ele>1951</ele>
        <time>2025-03-30T09:58:10Z</time>
      </trkpt>
      <trkpt lat="45.64534" lon="6.53673">
        <ele>1954</ele>
        <time>2025-03-30T09:58:19Z</time>
      </trkpt>
      <trkpt lat="45.64533" lon="6.53677">
        <ele>1954</ele>
        <time>2025-03-30T09:58:23Z</time>
      </trkpt>
      <trkpt lat="45.64532" lon="6.53681">
        <ele>1954</ele>
        <time>2025-03-30T09:58:29Z</time>
      </trkpt>
      <trkpt lat="45.64529" lon="6.53682">
        <ele>1955</ele>
        <time>2025-03-30T09:58:35Z</time>
      </trkpt>
      <trkpt lat="45.64528" lon="6.53678">
        <ele>1956</ele>
        <time>2025-03-30T09:58:39Z</time>
      </trkpt>
      <trkpt lat="45.64526" lon="6.53669">
        <ele>1958</ele>
        <time>2025-03-30T09:58:48Z</time>
      </trkpt>
      <trkpt lat="45.64524" lon="6.53663">
        <ele>1958</ele>
        <time>2025-03-30T09:58:55Z</time>
      </trkpt>
      <trkpt lat="45.64521" lon="6.53661">
        <ele>1958</ele>
        <time>2025-03-30T09:59:00Z</time>
      </trkpt>
      <trkpt lat="45.64519" lon="6.53663">
        <ele>1958</ele>
        <time>2025-03-30T09:59:08Z</time>
      </trkpt>
      <trkpt lat="45.64514" lon="6.53671">
        <ele>1958</ele>
        <time>2025-03-30T09:59:20Z</time>
      </trkpt>
      <trkpt lat="45.64514" lon="6.53675">
        <ele>1957</ele>
        <time>2025-03-30T09:59:26Z</time>
      </trkpt>
      <trkpt lat="45.64514" lon="6.53681">
        <ele>1961</ele>
        <time>2025-03-30T09:59:37Z</time>
      </trkpt>
      <trkpt lat="45.64516" lon="6.53685">
        <ele>1964</ele>
        <time>2025-03-30T09:59:43Z</time>
      </trkpt>
      <trkpt lat="45.64512" lon="6.53684">
        <ele>1966</ele>
        <time>2025-03-30T10:00:07Z</time>
      </trkpt>
      <trkpt lat="45.6451" lon="6.53682">
        <ele>1966</ele>
        <time>2025-03-30T10:00:11Z</time>
      </trkpt>
      <trkpt lat="45.645" lon="6.53675">
        <ele>1966</ele>
        <time>2025-03-30T10:00:27Z</time>
      </trkpt>
      <trkpt lat="45.64497" lon="6.53673">
        <ele>1966</ele>
        <time>2025-03-30T10:00:32Z</time>
      </trkpt>
      <trkpt lat="45.64494" lon="6.53673">
        <ele>1966</ele>
        <time>2025-03-30T10:00:38Z</time>
      </trkpt>
      <trkpt lat="45.64491" lon="6.5367">
        <ele>1966</ele>
        <time>2025-03-30T10:00:46Z</time>
      </trkpt>
      <trkpt lat="45.64488" lon="6.53667">
        <ele>1966</ele>
        <time>2025-03-30T10:00:54Z</time>
      </trkpt>
      <trkpt lat="45.64477" lon="6.53658">
        <ele>1966</ele>
        <time>2025-03-30T10:01:17Z</time>
      </trkpt>
      <trkpt lat="45.64474" lon="6.53647">
        <ele>1968</ele>
        <time>2025-03-30T10:01:30Z</time>
      </trkpt>
      <trkpt lat="45.64473" lon="6.53641">
        <ele>1969</ele>
        <time>2025-03-30T10:01:36Z</time>
      </trkpt>
      <trkpt lat="45.64474" lon="6.53642">
        <ele>1972</ele>
        <time>2025-03-30T10:01:49Z</time>
      </trkpt>
      <trkpt lat="45.64473" lon="6.53644">
        <ele>1972</ele>
        <time>2025-03-30T10:01:51Z</time>
      </trkpt>
      <trkpt lat="45.64473" lon="6.53651">
        <ele>1975</ele>
        <time>2025-03-30T10:01:58Z</time>
      </trkpt>
      <trkpt lat="45.64473" lon="6.53656">
        <ele>1977</ele>
        <time>2025-03-30T10:02:03Z</time>
      </trkpt>
      <trkpt lat="45.64474" lon="6.5366">
        <ele>1978</ele>
        <time>2025-03-30T10:02:07Z</time>
      </trkpt>
      <trkpt lat="45.64475" lon="6.53663">
        <ele>1979</ele>
        <time>2025-03-30T10:02:11Z</time>
      </trkpt>
      <trkpt lat="45.64478" lon="6.53676">
        <ele>1981</ele>
        <time>2025-03-30T10:02:25Z</time>
      </trkpt>
      <trkpt lat="45.64479" lon="6.53679">
        <ele>1982</ele>
        <time>2025-03-30T10:02:29Z</time>
      </trkpt>
      <trkpt lat="45.64484" lon="6.53691">
        <ele>1988</ele>
        <time>2025-03-30T10:02:47Z</time>
      </trkpt>
      <trkpt lat="45.64488" lon="6.53698">
        <ele>1989</ele>
        <time>2025-03-30T10:02:58Z</time>
      </trkpt>
      <trkpt lat="45.64489" lon="6.53701">
        <ele>1990</ele>
        <time>2025-03-30T10:03:02Z</time>
      </trkpt>
      <trkpt lat="45.64493" lon="6.53717">
        <ele>1994</ele>
        <time>2025-03-30T10:03:32Z</time>
      </trkpt>
      <trkpt lat="45.64493" lon="6.53722">
        <ele>1994</ele>
        <time>2025-03-30T10:03:36Z</time>
      </trkpt>
      <trkpt lat="45.64495" lon="6.53725">
        <ele>1995</ele>
        <time>2025-03-30T10:03:40Z</time>
      </trkpt>
      <trkpt lat="45.64496" lon="6.53729">
        <ele>1995</ele>
        <time>2025-03-30T10:03:44Z</time>
      </trkpt>
      <trkpt lat="45.64498" lon="6.5374">
        <ele>1996</ele>
        <time>2025-03-30T10:03:55Z</time>
      </trkpt>
      <trkpt lat="45.64498" lon="6.53744">
        <ele>1996</ele>
        <time>2025-03-30T10:03:59Z</time>
      </trkpt>
      <trkpt lat="45.64501" lon="6.5376">
        <ele>1996</ele>
        <time>2025-03-30T10:04:17Z</time>
      </trkpt>
      <trkpt lat="45.64503" lon="6.53768">
        <ele>1995</ele>
        <time>2025-03-30T10:04:25Z</time>
      </trkpt>
      <trkpt lat="45.64505" lon="6.53772">
        <ele>1995</ele>
        <time>2025-03-30T10:04:29Z</time>
      </trkpt>
      <trkpt lat="45.64507" lon="6.53779">
        <ele>1996</ele>
        <time>2025-03-30T10:04:37Z</time>
      </trkpt>
      <trkpt lat="45.64508" lon="6.53791">
        <ele>1998</ele>
        <time>2025-03-30T10:04:49Z</time>
      </trkpt>
      <trkpt lat="45.64508" lon="6.53794">
        <ele>1999</ele>
        <time>2025-03-30T10:04:53Z</time>
      </trkpt>
      <trkpt lat="45.64506" lon="6.53797">
        <ele>1999</ele>
        <time>2025-03-30T10:05:29Z</time>
      </trkpt>
      <trkpt lat="45.64505" lon="6.53798">
        <ele>1998</ele>
        <time>2025-03-30T10:05:31Z</time>
      </trkpt>
      <trkpt lat="45.64503" lon="6.53803">
        <ele>1998</ele>
        <time>2025-03-30T10:05:36Z</time>
      </trkpt>
      <trkpt lat="45.64503" lon="6.53806">
        <ele>1997</ele>
        <time>2025-03-30T10:05:40Z</time>
      </trkpt>
      <trkpt lat="45.64502" lon="6.53808">
        <ele>1997</ele>
        <time>2025-03-30T10:05:43Z</time>
      </trkpt>
      <trkpt lat="45.64501" lon="6.53812">
        <ele>1997</ele>
        <time>2025-03-30T10:05:47Z</time>
      </trkpt>
      <trkpt lat="45.645" lon="6.53814">
        <ele>1997</ele>
        <time>2025-03-30T10:05:51Z</time>
      </trkpt>
      <trkpt lat="45.64498" lon="6.53817">
        <ele>1997</ele>
        <time>2025-03-30T10:05:55Z</time>
      </trkpt>
      <trkpt lat="45.64496" lon="6.53814">
        <ele>1998</ele>
        <time>2025-03-30T10:06:01Z</time>
      </trkpt>
      <trkpt lat="45.64494" lon="6.5381">
        <ele>1999</ele>
        <time>2025-03-30T10:06:05Z</time>
      </trkpt>
      <trkpt lat="45.64484" lon="6.53802">
        <ele>1999</ele>
        <time>2025-03-30T10:06:25Z</time>
      </trkpt>
      <trkpt lat="45.64482" lon="6.53799">
        <ele>2000</ele>
        <time>2025-03-30T10:06:30Z</time>
      </trkpt>
      <trkpt lat="45.6448" lon="6.53798">
        <ele>2000</ele>
        <time>2025-03-30T10:06:34Z</time>
      </trkpt>
      <trkpt lat="45.64477" lon="6.53797">
        <ele>1999</ele>
        <time>2025-03-30T10:06:38Z</time>
      </trkpt>
      <trkpt lat="45.64475" lon="6.53795">
        <ele>2000</ele>
        <time>2025-03-30T10:06:42Z</time>
      </trkpt>
      <trkpt lat="45.64474" lon="6.53793">
        <ele>2001</ele>
        <time>2025-03-30T10:06:48Z</time>
      </trkpt>
      <trkpt lat="45.64473" lon="6.5379">
        <ele>2004</ele>
        <time>2025-03-30T10:07:44Z</time>
      </trkpt>
      <trkpt lat="45.64471" lon="6.53788">
        <ele>2009</ele>
        <time>2025-03-30T10:35:30Z</time>
      </trkpt>
      <trkpt lat="45.64469" lon="6.53789">
        <ele>2008</ele>
        <time>2025-03-30T10:35:47Z</time>
      </trkpt>
      <trkpt lat="45.64471" lon="6.53788">
        <ele>2008</ele>
        <time>2025-03-30T10:41:27Z</time>
      </trkpt>
      <trkpt lat="45.64472" lon="6.53791">
        <ele>2009</ele>
        <time>2025-03-30T10:43:24Z</time>
      </trkpt>
      <trkpt lat="45.64472" lon="6.53796">
        <ele>2010</ele>
        <time>2025-03-30T10:43:56Z</time>
      </trkpt>
      <trkpt lat="45.64474" lon="6.538">
        <ele>2010</ele>
        <time>2025-03-30T10:45:08Z</time>
      </trkpt>
      <trkpt lat="45.64476" lon="6.53807">
        <ele>2010</ele>
        <time>2025-03-30T10:45:10Z</time>
      </trkpt>
      <trkpt lat="45.64478" lon="6.53821">
        <ele>2009</ele>
        <time>2025-03-30T10:45:13Z</time>
      </trkpt>
      <trkpt lat="45.64476" lon="6.53829">
        <ele>2007</ele>
        <time>2025-03-30T10:45:15Z</time>
      </trkpt>
      <trkpt lat="45.64477" lon="6.53838">
        <ele>2005</ele>
        <time>2025-03-30T10:45:17Z</time>
      </trkpt>
      <trkpt lat="45.64473" lon="6.53855">
        <ele>2003</ele>
        <time>2025-03-30T10:45:20Z</time>
      </trkpt>
      <trkpt lat="45.64476" lon="6.53866">
        <ele>2001</ele>
        <time>2025-03-30T10:45:22Z</time>
      </trkpt>
      <trkpt lat="45.64484" lon="6.53879">
        <ele>1998</ele>
        <time>2025-03-30T10:45:26Z</time>
      </trkpt>
      <trkpt lat="45.64489" lon="6.53885">
        <ele>1997</ele>
        <time>2025-03-30T10:45:28Z</time>
      </trkpt>
      <trkpt lat="45.64487" lon="6.53893">
        <ele>1997</ele>
        <time>2025-03-30T10:45:30Z</time>
      </trkpt>
      <trkpt lat="45.6449" lon="6.53906">
        <ele>1995</ele>
        <time>2025-03-30T10:45:32Z</time>
      </trkpt>
      <trkpt lat="45.6449" lon="6.53921">
        <ele>1992</ele>
        <time>2025-03-30T10:45:34Z</time>
      </trkpt>
      <trkpt lat="45.64494" lon="6.53937">
        <ele>1989</ele>
        <time>2025-03-30T10:45:36Z</time>
      </trkpt>
      <trkpt lat="45.64493" lon="6.5397">
        <ele>1985</ele>
        <time>2025-03-30T10:45:40Z</time>
      </trkpt>
      <trkpt lat="45.64502" lon="6.53997">
        <ele>1982</ele>
        <time>2025-03-30T10:45:44Z</time>
      </trkpt>
      <trkpt lat="45.6451" lon="6.54008">
        <ele>1981</ele>
        <time>2025-03-30T10:45:46Z</time>
      </trkpt>
      <trkpt lat="45.64513" lon="6.54017">
        <ele>1980</ele>
        <time>2025-03-30T10:45:48Z</time>
      </trkpt>
      <trkpt lat="45.64506" lon="6.54047">
        <ele>1978</ele>
        <time>2025-03-30T10:45:54Z</time>
      </trkpt>
      <trkpt lat="45.64508" lon="6.54089">
        <ele>1976</ele>
        <time>2025-03-30T10:46:01Z</time>
      </trkpt>
      <trkpt lat="45.64512" lon="6.5409">
        <ele>1975</ele>
        <time>2025-03-30T10:46:03Z</time>
      </trkpt>
      <trkpt lat="45.64519" lon="6.54095">
        <ele>1973</ele>
        <time>2025-03-30T10:46:08Z</time>
      </trkpt>
      <trkpt lat="45.64521" lon="6.54102">
        <ele>1972</ele>
        <time>2025-03-30T10:46:10Z</time>
      </trkpt>
      <trkpt lat="45.64527" lon="6.54099">
        <ele>1970</ele>
        <time>2025-03-30T10:46:12Z</time>
      </trkpt>
      <trkpt lat="45.64531" lon="6.54099">
        <ele>1968</ele>
        <time>2025-03-30T10:46:14Z</time>
      </trkpt>
      <trkpt lat="45.64532" lon="6.54105">
        <ele>1967</ele>
        <time>2025-03-30T10:46:16Z</time>
      </trkpt>
      <trkpt lat="45.6454" lon="6.54106">
        <ele>1964</ele>
        <time>2025-03-30T10:46:18Z</time>
      </trkpt>
      <trkpt lat="45.64548" lon="6.54118">
        <ele>1957</ele>
        <time>2025-03-30T10:46:26Z</time>
      </trkpt>
      <trkpt lat="45.64558" lon="6.5414">
        <ele>1952</ele>
        <time>2025-03-30T10:46:32Z</time>
      </trkpt>
      <trkpt lat="45.64563" lon="6.54139">
        <ele>1949</ele>
        <time>2025-03-30T10:46:35Z</time>
      </trkpt>
      <trkpt lat="45.64563" lon="6.54131">
        <ele>1947</ele>
        <time>2025-03-30T10:46:37Z</time>
      </trkpt>
      <trkpt lat="45.64568" lon="6.54136">
        <ele>1946</ele>
        <time>2025-03-30T10:46:39Z</time>
      </trkpt>
      <trkpt lat="45.64575" lon="6.54144">
        <ele>1943</ele>
        <time>2025-03-30T10:46:41Z</time>
      </trkpt>
      <trkpt lat="45.64583" lon="6.54153">
        <ele>1940</ele>
        <time>2025-03-30T10:46:44Z</time>
      </trkpt>
      <trkpt lat="45.64589" lon="6.54146">
        <ele>1937</ele>
        <time>2025-03-30T10:46:48Z</time>
      </trkpt>
      <trkpt lat="45.64596" lon="6.54153">
        <ele>1934</ele>
        <time>2025-03-30T10:46:50Z</time>
      </trkpt>
      <trkpt lat="45.64609" lon="6.54164">
        <ele>1930</ele>
        <time>2025-03-30T10:46:53Z</time>
      </trkpt>
      <trkpt lat="45.64614" lon="6.54169">
        <ele>1928</ele>
        <time>2025-03-30T10:46:55Z</time>
      </trkpt>
      <trkpt lat="45.6462" lon="6.54173">
        <ele>1926</ele>
        <time>2025-03-30T10:46:57Z</time>
      </trkpt>
      <trkpt lat="45.64629" lon="6.54181">
        <ele>1924</ele>
        <time>2025-03-30T10:46:59Z</time>
      </trkpt>
      <trkpt lat="45.64657" lon="6.54201">
        <ele>1919</ele>
        <time>2025-03-30T10:47:05Z</time>
      </trkpt>
      <trkpt lat="45.64667" lon="6.54206">
        <ele>1917</ele>
        <time>2025-03-30T10:47:13Z</time>
      </trkpt>
      <trkpt lat="45.64679" lon="6.54218">
        <ele>1914</ele>
        <time>2025-03-30T10:47:19Z</time>
      </trkpt>
      <trkpt lat="45.64682" lon="6.54227">
        <ele>1913</ele>
        <time>2025-03-30T10:47:22Z</time>
      </trkpt>
      <trkpt lat="45.64688" lon="6.5424">
        <ele>1905</ele>
        <time>2025-03-30T10:48:31Z</time>
      </trkpt>
      <trkpt lat="45.64716" lon="6.54287">
        <ele>1897</ele>
        <time>2025-03-30T10:48:41Z</time>
      </trkpt>
      <trkpt lat="45.64723" lon="6.54294">
        <ele>1895</ele>
        <time>2025-03-30T10:48:45Z</time>
      </trkpt>
      <trkpt lat="45.64726" lon="6.54298">
        <ele>1894</ele>
        <time>2025-03-30T10:48:47Z</time>
      </trkpt>
      <trkpt lat="45.64732" lon="6.54297">
        <ele>1892</ele>
        <time>2025-03-30T10:48:49Z</time>
      </trkpt>
      <trkpt lat="45.64738" lon="6.54297">
        <ele>1891</ele>
        <time>2025-03-30T10:48:52Z</time>
      </trkpt>
      <trkpt lat="45.64741" lon="6.54295">
        <ele>1886</ele>
        <time>2025-03-30T10:49:01Z</time>
      </trkpt>
      <trkpt lat="45.64745" lon="6.54294">
        <ele>1885</ele>
        <time>2025-03-30T10:49:03Z</time>
      </trkpt>
      <trkpt lat="45.6475" lon="6.54299">
        <ele>1881</ele>
        <time>2025-03-30T10:49:05Z</time>
      </trkpt>
      <trkpt lat="45.64756" lon="6.54296">
        <ele>1879</ele>
        <time>2025-03-30T10:49:07Z</time>
      </trkpt>
      <trkpt lat="45.6477" lon="6.54298">
        <ele>1875</ele>
        <time>2025-03-30T10:49:10Z</time>
      </trkpt>
      <trkpt lat="45.64776" lon="6.54301">
        <ele>1872</ele>
        <time>2025-03-30T10:49:12Z</time>
      </trkpt>
      <trkpt lat="45.64783" lon="6.54296">
        <ele>1868</ele>
        <time>2025-03-30T10:49:14Z</time>
      </trkpt>
      <trkpt lat="45.6479" lon="6.54309">
        <ele>1865</ele>
        <time>2025-03-30T10:49:16Z</time>
      </trkpt>
      <trkpt lat="45.64796" lon="6.54324">
        <ele>1861</ele>
        <time>2025-03-30T10:49:18Z</time>
      </trkpt>
      <trkpt lat="45.648" lon="6.54338">
        <ele>1859</ele>
        <time>2025-03-30T10:49:20Z</time>
      </trkpt>
      <trkpt lat="45.64807" lon="6.54341">
        <ele>1857</ele>
        <time>2025-03-30T10:49:22Z</time>
      </trkpt>
      <trkpt lat="45.64809" lon="6.54328">
        <ele>1853</ele>
        <time>2025-03-30T10:49:24Z</time>
      </trkpt>
      <trkpt lat="45.64813" lon="6.54318">
        <ele>1849</ele>
        <time>2025-03-30T10:49:26Z</time>
      </trkpt>
      <trkpt lat="45.6482" lon="6.54329">
        <ele>1846</ele>
        <time>2025-03-30T10:49:28Z</time>
      </trkpt>
      <trkpt lat="45.64827" lon="6.54344">
        <ele>1844</ele>
        <time>2025-03-30T10:49:30Z</time>
      </trkpt>
      <trkpt lat="45.64835" lon="6.54352">
        <ele>1842</ele>
        <time>2025-03-30T10:49:32Z</time>
      </trkpt>
      <trkpt lat="45.64844" lon="6.54364">
        <ele>1839</ele>
        <time>2025-03-30T10:49:34Z</time>
      </trkpt>
      <trkpt lat="45.64852" lon="6.54376">
        <ele>1837</ele>
        <time>2025-03-30T10:49:36Z</time>
      </trkpt>
      <trkpt lat="45.64866" lon="6.54393">
        <ele>1835</ele>
        <time>2025-03-30T10:49:39Z</time>
      </trkpt>
      <trkpt lat="45.64873" lon="6.54397">
        <ele>1833</ele>
        <time>2025-03-30T10:49:41Z</time>
      </trkpt>
      <trkpt lat="45.64876" lon="6.54385">
        <ele>1831</ele>
        <time>2025-03-30T10:49:43Z</time>
      </trkpt>
      <trkpt lat="45.64892" lon="6.54397">
        <ele>1827</ele>
        <time>2025-03-30T10:49:46Z</time>
      </trkpt>
      <trkpt lat="45.649" lon="6.54411">
        <ele>1825</ele>
        <time>2025-03-30T10:49:48Z</time>
      </trkpt>
      <trkpt lat="45.64912" lon="6.54438">
        <ele>1821</ele>
        <time>2025-03-30T10:49:52Z</time>
      </trkpt>
      <trkpt lat="45.64936" lon="6.54472">
        <ele>1817</ele>
        <time>2025-03-30T10:49:59Z</time>
      </trkpt>
      <trkpt lat="45.64943" lon="6.54463">
        <ele>1815</ele>
        <time>2025-03-30T10:50:01Z</time>
      </trkpt>
      <trkpt lat="45.64951" lon="6.5446">
        <ele>1813</ele>
        <time>2025-03-30T10:50:03Z</time>
      </trkpt>
      <trkpt lat="45.6496" lon="6.54475">
        <ele>1810</ele>
        <time>2025-03-30T10:50:05Z</time>
      </trkpt>
      <trkpt lat="45.64969" lon="6.54487">
        <ele>1807</ele>
        <time>2025-03-30T10:50:07Z</time>
      </trkpt>
      <trkpt lat="45.64977" lon="6.54498">
        <ele>1804</ele>
        <time>2025-03-30T10:50:09Z</time>
      </trkpt>
      <trkpt lat="45.64983" lon="6.54504">
        <ele>1801</ele>
        <time>2025-03-30T10:50:13Z</time>
      </trkpt>
      <trkpt lat="45.64989" lon="6.54512">
        <ele>1798</ele>
        <time>2025-03-30T10:50:15Z</time>
      </trkpt>
      <trkpt lat="45.64996" lon="6.54525">
        <ele>1794</ele>
        <time>2025-03-30T10:50:19Z</time>
      </trkpt>
      <trkpt lat="45.65002" lon="6.54525">
        <ele>1791</ele>
        <time>2025-03-30T10:50:24Z</time>
      </trkpt>
      <trkpt lat="45.65003" lon="6.54515">
        <ele>1790</ele>
        <time>2025-03-30T10:50:26Z</time>
      </trkpt>
      <trkpt lat="45.65005" lon="6.54504">
        <ele>1788</ele>
        <time>2025-03-30T10:50:28Z</time>
      </trkpt>
      <trkpt lat="45.65011" lon="6.54502">
        <ele>1786</ele>
        <time>2025-03-30T10:50:30Z</time>
      </trkpt>
      <trkpt lat="45.65022" lon="6.54501">
        <ele>1782</ele>
        <time>2025-03-30T10:50:33Z</time>
      </trkpt>
      <trkpt lat="45.65019" lon="6.54502">
        <ele>1778</ele>
        <time>2025-03-30T10:50:56Z</time>
      </trkpt>
      <trkpt lat="45.65023" lon="6.5451">
        <ele>1771</ele>
        <time>2025-03-30T10:52:09Z</time>
      </trkpt>
      <trkpt lat="45.65028" lon="6.54514">
        <ele>1770</ele>
        <time>2025-03-30T10:52:11Z</time>
      </trkpt>
      <trkpt lat="45.65039" lon="6.54517">
        <ele>1768</ele>
        <time>2025-03-30T10:52:14Z</time>
      </trkpt>
      <trkpt lat="45.65045" lon="6.54523">
        <ele>1768</ele>
        <time>2025-03-30T10:52:16Z</time>
      </trkpt>
      <trkpt lat="45.65054" lon="6.54536">
        <ele>1766</ele>
        <time>2025-03-30T10:52:20Z</time>
      </trkpt>
      <trkpt lat="45.65081" lon="6.54615">
        <ele>1754</ele>
        <time>2025-03-30T10:52:41Z</time>
      </trkpt>
      <trkpt lat="45.65084" lon="6.5462">
        <ele>1753</ele>
        <time>2025-03-30T10:52:47Z</time>
      </trkpt>
      <trkpt lat="45.65087" lon="6.54629">
        <ele>1751</ele>
        <time>2025-03-30T10:52:50Z</time>
      </trkpt>
      <trkpt lat="45.6509" lon="6.54629">
        <ele>1750</ele>
        <time>2025-03-30T10:52:52Z</time>
      </trkpt>
      <trkpt lat="45.65094" lon="6.54625">
        <ele>1748</ele>
        <time>2025-03-30T10:52:56Z</time>
      </trkpt>
      <trkpt lat="45.65096" lon="6.5462">
        <ele>1746</ele>
        <time>2025-03-30T10:52:58Z</time>
      </trkpt>
      <trkpt lat="45.65095" lon="6.54612">
        <ele>1745</ele>
        <time>2025-03-30T10:53:00Z</time>
      </trkpt>
      <trkpt lat="45.65098" lon="6.54604">
        <ele>1743</ele>
        <time>2025-03-30T10:53:02Z</time>
      </trkpt>
      <trkpt lat="45.6513" lon="6.54619">
        <ele>1734</ele>
        <time>2025-03-30T10:53:12Z</time>
      </trkpt>
      <trkpt lat="45.65137" lon="6.54625">
        <ele>1732</ele>
        <time>2025-03-30T10:53:14Z</time>
      </trkpt>
      <trkpt lat="45.65142" lon="6.54633">
        <ele>1729</ele>
        <time>2025-03-30T10:53:16Z</time>
      </trkpt>
      <trkpt lat="45.65158" lon="6.54634">
        <ele>1725</ele>
        <time>2025-03-30T10:53:19Z</time>
      </trkpt>
      <trkpt lat="45.65165" lon="6.54639">
        <ele>1723</ele>
        <time>2025-03-30T10:53:21Z</time>
      </trkpt>
      <trkpt lat="45.65177" lon="6.5465">
        <ele>1718</ele>
        <time>2025-03-30T10:53:25Z</time>
      </trkpt>
      <trkpt lat="45.65186" lon="6.54655">
        <ele>1715</ele>
        <time>2025-03-30T10:53:30Z</time>
      </trkpt>
      <trkpt lat="45.65195" lon="6.54669">
        <ele>1711</ele>
        <time>2025-03-30T10:53:40Z</time>
      </trkpt>
      <trkpt lat="45.65202" lon="6.54683">
        <ele>1708</ele>
        <time>2025-03-30T10:53:48Z</time>
      </trkpt>
      <trkpt lat="45.65207" lon="6.54693">
        <ele>1706</ele>
        <time>2025-03-30T10:53:52Z</time>
      </trkpt>
      <trkpt lat="45.65209" lon="6.54701">
        <ele>1705</ele>
        <time>2025-03-30T10:53:56Z</time>
      </trkpt>
      <trkpt lat="45.65212" lon="6.54705">
        <ele>1702</ele>
        <time>2025-03-30T10:54:02Z</time>
      </trkpt>
      <trkpt lat="45.65216" lon="6.54713">
        <ele>1699</ele>
        <time>2025-03-30T10:55:51Z</time>
      </trkpt>
      <trkpt lat="45.6522" lon="6.54717">
        <ele>1698</ele>
        <time>2025-03-30T10:55:53Z</time>
      </trkpt>
      <trkpt lat="45.65222" lon="6.54724">
        <ele>1695</ele>
        <time>2025-03-30T10:55:57Z</time>
      </trkpt>
      <trkpt lat="45.65222" lon="6.54731">
        <ele>1692</ele>
        <time>2025-03-30T10:56:03Z</time>
      </trkpt>
      <trkpt lat="45.65224" lon="6.54738">
        <ele>1689</ele>
        <time>2025-03-30T10:56:10Z</time>
      </trkpt>
      <trkpt lat="45.65223" lon="6.54743">
        <ele>1686</ele>
        <time>2025-03-30T10:56:19Z</time>
      </trkpt>
      <trkpt lat="45.65228" lon="6.5475">
        <ele>1683</ele>
        <time>2025-03-30T10:56:21Z</time>
      </trkpt>
      <trkpt lat="45.65236" lon="6.54756">
        <ele>1681</ele>
        <time>2025-03-30T10:56:23Z</time>
      </trkpt>
      <trkpt lat="45.65249" lon="6.54774">
        <ele>1680</ele>
        <time>2025-03-30T10:56:28Z</time>
      </trkpt>
      <trkpt lat="45.65257" lon="6.54774">
        <ele>1679</ele>
        <time>2025-03-30T10:56:32Z</time>
      </trkpt>
      <trkpt lat="45.65258" lon="6.54778">
        <ele>1673</ele>
        <time>2025-03-30T10:57:07Z</time>
      </trkpt>
      <trkpt lat="45.65258" lon="6.54782">
        <ele>1672</ele>
        <time>2025-03-30T10:57:54Z</time>
      </trkpt>
      <trkpt lat="45.6526" lon="6.54786">
        <ele>1672</ele>
        <time>2025-03-30T10:58:34Z</time>
      </trkpt>
      <trkpt lat="45.65258" lon="6.5479">
        <ele>1670</ele>
        <time>2025-03-30T10:58:41Z</time>
      </trkpt>
      <trkpt lat="45.65255" lon="6.54793">
        <ele>1669</ele>
        <time>2025-03-30T10:58:44Z</time>
      </trkpt>
      <trkpt lat="45.65254" lon="6.548">
        <ele>1665</ele>
        <time>2025-03-30T10:58:48Z</time>
      </trkpt>
      <trkpt lat="45.65257" lon="6.54808">
        <ele>1663</ele>
        <time>2025-03-30T10:58:50Z</time>
      </trkpt>
      <trkpt lat="45.65259" lon="6.54814">
        <ele>1660</ele>
        <time>2025-03-30T10:58:52Z</time>
      </trkpt>
      <trkpt lat="45.65258" lon="6.54819">
        <ele>1656</ele>
        <time>2025-03-30T10:58:58Z</time>
      </trkpt>
      <trkpt lat="45.65261" lon="6.54828">
        <ele>1654</ele>
        <time>2025-03-30T10:59:00Z</time>
      </trkpt>
      <trkpt lat="45.65258" lon="6.54843">
        <ele>1651</ele>
        <time>2025-03-30T10:59:04Z</time>
      </trkpt>
      <trkpt lat="45.6526" lon="6.54851">
        <ele>1650</ele>
        <time>2025-03-30T10:59:08Z</time>
      </trkpt>
      <trkpt lat="45.65271" lon="6.54873">
        <ele>1644</ele>
        <time>2025-03-30T10:59:13Z</time>
      </trkpt>
      <trkpt lat="45.65273" lon="6.5488">
        <ele>1635</ele>
        <time>2025-03-30T11:01:54Z</time>
      </trkpt>
      <trkpt lat="45.65276" lon="6.54885">
        <ele>1632</ele>
        <time>2025-03-30T11:02:35Z</time>
      </trkpt>
      <trkpt lat="45.65319" lon="6.54932">
        <ele>1627</ele>
        <time>2025-03-30T11:02:49Z</time>
      </trkpt>
      <trkpt lat="45.65334" lon="6.54942">
        <ele>1626</ele>
        <time>2025-03-30T11:02:53Z</time>
      </trkpt>
      <trkpt lat="45.65337" lon="6.54951">
        <ele>1624</ele>
        <time>2025-03-30T11:02:55Z</time>
      </trkpt>
      <trkpt lat="45.6534" lon="6.54955">
        <ele>1624</ele>
        <time>2025-03-30T11:02:57Z</time>
      </trkpt>
      <trkpt lat="45.65338" lon="6.54956">
        <ele>1621</ele>
        <time>2025-03-30T11:04:59Z</time>
      </trkpt>
      <trkpt lat="45.65343" lon="6.54955">
        <ele>1620</ele>
        <time>2025-03-30T11:08:28Z</time>
      </trkpt>
      <trkpt lat="45.6535" lon="6.54955">
        <ele>1616</ele>
        <time>2025-03-30T11:08:30Z</time>
      </trkpt>
      <trkpt lat="45.65358" lon="6.54958">
        <ele>1614</ele>
        <time>2025-03-30T11:08:32Z</time>
      </trkpt>
      <trkpt lat="45.65365" lon="6.54965">
        <ele>1612</ele>
        <time>2025-03-30T11:08:34Z</time>
      </trkpt>
      <trkpt lat="45.6537" lon="6.54973">
        <ele>1611</ele>
        <time>2025-03-30T11:08:36Z</time>
      </trkpt>
      <trkpt lat="45.65383" lon="6.54972">
        <ele>1608</ele>
        <time>2025-03-30T11:08:39Z</time>
      </trkpt>
      <trkpt lat="45.65384" lon="6.54983">
        <ele>1606</ele>
        <time>2025-03-30T11:08:43Z</time>
      </trkpt>
      <trkpt lat="45.65405" lon="6.54984">
        <ele>1603</ele>
        <time>2025-03-30T11:08:49Z</time>
      </trkpt>
      <trkpt lat="45.65408" lon="6.54988">
        <ele>1601</ele>
        <time>2025-03-30T11:08:53Z</time>
      </trkpt>
      <trkpt lat="45.65411" lon="6.54985">
        <ele>1600</ele>
        <time>2025-03-30T11:08:55Z</time>
      </trkpt>
      <trkpt lat="45.65413" lon="6.5499">
        <ele>1599</ele>
        <time>2025-03-30T11:08:57Z</time>
      </trkpt>
      <trkpt lat="45.65415" lon="6.54996">
        <ele>1596</ele>
        <time>2025-03-30T11:09:03Z</time>
      </trkpt>
      <trkpt lat="45.6542" lon="6.54998">
        <ele>1594</ele>
        <time>2025-03-30T11:09:06Z</time>
      </trkpt>
      <trkpt lat="45.65424" lon="6.54997">
        <ele>1593</ele>
        <time>2025-03-30T11:09:08Z</time>
      </trkpt>
      <trkpt lat="45.65427" lon="6.55">
        <ele>1592</ele>
        <time>2025-03-30T11:09:10Z</time>
      </trkpt>
      <trkpt lat="45.65436" lon="6.55003">
        <ele>1589</ele>
        <time>2025-03-30T11:09:15Z</time>
      </trkpt>
      <trkpt lat="45.65441" lon="6.55001">
        <ele>1588</ele>
        <time>2025-03-30T11:09:19Z</time>
      </trkpt>
      <trkpt lat="45.65454" lon="6.55004">
        <ele>1585</ele>
        <time>2025-03-30T11:09:29Z</time>
      </trkpt>
      <trkpt lat="45.65463" lon="6.55007">
        <ele>1583</ele>
        <time>2025-03-30T11:09:31Z</time>
      </trkpt>
      <trkpt lat="45.65469" lon="6.55006">
        <ele>1582</ele>
        <time>2025-03-30T11:09:33Z</time>
      </trkpt>
      <trkpt lat="45.65474" lon="6.5501">
        <ele>1581</ele>
        <time>2025-03-30T11:09:39Z</time>
      </trkpt>
      <trkpt lat="45.65481" lon="6.55008">
        <ele>1579</ele>
        <time>2025-03-30T11:09:41Z</time>
      </trkpt>
      <trkpt lat="45.65519" lon="6.55005">
        <ele>1574</ele>
        <time>2025-03-30T11:09:48Z</time>
      </trkpt>
      <trkpt lat="45.65531" lon="6.55008">
        <ele>1573</ele>
        <time>2025-03-30T11:09:51Z</time>
      </trkpt>
      <trkpt lat="45.6553" lon="6.55021">
        <ele>1570</ele>
        <time>2025-03-30T11:09:55Z</time>
      </trkpt>
      <trkpt lat="45.65535" lon="6.55027">
        <ele>1569</ele>
        <time>2025-03-30T11:09:57Z</time>
      </trkpt>
      <trkpt lat="45.6554" lon="6.55038">
        <ele>1567</ele>
        <time>2025-03-30T11:10:00Z</time>
      </trkpt>
      <trkpt lat="45.65547" lon="6.55044">
        <ele>1565</ele>
        <time>2025-03-30T11:10:02Z</time>
      </trkpt>
      <trkpt lat="45.65548" lon="6.55054">
        <ele>1564</ele>
        <time>2025-03-30T11:10:04Z</time>
      </trkpt>
      <trkpt lat="45.65543" lon="6.55057">
        <ele>1562</ele>
        <time>2025-03-30T11:10:08Z</time>
      </trkpt>
      <trkpt lat="45.65543" lon="6.55064">
        <ele>1561</ele>
        <time>2025-03-30T11:10:14Z</time>
      </trkpt>
      <trkpt lat="45.65547" lon="6.55089">
        <ele>1559</ele>
        <time>2025-03-30T11:10:18Z</time>
      </trkpt>
      <trkpt lat="45.65547" lon="6.55097">
        <ele>1559</ele>
        <time>2025-03-30T11:10:20Z</time>
      </trkpt>
      <trkpt lat="45.65548" lon="6.55095">
        <ele>1557</ele>
        <time>2025-03-30T11:10:38Z</time>
      </trkpt>
      <trkpt lat="45.65552" lon="6.55104">
        <ele>1555</ele>
        <time>2025-03-30T11:10:47Z</time>
      </trkpt>
      <trkpt lat="45.65563" lon="6.5512">
        <ele>1554</ele>
        <time>2025-03-30T11:10:51Z</time>
      </trkpt>
      <trkpt lat="45.65593" lon="6.55147">
        <ele>1550</ele>
        <time>2025-03-30T11:10:57Z</time>
      </trkpt>
      <trkpt lat="45.65603" lon="6.55156">
        <ele>1548</ele>
        <time>2025-03-30T11:10:59Z</time>
      </trkpt>
      <trkpt lat="45.65614" lon="6.55164">
        <ele>1546</ele>
        <time>2025-03-30T11:11:01Z</time>
      </trkpt>
      <trkpt lat="45.65625" lon="6.55171">
        <ele>1543</ele>
        <time>2025-03-30T11:11:03Z</time>
      </trkpt>
      <trkpt lat="45.65639" lon="6.55176">
        <ele>1541</ele>
        <time>2025-03-30T11:11:05Z</time>
      </trkpt>
      <trkpt lat="45.6565" lon="6.55178">
        <ele>1538</ele>
        <time>2025-03-30T11:11:07Z</time>
      </trkpt>
      <trkpt lat="45.65664" lon="6.55172">
        <ele>1536</ele>
        <time>2025-03-30T11:11:09Z</time>
      </trkpt>
      <trkpt lat="45.65677" lon="6.55168">
        <ele>1534</ele>
        <time>2025-03-30T11:11:11Z</time>
      </trkpt>
      <trkpt lat="45.65697" lon="6.55169">
        <ele>1532</ele>
        <time>2025-03-30T11:11:14Z</time>
      </trkpt>
      <trkpt lat="45.65707" lon="6.55177">
        <ele>1530</ele>
        <time>2025-03-30T11:11:16Z</time>
      </trkpt>
      <trkpt lat="45.65725" lon="6.5518">
        <ele>1526</ele>
        <time>2025-03-30T11:11:20Z</time>
      </trkpt>
      <trkpt lat="45.65738" lon="6.55181">
        <ele>1524</ele>
        <time>2025-03-30T11:11:23Z</time>
      </trkpt>
      <trkpt lat="45.65747" lon="6.55183">
        <ele>1522</ele>
        <time>2025-03-30T11:11:25Z</time>
      </trkpt>
      <trkpt lat="45.65757" lon="6.55186">
        <ele>1520</ele>
        <time>2025-03-30T11:11:27Z</time>
      </trkpt>
      <trkpt lat="45.65764" lon="6.55188">
        <ele>1517</ele>
        <time>2025-03-30T11:11:29Z</time>
      </trkpt>
      <trkpt lat="45.65775" lon="6.55188">
        <ele>1514</ele>
        <time>2025-03-30T11:11:31Z</time>
      </trkpt>
      <trkpt lat="45.65787" lon="6.55187">
        <ele>1511</ele>
        <time>2025-03-30T11:11:33Z</time>
      </trkpt>
      <trkpt lat="45.65829" lon="6.55194">
        <ele>1504</ele>
        <time>2025-03-30T11:11:41Z</time>
      </trkpt>
      <trkpt lat="45.65838" lon="6.55203">
        <ele>1502</ele>
        <time>2025-03-30T11:11:43Z</time>
      </trkpt>
      <trkpt lat="45.65842" lon="6.55214">
        <ele>1500</ele>
        <time>2025-03-30T11:11:45Z</time>
      </trkpt>
      <trkpt lat="45.65846" lon="6.55224">
        <ele>1498</ele>
        <time>2025-03-30T11:11:47Z</time>
      </trkpt>
      <trkpt lat="45.6585" lon="6.55232">
        <ele>1496</ele>
        <time>2025-03-30T11:11:49Z</time>
      </trkpt>
      <trkpt lat="45.65864" lon="6.55244">
        <ele>1492</ele>
        <time>2025-03-30T11:11:56Z</time>
      </trkpt>
      <trkpt lat="45.65869" lon="6.55245">
        <ele>1489</ele>
        <time>2025-03-30T11:12:00Z</time>
      </trkpt>
      <trkpt lat="45.65873" lon="6.55249">
        <ele>1486</ele>
        <time>2025-03-30T11:12:22Z</time>
      </trkpt>
      <trkpt lat="45.65878" lon="6.55251">
        <ele>1484</ele>
        <time>2025-03-30T11:12:24Z</time>
      </trkpt>
      <trkpt lat="45.65883" lon="6.55249">
        <ele>1484</ele>
        <time>2025-03-30T11:12:26Z</time>
      </trkpt>
      <trkpt lat="45.65894" lon="6.55248">
        <ele>1481</ele>
        <time>2025-03-30T11:12:30Z</time>
      </trkpt>
      <trkpt lat="45.65902" lon="6.55248">
        <ele>1479</ele>
        <time>2025-03-30T11:12:32Z</time>
      </trkpt>
      <trkpt lat="45.6591" lon="6.55251">
        <ele>1478</ele>
        <time>2025-03-30T11:12:34Z</time>
      </trkpt>
      <trkpt lat="45.65925" lon="6.55248">
        <ele>1475</ele>
        <time>2025-03-30T11:12:37Z</time>
      </trkpt>
      <trkpt lat="45.65927" lon="6.55235">
        <ele>1473</ele>
        <time>2025-03-30T11:12:39Z</time>
      </trkpt>
      <trkpt lat="45.65922" lon="6.55228">
        <ele>1471</ele>
        <time>2025-03-30T11:12:41Z</time>
      </trkpt>
      <trkpt lat="45.65917" lon="6.55216">
        <ele>1469</ele>
        <time>2025-03-30T11:12:43Z</time>
      </trkpt>
      <trkpt lat="45.65921" lon="6.55199">
        <ele>1466</ele>
        <time>2025-03-30T11:12:46Z</time>
      </trkpt>
      <trkpt lat="45.65931" lon="6.55198">
        <ele>1464</ele>
        <time>2025-03-30T11:12:48Z</time>
      </trkpt>
      <trkpt lat="45.65937" lon="6.55205">
        <ele>1462</ele>
        <time>2025-03-30T11:12:50Z</time>
      </trkpt>
      <trkpt lat="45.65963" lon="6.55226">
        <ele>1454</ele>
        <time>2025-03-30T11:13:00Z</time>
      </trkpt>
      <trkpt lat="45.65974" lon="6.55228">
        <ele>1450</ele>
        <time>2025-03-30T11:13:04Z</time>
      </trkpt>
      <trkpt lat="45.65981" lon="6.55226">
        <ele>1450</ele>
        <time>2025-03-30T11:13:06Z</time>
      </trkpt>
      <trkpt lat="45.65978" lon="6.55217">
        <ele>1448</ele>
        <time>2025-03-30T11:13:08Z</time>
      </trkpt>
      <trkpt lat="45.65971" lon="6.55213">
        <ele>1447</ele>
        <time>2025-03-30T11:13:10Z</time>
      </trkpt>
      <trkpt lat="45.65967" lon="6.55205">
        <ele>1446</ele>
        <time>2025-03-30T11:13:12Z</time>
      </trkpt>
      <trkpt lat="45.65973" lon="6.55194">
        <ele>1444</ele>
        <time>2025-03-30T11:13:15Z</time>
      </trkpt>
      <trkpt lat="45.65979" lon="6.55197">
        <ele>1443</ele>
        <time>2025-03-30T11:13:17Z</time>
      </trkpt>
      <trkpt lat="45.65987" lon="6.55204">
        <ele>1441</ele>
        <time>2025-03-30T11:13:19Z</time>
      </trkpt>
      <trkpt lat="45.65995" lon="6.55209">
        <ele>1439</ele>
        <time>2025-03-30T11:13:21Z</time>
      </trkpt>
      <trkpt lat="45.6601" lon="6.55209">
        <ele>1436</ele>
        <time>2025-03-30T11:13:26Z</time>
      </trkpt>
      <trkpt lat="45.66019" lon="6.55211">
        <ele>1434</ele>
        <time>2025-03-30T11:13:28Z</time>
      </trkpt>
      <trkpt lat="45.66027" lon="6.55213">
        <ele>1431</ele>
        <time>2025-03-30T11:13:30Z</time>
      </trkpt>
      <trkpt lat="45.66044" lon="6.55213">
        <ele>1428</ele>
        <time>2025-03-30T11:13:35Z</time>
      </trkpt>
      <trkpt lat="45.66056" lon="6.55207">
        <ele>1425</ele>
        <time>2025-03-30T11:13:41Z</time>
      </trkpt>
      <trkpt lat="45.66056" lon="6.55207">
        <ele>1422</ele>
        <time>2025-03-30T11:14:50Z</time>
      </trkpt>
      <trkpt lat="45.66058" lon="6.55211">
        <ele>1422</ele>
        <time>2025-03-30T11:15:08Z</time>
      </trkpt>
      <trkpt lat="45.6606" lon="6.55212">
        <ele>1417</ele>
        <time>2025-03-30T11:16:20Z</time>
      </trkpt>
      <trkpt lat="45.66064" lon="6.55211">
        <ele>1416</ele>
        <time>2025-03-30T11:17:02Z</time>
      </trkpt>
      <trkpt lat="45.66068" lon="6.55213">
        <ele>1415</ele>
        <time>2025-03-30T11:17:07Z</time>
      </trkpt>
      <trkpt lat="45.66078" lon="6.55214">
        <ele>1413</ele>
        <time>2025-03-30T11:17:18Z</time>
      </trkpt>
      <trkpt lat="45.66079" lon="6.55215">
        <ele>1411</ele>
        <time>2025-03-30T11:17:27Z</time>
      </trkpt>
      <trkpt lat="45.66093" lon="6.55213">
        <ele>1408</ele>
        <time>2025-03-30T11:17:41Z</time>
      </trkpt>
      <trkpt lat="45.66096" lon="6.55212">
        <ele>1407</ele>
        <time>2025-03-30T11:17:45Z</time>
      </trkpt>
      <trkpt lat="45.66106" lon="6.55211">
        <ele>1406</ele>
        <time>2025-03-30T11:17:54Z</time>
      </trkpt>
      <trkpt lat="45.66111" lon="6.5521">
        <ele>1406</ele>
        <time>2025-03-30T11:17:59Z</time>
      </trkpt>
      <trkpt lat="45.66115" lon="6.55211">
        <ele>1405</ele>
        <time>2025-03-30T11:18:03Z</time>
      </trkpt>
      <trkpt lat="45.6612" lon="6.5521">
        <ele>1406</ele>
        <time>2025-03-30T11:18:10Z</time>
      </trkpt>
      <trkpt lat="45.66126" lon="6.55208">
        <ele>1406</ele>
        <time>2025-03-30T11:18:16Z</time>
      </trkpt>
      <trkpt lat="45.66147" lon="6.5521">
        <ele>1404</ele>
        <time>2025-03-30T11:18:36Z</time>
      </trkpt>
      <trkpt lat="45.66157" lon="6.55209">
        <ele>1403</ele>
        <time>2025-03-30T11:18:43Z</time>
      </trkpt>
      <trkpt lat="45.66161" lon="6.55212">
        <ele>1404</ele>
        <time>2025-03-30T11:18:48Z</time>
      </trkpt>
      <trkpt lat="45.66166" lon="6.55213">
        <ele>1404</ele>
        <time>2025-03-30T11:18:52Z</time>
      </trkpt>
      <trkpt lat="45.66173" lon="6.55217">
        <ele>1405</ele>
        <time>2025-03-30T11:19:02Z</time>
      </trkpt>
      <trkpt lat="45.6618" lon="6.55215">
        <ele>1402</ele>
        <time>2025-03-30T11:19:08Z</time>
      </trkpt>
      <trkpt lat="45.66189" lon="6.55214">
        <ele>1400</ele>
        <time>2025-03-30T11:19:19Z</time>
      </trkpt>
      <trkpt lat="45.66194" lon="6.55211">
        <ele>1399</ele>
        <time>2025-03-30T11:19:26Z</time>
      </trkpt>
      <trkpt lat="45.66202" lon="6.55205">
        <ele>1398</ele>
        <time>2025-03-30T11:19:31Z</time>
      </trkpt>
      <trkpt lat="45.66213" lon="6.55201">
        <ele>1396</ele>
        <time>2025-03-30T11:19:39Z</time>
      </trkpt>
      <trkpt lat="45.66222" lon="6.55202">
        <ele>1395</ele>
        <time>2025-03-30T11:19:45Z</time>
      </trkpt>
      <trkpt lat="45.66226" lon="6.55202">
        <ele>1395</ele>
        <time>2025-03-30T11:19:47Z</time>
      </trkpt>
      <trkpt lat="45.66232" lon="6.552">
        <ele>1393</ele>
        <time>2025-03-30T11:19:51Z</time>
      </trkpt>
      <trkpt lat="45.66235" lon="6.55195">
        <ele>1393</ele>
        <time>2025-03-30T11:19:55Z</time>
      </trkpt>
      <trkpt lat="45.66238" lon="6.55189">
        <ele>1392</ele>
        <time>2025-03-30T11:19:59Z</time>
      </trkpt>
      <trkpt lat="45.66236" lon="6.55189">
        <ele>1393</ele>
        <time>2025-03-30T11:20:19Z</time>
      </trkpt>
      <trkpt lat="45.66232" lon="6.55187">
        <ele>1390</ele>
        <time>2025-03-30T11:20:23Z</time>
      </trkpt>
      <trkpt lat="45.6623" lon="6.55186">
        <ele>1390</ele>
        <time>2025-03-30T11:20:25Z</time>
      </trkpt>
      <trkpt lat="45.66225" lon="6.55188">
        <ele>1387</ele>
        <time>2025-03-30T11:20:29Z</time>
      </trkpt>
      <trkpt lat="45.66222" lon="6.55187">
        <ele>1385</ele>
        <time>2025-03-30T11:20:31Z</time>
      </trkpt>
      <trkpt lat="45.6622" lon="6.55185">
        <ele>1385</ele>
        <time>2025-03-30T11:20:33Z</time>
      </trkpt>
      <trkpt lat="45.66217" lon="6.55185">
        <ele>1383</ele>
        <time>2025-03-30T11:20:35Z</time>
      </trkpt>
      <trkpt lat="45.66214" lon="6.55181">
        <ele>1383</ele>
        <time>2025-03-30T11:20:39Z</time>
      </trkpt>
      <trkpt lat="45.6621" lon="6.55179">
        <ele>1383</ele>
        <time>2025-03-30T11:20:43Z</time>
      </trkpt>
      <trkpt lat="45.66203" lon="6.55176">
        <ele>1381</ele>
        <time>2025-03-30T11:20:50Z</time>
      </trkpt>
      <trkpt lat="45.66196" lon="6.55172">
        <ele>1379</ele>
        <time>2025-03-30T11:20:59Z</time>
      </trkpt>
      <trkpt lat="45.6619" lon="6.55166">
        <ele>1376</ele>
        <time>2025-03-30T11:21:05Z</time>
      </trkpt>
      <trkpt lat="45.66183" lon="6.55163">
        <ele>1372</ele>
        <time>2025-03-30T11:21:11Z</time>
      </trkpt>
      <trkpt lat="45.66179" lon="6.55162">
        <ele>1371</ele>
        <time>2025-03-30T11:21:15Z</time>
      </trkpt>
      <trkpt lat="45.66175" lon="6.55158">
        <ele>1370</ele>
        <time>2025-03-30T11:21:19Z</time>
      </trkpt>
      <trkpt lat="45.66171" lon="6.55153">
        <ele>1370</ele>
        <time>2025-03-30T11:21:24Z</time>
      </trkpt>
      <trkpt lat="45.66167" lon="6.55149">
        <ele>1370</ele>
        <time>2025-03-30T11:21:28Z</time>
      </trkpt>
      <trkpt lat="45.66155" lon="6.55134">
        <ele>1369</ele>
        <time>2025-03-30T11:21:45Z</time>
      </trkpt>
      <trkpt lat="45.66152" lon="6.55133">
        <ele>1369</ele>
        <time>2025-03-30T11:21:49Z</time>
      </trkpt>
      <trkpt lat="45.66141" lon="6.55123">
        <ele>1369</ele>
        <time>2025-03-30T11:22:02Z</time>
      </trkpt>
      <trkpt lat="45.66135" lon="6.5512">
        <ele>1369</ele>
        <time>2025-03-30T11:22:09Z</time>
      </trkpt>
      <trkpt lat="45.66126" lon="6.55115">
        <ele>1369</ele>
        <time>2025-03-30T11:22:17Z</time>
      </trkpt>
      <trkpt lat="45.6612" lon="6.55113">
        <ele>1368</ele>
        <time>2025-03-30T11:22:21Z</time>
      </trkpt>
      <trkpt lat="45.6612" lon="6.55108">
        <ele>1367</ele>
        <time>2025-03-30T11:22:27Z</time>
      </trkpt>
      <trkpt lat="45.66124" lon="6.55111">
        <ele>1366</ele>
        <time>2025-03-30T11:22:35Z</time>
      </trkpt>
      <trkpt lat="45.66128" lon="6.55109">
        <ele>1366</ele>
        <time>2025-03-30T11:22:40Z</time>
      </trkpt>
      <trkpt lat="45.66139" lon="6.55114">
        <ele>1363</ele>
        <time>2025-03-30T11:22:54Z</time>
      </trkpt>
      <trkpt lat="45.66143" lon="6.55116">
        <ele>1363</ele>
        <time>2025-03-30T11:22:58Z</time>
      </trkpt>
      <trkpt lat="45.66148" lon="6.55118">
        <ele>1362</ele>
        <time>2025-03-30T11:23:02Z</time>
      </trkpt>
      <trkpt lat="45.66164" lon="6.55125">
        <ele>1360</ele>
        <time>2025-03-30T11:23:14Z</time>
      </trkpt>
      <trkpt lat="45.66178" lon="6.55129">
        <ele>1358</ele>
        <time>2025-03-30T11:23:27Z</time>
      </trkpt>
      <trkpt lat="45.66185" lon="6.55128">
        <ele>1358</ele>
        <time>2025-03-30T11:23:32Z</time>
      </trkpt>
      <trkpt lat="45.66189" lon="6.55128">
        <ele>1358</ele>
        <time>2025-03-30T11:23:34Z</time>
      </trkpt>
      <trkpt lat="45.66208" lon="6.55133">
        <ele>1355</ele>
        <time>2025-03-30T11:23:49Z</time>
      </trkpt>
      <trkpt lat="45.66216" lon="6.55137">
        <ele>1355</ele>
        <time>2025-03-30T11:23:55Z</time>
      </trkpt>
      <trkpt lat="45.66221" lon="6.55139">
        <ele>1355</ele>
        <time>2025-03-30T11:23:59Z</time>
      </trkpt>
      <trkpt lat="45.66226" lon="6.55143">
        <ele>1354</ele>
        <time>2025-03-30T11:24:03Z</time>
      </trkpt>
      <trkpt lat="45.66231" lon="6.55144">
        <ele>1354</ele>
        <time>2025-03-30T11:24:07Z</time>
      </trkpt>
      <trkpt lat="45.66234" lon="6.55144">
        <ele>1354</ele>
        <time>2025-03-30T11:24:10Z</time>
      </trkpt>
      <trkpt lat="45.6626" lon="6.55132">
        <ele>1353</ele>
        <time>2025-03-30T11:24:32Z</time>
      </trkpt>
      <trkpt lat="45.66269" lon="6.55127">
        <ele>1352</ele>
        <time>2025-03-30T11:24:40Z</time>
      </trkpt>
      <trkpt lat="45.66271" lon="6.55123">
        <ele>1352</ele>
        <time>2025-03-30T11:24:42Z</time>
      </trkpt>
      <trkpt lat="45.66275" lon="6.55123">
        <ele>1353</ele>
        <time>2025-03-30T11:24:46Z</time>
      </trkpt>
      <trkpt lat="45.66283" lon="6.55122">
        <ele>1352</ele>
        <time>2025-03-30T11:24:55Z</time>
      </trkpt>
      <trkpt lat="45.6629" lon="6.55121">
        <ele>1352</ele>
        <time>2025-03-30T11:25:01Z</time>
      </trkpt>
      <trkpt lat="45.66302" lon="6.55123">
        <ele>1350</ele>
        <time>2025-03-30T11:25:13Z</time>
      </trkpt>
      <trkpt lat="45.6631" lon="6.55122">
        <ele>1348</ele>
        <time>2025-03-30T11:25:19Z</time>
      </trkpt>
      <trkpt lat="45.66315" lon="6.55121">
        <ele>1347</ele>
        <time>2025-03-30T11:25:23Z</time>
      </trkpt>
      <trkpt lat="45.66319" lon="6.55115">
        <ele>1346</ele>
        <time>2025-03-30T11:25:27Z</time>
      </trkpt>
      <trkpt lat="45.66325" lon="6.55104">
        <ele>1344</ele>
        <time>2025-03-30T11:25:35Z</time>
      </trkpt>
      <trkpt lat="45.66326" lon="6.55102">
        <ele>1343</ele>
        <time>2025-03-30T11:25:37Z</time>
      </trkpt>
      <trkpt lat="45.6633" lon="6.55102">
        <ele>1342</ele>
        <time>2025-03-30T11:26:13Z</time>
      </trkpt>
      <trkpt lat="45.66331" lon="6.55101">
        <ele>1342</ele>
        <time>2025-03-30T11:26:15Z</time>
      </trkpt>
      <trkpt lat="45.66335" lon="6.55093">
        <ele>1340</ele>
        <time>2025-03-30T11:26:17Z</time>
      </trkpt>
      <trkpt lat="45.66337" lon="6.55079">
        <ele>1338</ele>
        <time>2025-03-30T11:26:19Z</time>
      </trkpt>
      <trkpt lat="45.66332" lon="6.55067">
        <ele>1337</ele>
        <time>2025-03-30T11:26:21Z</time>
      </trkpt>
      <trkpt lat="45.66329" lon="6.55025">
        <ele>1335</ele>
        <time>2025-03-30T11:26:26Z</time>
      </trkpt>
      <trkpt lat="45.66333" lon="6.55005">
        <ele>1334</ele>
        <time>2025-03-30T11:26:28Z</time>
      </trkpt>
      <trkpt lat="45.66327" lon="6.5499">
        <ele>1333</ele>
        <time>2025-03-30T11:26:30Z</time>
      </trkpt>
      <trkpt lat="45.6633" lon="6.54974">
        <ele>1332</ele>
        <time>2025-03-30T11:26:32Z</time>
      </trkpt>
      <trkpt lat="45.66337" lon="6.54952">
        <ele>1331</ele>
        <time>2025-03-30T11:26:35Z</time>
      </trkpt>
      <trkpt lat="45.66339" lon="6.54937">
        <ele>1329</ele>
        <time>2025-03-30T11:26:37Z</time>
      </trkpt>
      <trkpt lat="45.66362" lon="6.54908">
        <ele>1325</ele>
        <time>2025-03-30T11:26:41Z</time>
      </trkpt>
      <trkpt lat="45.66372" lon="6.54897">
        <ele>1322</ele>
        <time>2025-03-30T11:26:43Z</time>
      </trkpt>
      <trkpt lat="45.66384" lon="6.54889">
        <ele>1320</ele>
        <time>2025-03-30T11:26:45Z</time>
      </trkpt>
      <trkpt lat="45.66395" lon="6.54878">
        <ele>1317</ele>
        <time>2025-03-30T11:26:47Z</time>
      </trkpt>
      <trkpt lat="45.66405" lon="6.54875">
        <ele>1314</ele>
        <time>2025-03-30T11:26:49Z</time>
      </trkpt>
      <trkpt lat="45.66412" lon="6.54881">
        <ele>1312</ele>
        <time>2025-03-30T11:26:51Z</time>
      </trkpt>
      <trkpt lat="45.66412" lon="6.54884">
        <ele>1309</ele>
        <time>2025-03-30T11:27:03Z</time>
      </trkpt>
      <trkpt lat="45.66413" lon="6.54886">
        <ele>1306</ele>
        <time>2025-03-30T11:27:55Z</time>
      </trkpt>
      <trkpt lat="45.66418" lon="6.54885">
        <ele>1305</ele>
        <time>2025-03-30T11:28:02Z</time>
      </trkpt>
      <trkpt lat="45.66421" lon="6.54885">
        <ele>1304</ele>
        <time>2025-03-30T11:28:06Z</time>
      </trkpt>
      <trkpt lat="45.66426" lon="6.54882">
        <ele>1303</ele>
        <time>2025-03-30T11:28:15Z</time>
      </trkpt>
      <trkpt lat="45.66429" lon="6.54882">
        <ele>1302</ele>
        <time>2025-03-30T11:28:19Z</time>
      </trkpt>
      <trkpt lat="45.66432" lon="6.54882">
        <ele>1301</ele>
        <time>2025-03-30T11:28:23Z</time>
      </trkpt>
      <trkpt lat="45.66441" lon="6.54883">
        <ele>1302</ele>
        <time>2025-03-30T11:28:33Z</time>
      </trkpt>
      <trkpt lat="45.66447" lon="6.54886">
        <ele>1303</ele>
        <time>2025-03-30T11:28:39Z</time>
      </trkpt>
      <trkpt lat="45.66452" lon="6.54891">
        <ele>1303</ele>
        <time>2025-03-30T11:28:43Z</time>
      </trkpt>
      <trkpt lat="45.66454" lon="6.54894">
        <ele>1302</ele>
        <time>2025-03-30T11:28:48Z</time>
      </trkpt>
      <trkpt lat="45.66455" lon="6.54901">
        <ele>1300</ele>
        <time>2025-03-30T11:29:11Z</time>
      </trkpt>
      <trkpt lat="45.66469" lon="6.54892">
        <ele>1297</ele>
        <time>2025-03-30T11:30:06Z</time>
      </trkpt>
      <trkpt lat="45.66461" lon="6.54899">
        <ele>1303</ele>
        <time>2025-03-30T11:31:18Z</time>
      </trkpt>
      <trkpt lat="45.6646" lon="6.54898">
        <ele>1298</ele>
        <time>2025-03-30T11:31:50Z</time>
      </trkpt>
      <trkpt lat="45.66462" lon="6.54898">
        <ele>1299</ele>
        <time>2025-03-30T11:32:02Z</time>
      </trkpt>
      <trkpt lat="45.66461" lon="6.54898">
        <ele>1298</ele>
        <time>2025-03-30T11:32:10Z</time>
      </trkpt>
      <trkpt lat="45.66457" lon="6.54901">
        <ele>1299</ele>
        <time>2025-03-30T11:32:14Z</time>
      </trkpt>
      <trkpt lat="45.66453" lon="6.54903">
        <ele>1299</ele>
        <time>2025-03-30T11:32:20Z</time>
      </trkpt>
      <trkpt lat="45.66476" lon="6.54905">
        <ele>1309</ele>
        <time>2025-03-30T11:40:45Z</time>
      </trkpt>
      <trkpt lat="45.66472" lon="6.54897">
        <ele>1307</ele>
        <time>2025-03-30T11:40:49Z</time>
      </trkpt>
      <trkpt lat="45.66466" lon="6.54893">
        <ele>1298</ele>
        <time>2025-03-30T11:40:57Z</time>
      </trkpt>
      <trkpt lat="45.66467" lon="6.54897">
        <ele>1296</ele>
        <time>2025-03-30T11:41:01Z</time>
      </trkpt>
      <trkpt lat="45.66472" lon="6.54908">
        <ele>1293</ele>
        <time>2025-03-30T11:41:17Z</time>
      </trkpt>
      <trkpt lat="45.66473" lon="6.54915">
        <ele>1293</ele>
        <time>2025-03-30T11:41:21Z</time>
      </trkpt>
      <trkpt lat="45.66473" lon="6.54923">
        <ele>1294</ele>
        <time>2025-03-30T11:41:25Z</time>
      </trkpt>
      <trkpt lat="45.6647" lon="6.54929">
        <ele>1295</ele>
        <time>2025-03-30T11:41:29Z</time>
      </trkpt>
      <trkpt lat="45.66469" lon="6.54933">
        <ele>1296</ele>
        <time>2025-03-30T11:41:31Z</time>
      </trkpt>
      <trkpt lat="45.66472" lon="6.54938">
        <ele>1296</ele>
        <time>2025-03-30T11:41:35Z</time>
      </trkpt>
      <trkpt lat="45.66476" lon="6.54942">
        <ele>1296</ele>
        <time>2025-03-30T11:41:39Z</time>
      </trkpt>
      <trkpt lat="45.66481" lon="6.54947">
        <ele>1296</ele>
        <time>2025-03-30T11:41:46Z</time>
      </trkpt>
      <trkpt lat="45.66485" lon="6.5495">
        <ele>1296</ele>
        <time>2025-03-30T11:41:50Z</time>
      </trkpt>
      <trkpt lat="45.66495" lon="6.54956">
        <ele>1296</ele>
        <time>2025-03-30T11:42:01Z</time>
      </trkpt>
      <trkpt lat="45.66492" lon="6.54954">
        <ele>1295</ele>
        <time>2025-03-30T11:42:09Z</time>
      </trkpt>
      <trkpt lat="45.6648" lon="6.54938">
        <ele>1298</ele>
        <time>2025-03-30T11:42:21Z</time>
      </trkpt>
      <trkpt lat="45.66478" lon="6.54935">
        <ele>1299</ele>
        <time>2025-03-30T11:42:24Z</time>
      </trkpt>
      <trkpt lat="45.66474" lon="6.54925">
        <ele>1300</ele>
        <time>2025-03-30T11:42:31Z</time>
      </trkpt>
      <trkpt lat="45.66473" lon="6.54922">
        <ele>1300</ele>
        <time>2025-03-30T11:42:33Z</time>
      </trkpt>
      <trkpt lat="45.66473" lon="6.54919">
        <ele>1300</ele>
        <time>2025-03-30T11:42:35Z</time>
      </trkpt>
      <trkpt lat="45.66475" lon="6.54915">
        <ele>1299</ele>
        <time>2025-03-30T11:42:39Z</time>
      </trkpt>
      <trkpt lat="45.66474" lon="6.54908">
        <ele>1301</ele>
        <time>2025-03-30T11:42:45Z</time>
      </trkpt>
      <trkpt lat="45.66472" lon="6.54906">
        <ele>1301</ele>
        <time>2025-03-30T11:42:47Z</time>
      </trkpt>
      <trkpt lat="45.6647" lon="6.54904">
        <ele>1302</ele>
        <time>2025-03-30T11:42:49Z</time>
      </trkpt>
      <trkpt lat="45.66461" lon="6.54902">
        <ele>1304</ele>
        <time>2025-03-30T11:42:57Z</time>
      </trkpt>
      <trkpt lat="45.66459" lon="6.549">
        <ele>1304</ele>
        <time>2025-03-30T11:43:00Z</time>
      </trkpt>
    </trkseg>
  </trk>
</gpx>